Time,TemperatureF,DewpointF,PressureIn,WindDirection,WindDirectionDegrees,WindSpeedMPH,WindSpeedGustMPH,Humidity,HourlyPrecipIn,Conditions,Clouds,dailyrainin,SoftwareType,DateUTC
2013-02-20 00:00:00,57.0,53.2,30.01,WSW,257,0.0,0.0,87,0.00,,---,0.00,VWS V14.01,2013-02-20 05:00:00,
2013-02-20 00:01:00,56.9,53.1,30.01,WSW,257,0.0,0.0,87,0.00,,---,0.00,VWS V14.01,2013-02-20 05:01:00,
2013-02-20 00:02:00,56.8,52.7,30.01,WSW,257,0.0,0.0,86,0.00,,---,0.00,VWS V14.01,2013-02-20 05:02:00,
2013-02-20 00:03:00,56.8,52.7,30.01,WSW,257,0.0,0.0,86,0.00,,---,0.00,VWS V14.01,2013-02-20 05:03:00,
2013-02-20 00:04:00,56.6,52.5,30.01,WSW,257,0.0,0.0,86,0.00,,---,0.00,VWS V14.01,2013-02-20 05:04:00,
2013-02-20 00:05:00,56.6,52.5,30.01,WSW,257,0.0,0.0,86,0.00,,---,0.00,VWS V14.01,2013-02-20 05:05:00,
2013-02-20 00:06:00,56.4,52.3,30.01,WSW,257,0.0,0.0,86,0.00,,---,0.00,VWS V14.01,2013-02-20 05:06:00,
2013-02-20 00:07:00,56.3,52.2,30.01,WSW,257,0.0,0.0,86,0.00,,---,0.00,VWS V14.01,2013-02-20 05:07:00,
2013-02-20 00:08:00,56.3,51.9,30.01,WSW,257,0.0,0.0,85,0.00,,---,0.00,VWS V14.01,2013-02-20 05:08:00,
2013-02-20 00:09:00,56.1,51.7,30.01,WSW,257,0.0,0.0,85,0.00,,---,0.00,VWS V14.01,2013-02-20 05:09:00,
2013-02-20 00:10:00,56.1,51.7,30.01,WSW,257,0.0,0.0,85,0.00,,---,0.00,VWS V14.01,2013-02-20 05:10:00,
2013-02-20 00:11:00,56.0,51.9,30.01,WSW,257,0.0,0.0,86,0.00,,---,0.00,VWS V14.01,2013-02-20 05:11:00,
2013-02-20 00:12:00,55.9,51.8,30.01,WSW,257,0.0,0.0,86,0.00,,---,0.00,VWS V14.01,2013-02-20 05:12:00,
2013-02-20 00:13:00,55.9,51.8,30.01,WSW,257,0.0,0.0,86,0.00,,---,0.00,VWS V14.01,2013-02-20 05:13:00,
2013-02-20 00:14:00,55.9,52.1,30.01,WSW,257,0.0,0.0,87,0.00,,---,0.00,VWS V14.01,2013-02-20 05:14:00,
2013-02-20 00:15:00,55.9,52.1,30.00,WSW,257,0.0,0.0,87,0.00,,---,0.00,VWS V14.01,2013-02-20 05:15:00,
2013-02-20 00:16:00,55.9,52.1,30.00,WSW,257,0.0,0.0,87,0.00,,---,0.00,VWS V14.01,2013-02-20 05:16:00,
2013-02-20 00:17:00,55.9,52.4,30.00,WSW,257,0.0,0.0,88,0.00,,---,0.00,VWS V14.01,2013-02-20 05:17:00,
2013-02-20 00:18:00,55.8,52.3,30.00,WSW,257,0.0,0.0,88,0.00,,---,0.00,VWS V14.01,2013-02-20 05:18:00,
2013-02-20 00:19:00,55.9,52.4,30.00,WSW,257,0.0,0.0,88,0.00,,---,0.00,VWS V14.01,2013-02-20 05:19:00,
2013-02-20 00:20:00,56.9,53.1,30.01,WSW,257,0.0,0.0,87,0.00,,---,0.00,VWS V14.01,2013-02-20 05:20:00,
2013-02-20 00:21:00,55.8,52.3,30.00,WSW,257,0.0,0.0,88,0.00,,---,0.00,VWS V14.01,2013-02-20 05:21:00,
2013-02-20 00:22:00,55.8,52.3,30.00,WSW,257,0.0,0.0,88,0.00,,---,0.00,VWS V14.01,2013-02-20 05:22:00,
2013-02-20 00:23:00,55.8,52.3,30.00,WSW,257,0.0,0.0,88,0.00,,---,0.00,VWS V14.01,2013-02-20 05:23:00,
2013-02-20 00:24:00,55.8,52.0,30.00,WSW,257,0.0,0.0,87,0.00,,---,0.00,VWS V14.01,2013-02-20 05:24:00,
2013-02-20 00:25:00,55.7,51.9,30.00,WSW,257,0.0,0.0,87,0.00,,---,0.00,VWS V14.01,2013-02-20 05:25:00,
2013-02-20 00:26:00,55.7,51.9,30.00,WSW,257,0.0,0.0,87,0.00,,---,0.00,VWS V14.01,2013-02-20 05:26:00,
2013-02-20 00:27:00,55.7,51.9,30.00,WSW,257,0.0,0.0,87,0.00,,---,0.00,VWS V14.01,2013-02-20 05:27:00,
2013-02-20 00:28:00,55.6,51.8,30.00,WSW,257,0.0,0.0,87,0.00,,---,0.00,VWS V14.01,2013-02-20 05:28:00,
2013-02-20 00:29:00,55.6,51.8,30.00,WSW,257,0.0,0.0,87,0.00,,---,0.00,VWS V14.01,2013-02-20 05:29:00,
2013-02-20 00:30:00,55.6,51.8,30.00,WSW,257,0.0,0.0,87,0.00,,---,0.00,VWS V14.01,2013-02-20 05:30:00,
2013-02-20 00:31:00,55.6,51.8,30.00,WSW,257,0.0,0.0,87,0.00,,---,0.00,VWS V14.01,2013-02-20 05:31:00,
2013-02-20 00:32:00,55.5,52.0,30.00,WSW,257,0.0,0.0,88,0.00,,---,0.00,VWS V14.01,2013-02-20 05:32:00,
2013-02-20 00:33:00,55.6,52.1,30.00,WSW,257,0.0,0.0,88,0.00,,---,0.00,VWS V14.01,2013-02-20 05:33:00,
2013-02-20 00:34:00,55.6,52.1,30.00,WSW,257,0.0,0.0,88,0.00,,---,0.00,VWS V14.01,2013-02-20 05:34:00,
2013-02-20 00:35:00,55.7,52.5,30.00,WSW,257,0.0,1.0,89,0.00,,---,0.00,VWS V14.01,2013-02-20 05:35:00,
2013-02-20 00:36:00,55.8,52.6,30.00,WSW,257,0.0,1.0,89,0.00,,---,0.00,VWS V14.01,2013-02-20 05:36:00,
2013-02-20 00:37:00,55.9,53.3,30.00,WSW,257,0.0,1.0,91,0.00,,---,0.00,VWS V14.01,2013-02-20 05:37:00,
2013-02-20 00:38:00,56.3,54.0,30.00,WSW,257,0.0,1.0,92,0.00,,---,0.00,VWS V14.01,2013-02-20 05:38:00,
2013-02-20 00:39:00,56.8,54.8,30.00,WSW,257,0.0,1.0,93,0.00,,---,0.00,VWS V14.01,2013-02-20 05:39:00,
2013-02-20 00:40:00,57.1,55.4,30.00,WSW,257,4.0,4.0,94,0.00,,---,0.00,VWS V14.01,2013-02-20 05:40:00,
2013-02-20 00:41:00,57.5,55.8,30.00,WSW,257,2.0,4.0,94,0.00,,---,0.00,VWS V14.01,2013-02-20 05:41:00,
2013-02-20 00:42:00,58.1,56.4,30.00,WSW,257,2.0,4.0,94,0.00,,---,0.00,VWS V14.01,2013-02-20 05:42:00,
2013-02-20 00:43:00,58.4,56.7,30.00,WSW,257,0.0,4.0,94,0.00,,---,0.00,VWS V14.01,2013-02-20 05:43:00,
2013-02-20 00:44:00,58.7,57.0,30.00,WSW,257,0.0,4.0,94,0.00,,---,0.00,VWS V14.01,2013-02-20 05:44:00,
2013-02-20 00:45:00,59.0,57.3,30.00,WSW,257,0.0,4.0,94,0.00,,---,0.00,VWS V14.01,2013-02-20 05:45:00,
2013-02-20 00:46:00,59.3,57.6,30.00,WSW,257,0.0,4.0,94,0.00,,---,0.00,VWS V14.01,2013-02-20 05:46:00,
2013-02-20 00:47:00,59.6,57.9,30.00,WSW,257,0.0,4.0,94,0.00,,---,0.00,VWS V14.01,2013-02-20 05:47:00,
2013-02-20 00:48:00,59.7,58.0,30.00,WSW,257,3.0,4.0,94,0.00,,---,0.00,VWS V14.01,2013-02-20 05:48:00,
2013-02-20 00:49:00,60.0,58.3,30.00,WSW,257,0.0,4.0,94,0.00,,---,0.00,VWS V14.01,2013-02-20 05:49:00,
2013-02-20 00:50:00,60.1,58.1,30.00,WSW,257,0.0,4.0,93,0.00,,---,0.00,VWS V14.01,2013-02-20 05:50:00,
2013-02-20 00:51:00,60.2,58.2,30.00,WSW,257,0.0,5.0,93,0.00,,---,0.00,VWS V14.01,2013-02-20 05:51:00,
2013-02-20 00:52:00,60.4,58.1,30.00,WSW,257,0.0,5.0,92,0.00,,---,0.00,VWS V14.01,2013-02-20 05:52:00,
2013-02-20 00:53:00,60.5,58.2,30.00,WSW,257,0.0,5.0,92,0.00,,---,0.00,VWS V14.01,2013-02-20 05:53:00,
2013-02-20 00:54:00,60.6,58.3,30.00,WSW,257,0.0,5.0,92,0.00,,---,0.00,VWS V14.01,2013-02-20 05:54:00,
2013-02-20 00:55:00,60.7,58.4,30.00,WSW,257,0.0,5.0,92,0.00,,---,0.00,VWS V14.01,2013-02-20 05:55:00,
2013-02-20 00:56:00,60.7,58.1,30.00,WSW,257,0.0,5.0,91,0.00,,---,0.00,VWS V14.01,2013-02-20 05:56:00,
2013-02-20 00:57:00,60.8,58.2,30.00,WSW,257,0.0,5.0,91,0.00,,---,0.00,VWS V14.01,2013-02-20 05:57:00,
2013-02-20 00:58:00,60.8,58.2,30.00,WSW,257,0.0,5.0,91,0.00,,---,0.00,VWS V14.01,2013-02-20 05:58:00,
2013-02-20 00:59:00,60.8,58.2,30.00,WSW,257,0.0,5.0,91,0.00,,---,0.00,VWS V14.01,2013-02-20 05:59:00,
2013-02-20 01:00:00,60.8,58.2,30.00,WSW,257,0.0,5.0,91,0.00,,---,0.00,VWS V14.01,2013-02-20 06:00:00,
2013-02-20 01:01:00,60.8,58.2,30.00,WSW,257,0.0,0.0,91,0.00,,---,0.00,VWS V14.01,2013-02-20 06:01:00,
2013-02-20 01:02:00,60.8,58.2,30.00,WSW,257,2.0,3.0,91,0.00,,---,0.00,VWS V14.01,2013-02-20 06:02:00,
2013-02-20 01:03:00,60.9,58.3,30.00,WSW,257,0.0,3.0,91,0.00,,---,0.00,VWS V14.01,2013-02-20 06:03:00,
2013-02-20 01:04:00,60.9,58.3,30.00,WSW,257,0.0,3.0,91,0.00,,---,0.00,VWS V14.01,2013-02-20 06:04:00,
2013-02-20 01:05:00,60.9,58.3,30.00,WSW,257,0.0,3.0,91,0.00,,---,0.00,VWS V14.01,2013-02-20 06:05:00,
2013-02-20 01:06:00,60.9,58.3,30.00,WSW,257,0.0,3.0,91,0.00,,---,0.00,VWS V14.01,2013-02-20 06:06:00,
2013-02-20 01:07:00,61.0,58.4,30.00,WSW,257,0.0,3.0,91,0.00,,---,0.00,VWS V14.01,2013-02-20 06:07:00,
2013-02-20 01:08:00,61.0,58.4,30.00,WSW,257,2.0,3.0,91,0.00,,---,0.00,VWS V14.01,2013-02-20 06:08:00,
2013-02-20 01:09:00,61.0,58.0,30.00,WSW,257,0.0,3.0,90,0.00,,---,0.00,VWS V14.01,2013-02-20 06:09:00,
2013-02-20 01:10:00,61.0,58.0,30.00,WSW,257,0.0,3.0,90,0.00,,---,0.00,VWS V14.01,2013-02-20 06:10:00,
2013-02-20 01:11:00,61.0,58.0,30.00,WSW,257,0.0,3.0,90,0.00,,---,0.00,VWS V14.01,2013-02-20 06:11:00,
2013-02-20 01:12:00,60.9,57.6,30.00,WSW,257,0.0,3.0,89,0.00,,---,0.00,VWS V14.01,2013-02-20 06:12:00,
2013-02-20 01:13:00,60.8,57.5,30.00,WSW,257,0.0,3.0,89,0.00,,---,0.00,VWS V14.01,2013-02-20 06:13:00,
2013-02-20 01:14:00,60.7,57.4,30.00,WSW,257,0.0,3.0,89,0.00,,---,0.00,VWS V14.01,2013-02-20 06:14:00,
2013-02-20 01:15:00,60.6,57.0,30.00,WSW,257,0.0,3.0,88,0.00,,---,0.00,VWS V14.01,2013-02-20 06:15:00,
2013-02-20 01:16:00,60.4,56.8,30.00,WSW,257,0.0,3.0,88,0.00,,---,0.00,VWS V14.01,2013-02-20 06:16:00,
2013-02-20 01:17:00,60.4,56.8,30.00,WSW,257,0.0,3.0,88,0.00,,---,0.00,VWS V14.01,2013-02-20 06:17:00,
2013-02-20 01:18:00,60.2,56.6,30.00,WSW,257,0.0,3.0,88,0.00,,---,0.00,VWS V14.01,2013-02-20 06:18:00,
2013-02-20 01:19:00,60.1,56.5,30.00,WSW,257,0.0,3.0,88,0.00,,---,0.00,VWS V14.01,2013-02-20 06:19:00,
2013-02-20 01:20:00,60.1,56.5,30.00,WSW,257,0.0,3.0,88,0.00,,---,0.00,VWS V14.01,2013-02-20 06:20:00,
2013-02-20 01:21:00,59.9,56.3,30.00,WSW,257,0.0,3.0,88,0.00,,---,0.00,VWS V14.01,2013-02-20 06:21:00,
2013-02-20 01:22:00,59.8,56.2,30.00,WSW,257,0.0,3.0,88,0.00,,---,0.00,VWS V14.01,2013-02-20 06:22:00,
2013-02-20 01:23:00,59.7,56.2,30.00,WSW,257,0.0,3.0,88,0.00,,---,0.00,VWS V14.01,2013-02-20 06:23:00,
2013-02-20 01:24:00,59.6,56.0,30.00,WSW,257,0.0,3.0,88,0.00,,---,0.00,VWS V14.01,2013-02-20 06:24:00,
2013-02-20 01:25:00,59.5,56.0,30.00,WSW,257,0.0,3.0,88,0.00,,---,0.00,VWS V14.01,2013-02-20 06:25:00,
2013-02-20 01:26:00,59.4,55.8,30.00,WSW,257,0.0,3.0,88,0.00,,---,0.00,VWS V14.01,2013-02-20 06:26:00,
2013-02-20 01:27:00,59.3,55.8,30.00,WSW,257,0.0,3.0,88,0.00,,---,0.00,VWS V14.01,2013-02-20 06:27:00,
2013-02-20 01:28:00,59.1,55.5,30.00,WSW,257,0.0,3.0,88,0.00,,---,0.00,VWS V14.01,2013-02-20 06:28:00,
2013-02-20 01:29:00,59.0,55.5,30.00,WSW,257,0.0,3.0,88,0.00,,---,0.00,VWS V14.01,2013-02-20 06:29:00,
2013-02-20 01:30:00,59.0,55.5,30.00,WSW,257,0.0,3.0,88,0.00,,---,0.00,VWS V14.01,2013-02-20 06:30:00,
2013-02-20 01:31:00,58.8,55.3,30.00,WSW,257,0.0,0.0,88,0.00,,---,0.00,VWS V14.01,2013-02-20 06:31:00,
2013-02-20 01:32:00,58.8,55.3,30.00,WSW,257,0.0,0.0,88,0.00,,---,0.00,VWS V14.01,2013-02-20 06:32:00,
2013-02-20 01:33:00,58.7,55.2,30.00,WSW,257,0.0,0.0,88,0.00,,---,0.00,VWS V14.01,2013-02-20 06:33:00,
2013-02-20 01:34:00,58.6,55.1,30.00,WSW,257,0.0,0.0,88,0.00,,---,0.00,VWS V14.01,2013-02-20 06:34:00,
2013-02-20 01:35:00,58.5,55.0,30.00,WSW,257,0.0,0.0,88,0.00,,---,0.00,VWS V14.01,2013-02-20 06:35:00,
2013-02-20 01:36:00,58.5,55.0,30.00,WSW,257,0.0,0.0,88,0.00,,---,0.00,VWS V14.01,2013-02-20 06:36:00,
2013-02-20 01:37:00,58.5,55.0,30.00,WSW,257,0.0,0.0,88,0.00,,---,0.00,VWS V14.01,2013-02-20 06:37:00,
2013-02-20 01:38:00,58.5,55.0,30.00,WSW,257,0.0,0.0,88,0.00,,---,0.00,VWS V14.01,2013-02-20 06:38:00,
2013-02-20 01:39:00,58.0,54.2,30.00,WSW,257,0.0,0.0,87,0.00,,---,0.00,VWS V14.01,2013-02-20 06:39:00,
2013-02-20 01:40:00,57.8,54.0,30.00,WSW,257,0.0,0.0,87,0.00,,---,0.00,VWS V14.01,2013-02-20 06:40:00,
2013-02-20 01:41:00,57.7,53.9,30.00,WSW,257,0.0,0.0,87,0.00,,---,0.00,VWS V14.01,2013-02-20 06:41:00,
2013-02-20 01:42:00,57.6,53.8,30.00,WSW,257,0.0,0.0,87,0.00,,---,0.00,VWS V14.01,2013-02-20 06:42:00,
2013-02-20 01:43:00,57.5,53.7,30.00,WSW,257,0.0,0.0,87,0.00,,---,0.00,VWS V14.01,2013-02-20 06:43:00,
2013-02-20 01:44:00,57.4,53.6,30.00,WSW,257,0.0,0.0,87,0.00,,---,0.00,VWS V14.01,2013-02-20 06:44:00,
2013-02-20 01:45:00,57.3,53.8,30.00,WSW,257,0.0,0.0,88,0.00,,---,0.00,VWS V14.01,2013-02-20 06:45:00,
2013-02-20 01:46:00,57.2,53.7,30.00,WSW,257,0.0,0.0,88,0.00,,---,0.00,VWS V14.01,2013-02-20 06:46:00,
2013-02-20 01:47:00,57.1,53.6,30.00,WSW,257,0.0,0.0,88,0.00,,---,0.00,VWS V14.01,2013-02-20 06:47:00,
2013-02-20 01:48:00,57.0,53.8,30.00,WSW,257,0.0,0.0,89,0.00,,---,0.00,VWS V14.01,2013-02-20 06:48:00,
2013-02-20 01:49:00,57.0,53.8,30.00,WSW,257,0.0,0.0,89,0.00,,---,0.00,VWS V14.01,2013-02-20 06:49:00,
2013-02-20 01:50:00,56.9,54.0,30.00,WSW,257,0.0,0.0,90,0.00,,---,0.00,VWS V14.01,2013-02-20 06:50:00,
2013-02-20 01:51:00,56.9,54.0,30.00,WSW,257,0.0,0.0,90,0.00,,---,0.00,VWS V14.01,2013-02-20 06:51:00,
2013-02-20 01:52:00,56.9,54.0,30.00,WSW,257,0.0,0.0,90,0.00,,---,0.00,VWS V14.01,2013-02-20 06:52:00,
2013-02-20 01:53:00,56.9,54.0,30.00,WSW,257,0.0,0.0,90,0.00,,---,0.00,VWS V14.01,2013-02-20 06:53:00,
2013-02-20 01:54:00,56.9,54.0,30.00,WSW,257,0.0,0.0,90,0.00,,---,0.00,VWS V14.01,2013-02-20 06:54:00,
2013-02-20 01:55:00,56.9,54.3,30.00,WSW,257,0.0,0.0,91,0.00,,---,0.00,VWS V14.01,2013-02-20 06:55:00,
2013-02-20 01:56:00,57.0,54.4,30.00,WSW,257,0.0,0.0,91,0.00,,---,0.00,VWS V14.01,2013-02-20 06:56:00,
2013-02-20 01:57:00,57.1,54.5,30.00,WSW,257,0.0,0.0,91,0.00,,---,0.00,VWS V14.01,2013-02-20 06:57:00,
2013-02-20 01:58:00,57.3,55.0,30.00,WSW,257,0.0,0.0,92,0.00,,---,0.00,VWS V14.01,2013-02-20 06:58:00,
2013-02-20 01:59:00,57.4,55.1,30.00,WSW,257,0.0,0.0,92,0.00,,---,0.00,VWS V14.01,2013-02-20 06:59:00,
2013-02-20 02:00:00,57.5,55.2,30.00,WSW,257,0.0,0.0,92,0.00,,---,0.00,VWS V14.01,2013-02-20 07:00:00,
2013-02-20 02:01:00,57.6,55.3,30.00,WSW,257,0.0,0.0,92,0.00,,---,0.00,VWS V14.01,2013-02-20 07:01:00,
2013-02-20 02:02:00,57.6,55.3,30.00,WSW,257,0.0,0.0,92,0.00,,---,0.00,VWS V14.01,2013-02-20 07:02:00,
2013-02-20 02:03:00,57.7,55.4,30.00,WSW,257,0.0,0.0,92,0.00,,---,0.00,VWS V14.01,2013-02-20 07:03:00,
2013-02-20 02:04:00,57.7,55.4,30.00,WSW,257,0.0,0.0,92,0.00,,---,0.00,VWS V14.01,2013-02-20 07:04:00,
2013-02-20 02:05:00,57.8,55.8,30.00,WSW,257,0.0,0.0,93,0.00,,---,0.00,VWS V14.01,2013-02-20 07:05:00,
2013-02-20 02:06:00,57.9,55.9,30.00,WSW,257,0.0,0.0,93,0.00,,---,0.00,VWS V14.01,2013-02-20 07:06:00,
2013-02-20 02:07:00,58.0,56.0,30.00,WSW,257,0.0,0.0,93,0.00,,---,0.00,VWS V14.01,2013-02-20 07:07:00,
2013-02-20 02:08:00,58.0,56.0,30.00,WSW,257,0.0,0.0,93,0.00,,---,0.00,VWS V14.01,2013-02-20 07:08:00,
2013-02-20 02:09:00,58.0,55.7,30.00,WSW,257,0.0,0.0,92,0.00,,---,0.00,VWS V14.01,2013-02-20 07:09:00,
2013-02-20 02:10:00,58.0,55.7,30.00,WSW,257,0.0,0.0,92,0.00,,---,0.00,VWS V14.01,2013-02-20 07:10:00,
2013-02-20 02:11:00,58.0,55.7,30.00,WSW,257,0.0,0.0,92,0.00,,---,0.00,VWS V14.01,2013-02-20 07:11:00,
2013-02-20 02:12:00,58.0,55.7,30.00,WSW,257,0.0,0.0,92,0.00,,---,0.00,VWS V14.01,2013-02-20 07:12:00,
2013-02-20 02:13:00,58.0,55.7,30.00,WSW,257,0.0,0.0,92,0.00,,---,0.00,VWS V14.01,2013-02-20 07:13:00,
2013-02-20 02:14:00,57.8,55.5,30.00,WSW,257,0.0,0.0,92,0.00,,---,0.00,VWS V14.01,2013-02-20 07:14:00,
2013-02-20 02:15:00,57.7,55.4,30.00,WSW,257,0.0,0.0,92,0.00,,---,0.00,VWS V14.01,2013-02-20 07:15:00,
2013-02-20 02:16:00,57.7,55.4,30.00,WSW,257,0.0,0.0,92,0.00,,---,0.00,VWS V14.01,2013-02-20 07:16:00,
2013-02-20 02:17:00,57.6,55.3,30.00,WSW,257,0.0,0.0,92,0.00,,---,0.00,VWS V14.01,2013-02-20 07:17:00,
2013-02-20 02:18:00,57.5,55.2,30.00,WSW,257,0.0,0.0,92,0.00,,---,0.00,VWS V14.01,2013-02-20 07:18:00,
2013-02-20 02:19:00,57.5,54.9,30.00,WSW,257,0.0,0.0,91,0.00,,---,0.00,VWS V14.01,2013-02-20 07:19:00,
2013-02-20 02:20:00,57.3,54.7,30.00,WSW,257,0.0,0.0,91,0.00,,---,0.00,VWS V14.01,2013-02-20 07:20:00,
2013-02-20 02:21:00,57.3,54.7,30.00,WSW,257,0.0,0.0,91,0.00,,---,0.00,VWS V14.01,2013-02-20 07:21:00,
2013-02-20 02:22:00,57.2,54.6,30.00,WSW,257,0.0,0.0,91,0.00,,---,0.00,VWS V14.01,2013-02-20 07:22:00,
2013-02-20 02:23:00,57.2,54.9,30.00,WSW,257,0.0,0.0,92,0.00,,---,0.00,VWS V14.01,2013-02-20 07:23:00,
2013-02-20 02:24:00,57.2,54.9,30.00,WSW,257,0.0,0.0,92,0.00,,---,0.00,VWS V14.01,2013-02-20 07:24:00,
2013-02-20 02:25:00,57.1,54.8,30.00,WSW,257,0.0,0.0,92,0.00,,---,0.00,VWS V14.01,2013-02-20 07:25:00,
2013-02-20 02:26:00,57.1,54.8,30.00,WSW,257,0.0,0.0,92,0.00,,---,0.00,VWS V14.01,2013-02-20 07:26:00,
2013-02-20 02:27:00,57.0,54.7,30.00,WSW,257,0.0,0.0,92,0.00,,---,0.00,VWS V14.01,2013-02-20 07:27:00,
2013-02-20 02:28:00,57.1,54.8,30.00,WSW,257,0.0,0.0,92,0.00,,---,0.00,VWS V14.01,2013-02-20 07:28:00,
2013-02-20 02:29:00,57.1,54.8,30.00,WSW,257,0.0,0.0,92,0.00,,---,0.00,VWS V14.01,2013-02-20 07:29:00,
2013-02-20 02:30:00,57.1,55.1,30.00,WSW,257,0.0,0.0,93,0.00,,---,0.00,VWS V14.01,2013-02-20 07:30:00,
2013-02-20 02:31:00,57.1,55.1,30.00,WSW,257,0.0,0.0,93,0.00,,---,0.00,VWS V14.01,2013-02-20 07:31:00,
2013-02-20 02:32:00,57.2,55.2,30.00,WSW,257,0.0,0.0,93,0.00,,---,0.00,VWS V14.01,2013-02-20 07:32:00,
2013-02-20 02:33:00,57.2,55.2,30.00,WSW,257,0.0,0.0,93,0.00,,---,0.00,VWS V14.01,2013-02-20 07:33:00,
2013-02-20 02:34:00,57.2,55.2,30.00,WSW,257,0.0,0.0,93,0.00,,---,0.00,VWS V14.01,2013-02-20 07:34:00,
2013-02-20 02:35:00,57.2,55.2,30.00,WSW,257,0.0,0.0,93,0.00,,---,0.00,VWS V14.01,2013-02-20 07:35:00,
2013-02-20 02:36:00,57.2,55.2,30.00,WSW,257,0.0,0.0,93,0.00,,---,0.00,VWS V14.01,2013-02-20 07:36:00,
2013-02-20 02:37:00,57.2,55.2,30.00,WSW,257,0.0,0.0,93,0.00,,---,0.00,VWS V14.01,2013-02-20 07:37:00,
2013-02-20 02:38:00,57.2,55.2,30.00,WSW,257,0.0,0.0,93,0.00,,---,0.00,VWS V14.01,2013-02-20 07:38:00,
2013-02-20 02:39:00,57.2,54.9,30.00,WSW,257,0.0,0.0,92,0.00,,---,0.00,VWS V14.01,2013-02-20 07:39:00,
2013-02-20 02:40:00,57.1,54.8,30.00,WSW,257,0.0,0.0,92,0.00,,---,0.00,VWS V14.01,2013-02-20 07:40:00,
2013-02-20 02:41:00,57.0,54.7,30.00,WSW,257,0.0,0.0,92,0.00,,---,0.00,VWS V14.01,2013-02-20 07:41:00,
2013-02-20 02:42:00,56.9,54.6,30.00,WSW,257,0.0,0.0,92,0.00,,---,0.00,VWS V14.01,2013-02-20 07:42:00,
2013-02-20 02:45:00,56.6,54.3,29.99,WSW,257,0.0,0.0,92,0.00,,---,0.00,VWS V14.01,2013-02-20 07:45:00,
2013-02-20 02:46:00,56.6,54.3,29.99,WSW,257,0.0,0.0,92,0.00,,---,0.00,VWS V14.01,2013-02-20 07:46:00,
2013-02-20 02:47:00,56.6,54.3,29.99,WSW,257,0.0,0.0,92,0.00,,---,0.00,VWS V14.01,2013-02-20 07:47:00,
2013-02-20 02:48:00,56.5,54.2,29.99,WSW,257,0.0,0.0,92,0.00,,---,0.00,VWS V14.01,2013-02-20 07:48:00,
2013-02-20 02:49:00,56.5,54.2,29.99,WSW,257,0.0,0.0,92,0.00,,---,0.00,VWS V14.01,2013-02-20 07:49:00,
2013-02-20 02:50:00,56.4,54.1,29.99,WSW,257,0.0,0.0,92,0.00,,---,0.00,VWS V14.01,2013-02-20 07:50:00,
2013-02-20 02:51:00,56.4,54.1,29.99,WSW,257,0.0,0.0,92,0.00,,---,0.00,VWS V14.01,2013-02-20 07:51:00,
2013-02-20 02:52:00,56.3,54.0,29.99,WSW,257,0.0,0.0,92,0.00,,---,0.00,VWS V14.01,2013-02-20 07:52:00,
2013-02-20 02:53:00,56.3,54.0,29.99,WSW,257,0.0,0.0,92,0.00,,---,0.00,VWS V14.01,2013-02-20 07:53:00,
2013-02-20 02:54:00,56.2,53.9,29.99,WSW,257,0.0,0.0,92,0.00,,---,0.00,VWS V14.01,2013-02-20 07:54:00,
2013-02-20 02:55:00,56.2,53.9,29.99,WSW,257,0.0,0.0,92,0.00,,---,0.00,VWS V14.01,2013-02-20 07:55:00,
2013-02-20 02:56:00,56.2,53.9,29.99,WSW,257,0.0,0.0,92,0.00,,---,0.00,VWS V14.01,2013-02-20 07:56:00,
2013-02-20 02:57:00,56.2,53.9,29.99,WSW,257,0.0,0.0,92,0.00,,---,0.00,VWS V14.01,2013-02-20 07:57:00,
2013-02-20 02:58:00,56.2,53.9,29.99,WSW,257,0.0,0.0,92,0.00,,---,0.00,VWS V14.01,2013-02-20 07:58:00,
2013-02-20 02:59:00,56.1,53.8,29.99,WSW,257,0.0,0.0,92,0.00,,---,0.00,VWS V14.01,2013-02-20 07:59:00,
2013-02-20 03:00:00,56.1,53.8,29.99,WSW,257,0.0,0.0,92,0.00,,---,0.00,VWS V14.01,2013-02-20 08:00:00,
2013-02-20 03:01:00,56.1,53.8,29.99,WSW,257,0.0,0.0,92,0.00,,---,0.00,VWS V14.01,2013-02-20 08:01:00,
2013-02-20 03:02:00,56.1,53.8,29.99,WSW,257,0.0,0.0,92,0.00,,---,0.00,VWS V14.01,2013-02-20 08:02:00,
2013-02-20 03:03:00,56.1,53.8,29.99,WSW,257,0.0,0.0,92,0.00,,---,0.00,VWS V14.01,2013-02-20 08:03:00,
2013-02-20 03:04:00,56.1,53.8,29.99,WSW,257,0.0,0.0,92,0.00,,---,0.00,VWS V14.01,2013-02-20 08:04:00,
2013-02-20 03:05:00,56.1,53.8,29.99,WSW,257,0.0,0.0,92,0.00,,---,0.00,VWS V14.01,2013-02-20 08:05:00,
2013-02-20 03:06:00,56.2,54.2,29.99,WSW,257,0.0,0.0,93,0.00,,---,0.00,VWS V14.01,2013-02-20 08:06:00,
2013-02-20 03:07:00,56.4,54.4,29.99,WSW,257,0.0,0.0,93,0.00,,---,0.00,VWS V14.01,2013-02-20 08:07:00,
2013-02-20 03:08:00,56.4,54.4,29.99,WSW,257,0.0,0.0,93,0.00,,---,0.00,VWS V14.01,2013-02-20 08:08:00,
2013-02-20 03:09:00,56.5,54.5,29.99,WSW,257,0.0,0.0,93,0.00,,---,0.00,VWS V14.01,2013-02-20 08:09:00,
2013-02-20 03:10:00,56.6,54.9,29.99,WSW,257,0.0,0.0,94,0.00,,---,0.00,VWS V14.01,2013-02-20 08:10:00,
2013-02-20 03:11:00,56.7,55.0,29.99,WSW,257,0.0,0.0,94,0.00,,---,0.00,VWS V14.01,2013-02-20 08:11:00,
2013-02-20 03:12:00,56.8,55.1,29.99,WSW,257,0.0,0.0,94,0.00,,---,0.00,VWS V14.01,2013-02-20 08:12:00,
2013-02-20 03:13:00,56.8,55.1,29.99,WSW,257,0.0,0.0,94,0.00,,---,0.00,VWS V14.01,2013-02-20 08:13:00,
2013-02-20 03:14:00,56.9,55.2,29.99,WSW,257,0.0,0.0,94,0.00,,---,0.00,VWS V14.01,2013-02-20 08:14:00,
2013-02-20 03:15:00,56.9,55.2,29.99,WSW,257,0.0,0.0,94,0.00,,---,0.00,VWS V14.01,2013-02-20 08:15:00,
2013-02-20 03:16:00,56.9,55.2,29.99,WSW,257,0.0,0.0,94,0.00,,---,0.00,VWS V14.01,2013-02-20 08:16:00,
2013-02-20 03:17:00,57.0,55.3,29.99,WSW,257,0.0,0.0,94,0.00,,---,0.00,VWS V14.01,2013-02-20 08:17:00,
2013-02-20 03:18:00,57.0,55.3,29.99,WSW,257,0.0,0.0,94,0.00,,---,0.00,VWS V14.01,2013-02-20 08:18:00,
2013-02-20 03:19:00,56.1,53.8,29.99,WSW,257,0.0,0.0,92,0.00,,---,0.00,VWS V14.01,2013-02-20 08:19:00,
2013-02-20 03:20:00,57.0,55.3,29.99,WSW,257,0.0,0.0,94,0.00,,---,0.00,VWS V14.01,2013-02-20 08:20:00,
2013-02-20 03:21:00,57.1,55.4,29.99,WSW,257,0.0,0.0,94,0.00,,---,0.00,VWS V14.01,2013-02-20 08:21:00,
2013-02-20 03:22:00,57.1,55.4,29.99,WSW,257,0.0,0.0,94,0.00,,---,0.00,VWS V14.01,2013-02-20 08:22:00,
2013-02-20 03:23:00,57.1,55.1,29.99,WSW,257,0.0,0.0,93,0.00,,---,0.00,VWS V14.01,2013-02-20 08:23:00,
2013-02-20 03:24:00,57.1,55.1,29.99,WSW,257,0.0,0.0,93,0.00,,---,0.00,VWS V14.01,2013-02-20 08:24:00,
2013-02-20 03:25:00,57.1,55.1,29.99,WSW,257,0.0,0.0,93,0.00,,---,0.00,VWS V14.01,2013-02-20 08:25:00,
2013-02-20 03:26:00,57.1,55.1,29.99,WSW,257,0.0,0.0,93,0.00,,---,0.00,VWS V14.01,2013-02-20 08:26:00,
2013-02-20 03:27:00,57.1,55.1,29.99,WSW,257,0.0,0.0,93,0.00,,---,0.00,VWS V14.01,2013-02-20 08:27:00,
2013-02-20 03:28:00,57.1,55.1,29.99,WSW,257,0.0,0.0,93,0.00,,---,0.00,VWS V14.01,2013-02-20 08:28:00,
2013-02-20 03:29:00,57.1,55.1,29.99,WSW,257,0.0,0.0,93,0.00,,---,0.00,VWS V14.01,2013-02-20 08:29:00,
2013-02-20 03:30:00,57.1,55.1,29.98,WSW,257,0.0,0.0,93,0.00,,---,0.00,VWS V14.01,2013-02-20 08:30:00,
2013-02-20 03:31:00,57.1,55.1,29.98,WSW,257,0.0,0.0,93,0.00,,---,0.00,VWS V14.01,2013-02-20 08:31:00,
2013-02-20 03:32:00,57.1,55.1,29.98,WSW,257,0.0,0.0,93,0.00,,---,0.00,VWS V14.01,2013-02-20 08:32:00,
2013-02-20 03:33:00,57.1,55.1,29.98,WSW,257,0.0,0.0,93,0.00,,---,0.00,VWS V14.01,2013-02-20 08:33:00,
2013-02-20 03:34:00,57.1,55.1,29.98,WSW,257,0.0,0.0,93,0.00,,---,0.00,VWS V14.01,2013-02-20 08:34:00,
2013-02-20 03:35:00,57.0,55.0,29.98,WSW,257,0.0,0.0,93,0.00,,---,0.00,VWS V14.01,2013-02-20 08:35:00,
2013-02-20 03:36:00,57.0,55.0,29.98,WSW,257,0.0,0.0,93,0.00,,---,0.00,VWS V14.01,2013-02-20 08:36:00,
2013-02-20 03:37:00,56.9,54.9,29.98,WSW,257,0.0,0.0,93,0.00,,---,0.00,VWS V14.01,2013-02-20 08:37:00,
2013-02-20 03:38:00,56.9,54.9,29.98,WSW,257,0.0,0.0,93,0.00,,---,0.00,VWS V14.01,2013-02-20 08:38:00,
2013-02-20 03:39:00,56.9,54.9,29.98,WSW,257,0.0,0.0,93,0.00,,---,0.00,VWS V14.01,2013-02-20 08:39:00,
2013-02-20 03:40:00,56.8,54.8,29.98,WSW,257,0.0,0.0,93,0.00,,---,0.00,VWS V14.01,2013-02-20 08:40:00,
2013-02-20 03:41:00,56.7,54.7,29.98,WSW,257,0.0,0.0,93,0.00,,---,0.00,VWS V14.01,2013-02-20 08:41:00,
2013-02-20 03:42:00,56.7,54.7,29.98,WSW,257,0.0,0.0,93,0.00,,---,0.00,VWS V14.01,2013-02-20 08:42:00,
2013-02-20 03:43:00,56.6,54.6,29.98,WSW,257,0.0,0.0,93,0.00,,---,0.00,VWS V14.01,2013-02-20 08:43:00,
2013-02-20 03:44:00,56.6,54.6,29.98,WSW,257,0.0,0.0,93,0.00,,---,0.00,VWS V14.01,2013-02-20 08:44:00,
2013-02-20 03:45:00,56.5,54.5,29.98,WSW,257,0.0,0.0,93,0.00,,---,0.00,VWS V14.01,2013-02-20 08:45:00,
2013-02-20 03:46:00,56.5,54.5,29.98,WSW,257,0.0,0.0,93,0.00,,---,0.00,VWS V14.01,2013-02-20 08:46:00,
2013-02-20 03:47:00,56.5,54.5,29.98,WSW,257,0.0,0.0,93,0.00,,---,0.00,VWS V14.01,2013-02-20 08:47:00,
2013-02-20 03:48:00,56.5,54.5,29.98,WSW,257,0.0,0.0,93,0.00,,---,0.00,VWS V14.01,2013-02-20 08:48:00,
2013-02-20 03:49:00,56.5,54.5,29.98,WSW,257,0.0,0.0,93,0.00,,---,0.00,VWS V14.01,2013-02-20 08:49:00,
2013-02-20 03:50:00,56.5,54.5,29.98,WSW,257,0.0,0.0,93,0.00,,---,0.00,VWS V14.01,2013-02-20 08:50:00,
2013-02-20 03:51:00,56.5,54.5,29.98,WSW,257,0.0,0.0,93,0.00,,---,0.00,VWS V14.01,2013-02-20 08:51:00,
2013-02-20 03:52:00,56.4,54.4,29.98,WSW,257,0.0,0.0,93,0.00,,---,0.00,VWS V14.01,2013-02-20 08:52:00,
2013-02-20 03:53:00,56.4,54.4,29.98,WSW,257,0.0,0.0,93,0.00,,---,0.00,VWS V14.01,2013-02-20 08:53:00,
2013-02-20 03:54:00,56.4,54.4,29.98,WSW,257,0.0,0.0,93,0.00,,---,0.00,VWS V14.01,2013-02-20 08:54:00,
2013-02-20 03:55:00,56.4,54.4,29.98,WSW,257,0.0,0.0,93,0.00,,---,0.00,VWS V14.01,2013-02-20 08:55:00,
2013-02-20 03:56:00,56.4,54.4,29.98,WSW,257,0.0,0.0,93,0.00,,---,0.00,VWS V14.01,2013-02-20 08:56:00,
2013-02-20 03:57:00,56.4,54.4,29.98,WSW,257,0.0,0.0,93,0.00,,---,0.00,VWS V14.01,2013-02-20 08:57:00,
2013-02-20 03:58:00,56.3,54.3,29.98,WSW,257,0.0,0.0,93,0.00,,---,0.00,VWS V14.01,2013-02-20 08:58:00,
2013-02-20 03:59:00,56.3,54.3,29.98,WSW,257,0.0,0.0,93,0.00,,---,0.00,VWS V14.01,2013-02-20 08:59:00,
2013-02-20 04:00:00,56.3,54.3,29.99,WSW,257,0.0,0.0,93,0.00,,---,0.00,VWS V14.01,2013-02-20 09:00:00,
2013-02-20 04:01:00,56.4,54.4,29.99,WSW,257,0.0,0.0,93,0.00,,---,0.00,VWS V14.01,2013-02-20 09:01:00,
2013-02-20 04:02:00,56.4,54.4,29.99,WSW,257,0.0,0.0,93,0.00,,---,0.00,VWS V14.01,2013-02-20 09:02:00,
2013-02-20 04:03:00,56.4,54.7,29.99,WSW,257,0.0,0.0,94,0.00,,---,0.00,VWS V14.01,2013-02-20 09:03:00,
2013-02-20 04:04:00,56.4,54.7,29.99,WSW,257,0.0,0.0,94,0.00,,---,0.00,VWS V14.01,2013-02-20 09:04:00,
2013-02-20 04:05:00,56.4,54.7,29.99,WSW,257,0.0,0.0,94,0.00,,---,0.00,VWS V14.01,2013-02-20 09:05:00,
2013-02-20 04:06:00,56.4,54.7,29.99,WSW,257,0.0,0.0,94,0.00,,---,0.00,VWS V14.01,2013-02-20 09:06:00,
2013-02-20 04:07:00,56.4,54.7,29.99,WSW,257,0.0,0.0,94,0.00,,---,0.00,VWS V14.01,2013-02-20 09:07:00,
2013-02-20 04:08:00,56.4,54.7,29.99,WSW,257,0.0,0.0,94,0.00,,---,0.00,VWS V14.01,2013-02-20 09:08:00,
2013-02-20 04:09:00,56.4,54.7,29.99,WSW,257,0.0,0.0,94,0.00,,---,0.00,VWS V14.01,2013-02-20 09:09:00,
2013-02-20 04:10:00,56.4,54.7,29.99,WSW,257,0.0,0.0,94,0.00,,---,0.00,VWS V14.01,2013-02-20 09:10:00,
2013-02-20 04:11:00,56.4,54.7,29.99,NNW,344,4.0,4.0,94,0.00,,---,0.00,VWS V14.01,2013-02-20 09:11:00,
2013-02-20 04:12:00,56.6,54.9,29.99,North,5,0.0,5.0,94,0.00,,---,0.00,VWS V14.01,2013-02-20 09:12:00,
2013-02-20 04:13:00,56.8,55.1,29.99,North,5,3.0,5.0,94,0.00,,---,0.00,VWS V14.01,2013-02-20 09:13:00,
2013-02-20 04:14:00,56.9,55.2,29.99,North,5,0.0,5.0,94,0.00,,---,0.00,VWS V14.01,2013-02-20 09:14:00,
2013-02-20 04:15:00,57.1,55.4,29.99,North,5,0.0,5.0,94,0.00,,---,0.00,VWS V14.01,2013-02-20 09:15:00,
2013-02-20 04:16:00,57.2,55.8,29.99,North,5,0.0,5.0,95,0.00,,---,0.00,VWS V14.01,2013-02-20 09:16:00,
2013-02-20 04:17:00,57.2,55.8,29.99,North,5,0.0,5.0,95,0.00,,---,0.00,VWS V14.01,2013-02-20 09:17:00,
2013-02-20 04:18:00,57.2,55.8,29.99,North,5,0.0,5.0,95,0.00,,---,0.00,VWS V14.01,2013-02-20 09:18:00,
2013-02-20 04:19:00,57.2,55.8,29.99,North,5,0.0,5.0,95,0.00,,---,0.00,VWS V14.01,2013-02-20 09:19:00,
2013-02-20 04:20:00,57.2,55.8,29.99,North,5,0.0,5.0,95,0.00,,---,0.00,VWS V14.01,2013-02-20 09:20:00,
2013-02-20 04:21:00,57.5,56.1,29.99,North,5,0.0,5.0,95,0.00,,---,0.00,VWS V14.01,2013-02-20 09:21:00,
2013-02-20 04:22:00,57.5,56.1,29.99,North,5,0.0,5.0,95,0.00,,---,0.00,VWS V14.01,2013-02-20 09:22:00,
2013-02-20 04:23:00,57.6,56.2,29.99,North,5,0.0,5.0,95,0.00,,---,0.00,VWS V14.01,2013-02-20 09:23:00,
2013-02-20 04:24:00,57.7,56.3,29.99,North,5,0.0,5.0,95,0.00,,---,0.00,VWS V14.01,2013-02-20 09:24:00,
2013-02-20 04:25:00,57.7,56.3,29.99,North,5,0.0,5.0,95,0.00,,---,0.00,VWS V14.01,2013-02-20 09:25:00,
2013-02-20 04:26:00,57.7,56.3,29.99,North,5,0.0,5.0,95,0.00,,---,0.00,VWS V14.01,2013-02-20 09:26:00,
2013-02-20 04:27:00,57.7,56.3,29.99,North,5,0.0,5.0,95,0.00,,---,0.00,VWS V14.01,2013-02-20 09:27:00,
2013-02-20 04:28:00,57.8,56.4,29.99,North,5,0.0,5.0,95,0.00,,---,0.00,VWS V14.01,2013-02-20 09:28:00,
2013-02-20 04:29:00,57.8,56.1,29.99,North,5,0.0,5.0,94,0.00,,---,0.00,VWS V14.01,2013-02-20 09:29:00,
2013-02-20 04:30:00,57.8,56.1,29.99,North,5,0.0,5.0,94,0.00,,---,0.00,VWS V14.01,2013-02-20 09:30:00,
2013-02-20 04:31:00,57.8,56.1,29.99,North,5,0.0,0.0,94,0.00,,---,0.00,VWS V14.01,2013-02-20 09:31:00,
2013-02-20 04:32:00,57.8,56.1,29.99,North,5,0.0,0.0,94,0.00,,---,0.00,VWS V14.01,2013-02-20 09:32:00,
2013-02-20 04:33:00,57.8,56.1,29.99,North,5,0.0,0.0,94,0.00,,---,0.00,VWS V14.01,2013-02-20 09:33:00,
2013-02-20 04:34:00,57.8,56.1,29.99,North,5,0.0,0.0,94,0.00,,---,0.00,VWS V14.01,2013-02-20 09:34:00,
2013-02-20 04:35:00,57.8,56.1,29.99,North,5,0.0,0.0,94,0.00,,---,0.00,VWS V14.01,2013-02-20 09:35:00,
2013-02-20 04:36:00,57.8,56.1,29.99,North,5,0.0,0.0,94,0.00,,---,0.00,VWS V14.01,2013-02-20 09:36:00,
2013-02-20 04:37:00,57.8,56.1,29.99,North,5,0.0,0.0,94,0.00,,---,0.00,VWS V14.01,2013-02-20 09:37:00,
2013-02-20 04:38:00,57.8,56.1,29.99,North,5,0.0,0.0,94,0.00,,---,0.00,VWS V14.01,2013-02-20 09:38:00,
2013-02-20 04:39:00,57.8,56.1,29.99,North,5,0.0,0.0,94,0.00,,---,0.00,VWS V14.01,2013-02-20 09:39:00,
2013-02-20 04:40:00,57.8,56.1,29.99,North,5,0.0,0.0,94,0.00,,---,0.00,VWS V14.01,2013-02-20 09:40:00,
2013-02-20 04:41:00,57.7,56.0,29.99,North,5,0.0,0.0,94,0.00,,---,0.00,VWS V14.01,2013-02-20 09:41:00,
2013-02-20 04:42:00,57.7,56.0,29.99,North,5,0.0,0.0,94,0.00,,---,0.00,VWS V14.01,2013-02-20 09:42:00,
2013-02-20 04:43:00,57.7,56.0,29.99,North,5,0.0,0.0,94,0.00,,---,0.00,VWS V14.01,2013-02-20 09:43:00,
2013-02-20 04:44:00,57.7,56.0,29.99,North,5,0.0,0.0,94,0.00,,---,0.00,VWS V14.01,2013-02-20 09:44:00,
2013-02-20 04:45:00,57.7,56.0,30.00,North,5,0.0,0.0,94,0.00,,---,0.00,VWS V14.01,2013-02-20 09:45:00,
2013-02-20 04:46:00,57.7,56.0,30.00,North,5,0.0,0.0,94,0.00,,---,0.00,VWS V14.01,2013-02-20 09:46:00,
2013-02-20 04:47:00,57.7,56.0,30.00,North,5,0.0,0.0,94,0.00,,---,0.00,VWS V14.01,2013-02-20 09:47:00,
2013-02-20 04:48:00,57.7,56.0,30.00,North,5,0.0,0.0,94,0.00,,---,0.00,VWS V14.01,2013-02-20 09:48:00,
2013-02-20 04:49:00,57.7,56.0,30.00,North,5,0.0,0.0,94,0.00,,---,0.00,VWS V14.01,2013-02-20 09:49:00,
2013-02-20 04:50:00,57.7,56.0,30.00,North,5,0.0,0.0,94,0.00,,---,0.00,VWS V14.01,2013-02-20 09:50:00,
2013-02-20 04:51:00,57.7,56.0,30.00,North,5,0.0,0.0,94,0.00,,---,0.00,VWS V14.01,2013-02-20 09:51:00,
2013-02-20 04:52:00,57.8,56.1,30.00,North,5,0.0,0.0,94,0.00,,---,0.00,VWS V14.01,2013-02-20 09:52:00,
2013-02-20 04:53:00,57.8,56.1,30.00,North,5,0.0,0.0,94,0.00,,---,0.00,VWS V14.01,2013-02-20 09:53:00,
2013-02-20 04:54:00,57.8,56.1,30.00,North,5,0.0,0.0,94,0.00,,---,0.00,VWS V14.01,2013-02-20 09:54:00,
2013-02-20 04:55:00,57.8,56.1,30.00,North,5,0.0,0.0,94,0.00,,---,0.00,VWS V14.01,2013-02-20 09:55:00,
2013-02-20 04:56:00,57.9,56.2,30.00,North,5,0.0,0.0,94,0.00,,---,0.00,VWS V14.01,2013-02-20 09:56:00,
2013-02-20 04:57:00,57.9,56.2,30.00,North,5,0.0,0.0,94,0.00,,---,0.00,VWS V14.01,2013-02-20 09:57:00,
2013-02-20 04:58:00,58.0,56.3,30.00,North,5,0.0,0.0,94,0.00,,---,0.00,VWS V14.01,2013-02-20 09:58:00,
2013-02-20 04:59:00,58.0,56.3,30.00,North,5,0.0,0.0,94,0.00,,---,0.00,VWS V14.01,2013-02-20 09:59:00,
2013-02-20 05:00:00,58.0,56.3,30.00,North,5,0.0,0.0,94,0.00,,---,0.00,VWS V14.01,2013-02-20 10:00:00,
2013-02-20 05:01:00,58.0,56.3,30.00,North,5,0.0,0.0,94,0.00,,---,0.00,VWS V14.01,2013-02-20 10:01:00,
2013-02-20 05:02:00,58.1,56.4,30.00,North,5,0.0,0.0,94,0.00,,---,0.00,VWS V14.01,2013-02-20 10:02:00,
2013-02-20 05:03:00,58.1,56.4,30.00,North,5,0.0,0.0,94,0.00,,---,0.00,VWS V14.01,2013-02-20 10:03:00,
2013-02-20 05:04:00,58.1,56.4,30.00,North,5,0.0,0.0,94,0.00,,---,0.00,VWS V14.01,2013-02-20 10:04:00,
2013-02-20 05:05:00,58.1,56.4,30.00,North,5,0.0,0.0,94,0.00,,---,0.00,VWS V14.01,2013-02-20 10:05:00,
2013-02-20 05:06:00,58.1,56.4,30.00,North,5,0.0,0.0,94,0.00,,---,0.00,VWS V14.01,2013-02-20 10:06:00,
2013-02-20 05:07:00,58.2,56.8,30.00,North,5,0.0,0.0,95,0.00,,---,0.00,VWS V14.01,2013-02-20 10:07:00,
2013-02-20 05:08:00,58.3,56.9,30.00,North,5,0.0,0.0,95,0.00,,---,0.00,VWS V14.01,2013-02-20 10:08:00,
2013-02-20 05:09:00,58.3,56.9,30.00,North,5,0.0,0.0,95,0.00,,---,0.00,VWS V14.01,2013-02-20 10:09:00,
2013-02-20 05:10:00,58.4,57.0,30.00,North,5,0.0,0.0,95,0.00,,---,0.00,VWS V14.01,2013-02-20 10:10:00,
2013-02-20 05:11:00,58.3,56.9,30.00,North,5,0.0,0.0,95,0.00,,---,0.00,VWS V14.01,2013-02-20 10:11:00,
2013-02-20 05:12:00,58.4,57.0,30.00,North,5,0.0,0.0,95,0.00,,---,0.00,VWS V14.01,2013-02-20 10:12:00,
2013-02-20 05:13:00,58.3,56.6,30.00,North,5,0.0,0.0,94,0.00,,---,0.00,VWS V14.01,2013-02-20 10:13:00,
2013-02-20 05:14:00,58.4,56.7,30.00,North,5,0.0,0.0,94,0.00,,---,0.00,VWS V14.01,2013-02-20 10:14:00,
2013-02-20 05:15:00,58.4,56.7,30.01,North,5,0.0,0.0,94,0.00,,---,0.00,VWS V14.01,2013-02-20 10:15:00,
2013-02-20 05:16:00,58.4,56.7,30.01,North,5,0.0,0.0,94,0.00,,---,0.00,VWS V14.01,2013-02-20 10:16:00,
2013-02-20 05:17:00,58.4,56.7,30.01,North,5,0.0,0.0,94,0.00,,---,0.00,VWS V14.01,2013-02-20 10:17:00,
2013-02-20 05:18:00,58.4,56.7,30.01,North,5,0.0,0.0,94,0.00,,---,0.00,VWS V14.01,2013-02-20 10:18:00,
2013-02-20 05:19:00,58.4,56.7,30.01,North,5,0.0,0.0,94,0.00,,---,0.00,VWS V14.01,2013-02-20 10:19:00,
2013-02-20 05:20:00,58.5,56.8,30.01,North,5,3.0,3.0,94,0.00,,---,0.00,VWS V14.01,2013-02-20 10:20:00,
2013-02-20 05:21:00,58.5,56.8,30.01,North,5,0.0,5.0,94,0.00,,---,0.00,VWS V14.01,2013-02-20 10:21:00,
2013-02-20 05:22:00,58.5,56.8,30.01,North,5,0.0,5.0,94,0.00,,---,0.00,VWS V14.01,2013-02-20 10:22:00,
2013-02-20 05:23:00,58.6,56.9,30.01,North,5,0.0,5.0,94,0.00,,---,0.00,VWS V14.01,2013-02-20 10:23:00,
2013-02-20 05:24:00,58.6,56.9,30.01,North,5,0.0,5.0,94,0.00,,---,0.00,VWS V14.01,2013-02-20 10:24:00,
2013-02-20 05:25:00,58.6,56.9,30.01,North,5,0.0,5.0,94,0.00,,---,0.00,VWS V14.01,2013-02-20 10:25:00,
2013-02-20 05:26:00,58.6,56.9,30.01,North,5,0.0,5.0,94,0.00,,---,0.00,VWS V14.01,2013-02-20 10:26:00,
2013-02-20 05:27:00,58.6,56.9,30.01,North,5,0.0,5.0,94,0.00,,---,0.00,VWS V14.01,2013-02-20 10:27:00,
2013-02-20 05:28:00,58.7,57.0,30.01,North,5,0.0,5.0,94,0.00,,---,0.00,VWS V14.01,2013-02-20 10:28:00,
2013-02-20 05:29:00,58.7,57.3,30.01,North,5,3.0,6.0,95,0.00,,---,0.00,VWS V14.01,2013-02-20 10:29:00,
2013-02-20 05:30:00,58.8,57.1,30.01,North,5,4.0,6.0,94,0.00,,---,0.00,VWS V14.01,2013-02-20 10:30:00,
2013-02-20 05:31:00,58.8,57.1,30.01,North,5,1.0,4.0,94,0.00,,---,0.00,VWS V14.01,2013-02-20 10:31:00,
2013-02-20 05:32:00,58.8,57.1,30.01,North,10,1.0,6.0,94,0.00,,---,0.00,VWS V14.01,2013-02-20 10:32:00,
2013-02-20 05:33:00,58.8,57.1,30.01,North,10,0.0,6.0,94,0.00,,---,0.00,VWS V14.01,2013-02-20 10:33:00,
2013-02-20 05:34:00,58.8,57.1,30.01,North,10,0.0,6.0,94,0.00,,---,0.00,VWS V14.01,2013-02-20 10:34:00,
2013-02-20 05:35:00,58.8,57.1,30.01,North,10,0.0,6.0,94,0.00,,---,0.00,VWS V14.01,2013-02-20 10:35:00,
2013-02-20 05:36:00,58.9,57.2,30.01,North,5,5.0,6.0,94,0.00,,---,0.00,VWS V14.01,2013-02-20 10:36:00,
2013-02-20 05:37:00,58.8,57.1,30.01,North,355,4.0,6.0,94,0.00,,---,0.00,VWS V14.01,2013-02-20 10:37:00,
2013-02-20 05:38:00,58.7,56.7,30.01,North,5,2.0,6.0,93,0.00,,---,0.00,VWS V14.01,2013-02-20 10:38:00,
2013-02-20 05:39:00,58.6,56.6,30.01,North,5,5.0,8.0,93,0.00,,---,0.00,VWS V14.01,2013-02-20 10:39:00,
2013-02-20 05:40:00,58.5,56.5,30.01,North,360,3.0,8.0,93,0.00,,---,0.00,VWS V14.01,2013-02-20 10:40:00,
2013-02-20 05:41:00,58.5,56.5,30.01,North,360,6.0,8.0,93,0.00,,---,0.00,VWS V14.01,2013-02-20 10:41:00,
2013-02-20 05:42:00,58.5,56.5,30.01,North,360,4.0,8.0,93,0.00,,---,0.00,VWS V14.01,2013-02-20 10:42:00,
2013-02-20 05:43:00,58.2,55.9,30.01,NE,53,6.0,11.0,92,0.00,,---,0.00,VWS V14.01,2013-02-20 10:43:00,
2013-02-20 05:44:00,58.2,55.9,30.01,NE,36,3.0,11.0,92,0.00,,---,0.00,VWS V14.01,2013-02-20 10:44:00,
2013-02-20 05:45:00,58.2,55.6,30.02,NE,36,4.0,11.0,91,0.00,,---,0.00,VWS V14.01,2013-02-20 10:45:00,
2013-02-20 05:46:00,58.2,55.3,30.02,NE,35,3.0,11.0,90,0.00,,---,0.00,VWS V14.01,2013-02-20 10:46:00,
2013-02-20 05:47:00,58.2,55.3,30.02,NE,35,0.0,11.0,90,0.00,,---,0.00,VWS V14.01,2013-02-20 10:47:00,
2013-02-20 05:48:00,58.2,55.3,30.02,NE,35,0.0,11.0,90,0.00,,---,0.00,VWS V14.01,2013-02-20 10:48:00,
2013-02-20 05:49:00,58.2,55.3,30.02,NNE,15,10.0,11.0,90,0.00,,---,0.00,VWS V14.01,2013-02-20 10:49:00,
2013-02-20 05:50:00,58.2,55.0,30.02,North,5,6.0,11.0,89,0.00,,---,0.00,VWS V14.01,2013-02-20 10:50:00,
2013-02-20 05:51:00,58.1,54.6,30.02,NNE,24,0.0,11.0,88,0.00,,---,0.00,VWS V14.01,2013-02-20 10:51:00,
2013-02-20 05:52:00,58.2,54.7,30.02,NNE,21,5.0,11.0,88,0.00,,---,0.00,VWS V14.01,2013-02-20 10:52:00,
2013-02-20 05:53:00,58.2,54.7,30.02,NNE,17,1.0,11.0,88,0.00,,---,0.00,VWS V14.01,2013-02-20 10:53:00,
2013-02-20 05:54:00,58.2,54.7,30.02,NNE,17,0.0,11.0,88,0.00,,---,0.00,VWS V14.01,2013-02-20 10:54:00,
2013-02-20 05:55:00,58.3,54.5,30.02,NNE,17,0.0,11.0,87,0.00,,---,0.00,VWS V14.01,2013-02-20 10:55:00,
2013-02-20 05:56:00,58.3,54.5,30.02,NNE,17,0.0,11.0,87,0.00,,---,0.00,VWS V14.01,2013-02-20 10:56:00,
2013-02-20 05:57:00,58.4,54.5,30.02,NNE,17,0.0,11.0,87,0.00,,---,0.00,VWS V14.01,2013-02-20 10:57:00,
2013-02-20 05:58:00,58.4,54.5,30.02,NNE,17,3.0,11.0,87,0.00,,---,0.00,VWS V14.01,2013-02-20 10:58:00,
2013-02-20 05:59:00,58.4,54.5,30.02,NNE,17,3.0,11.0,87,0.00,,---,0.00,VWS V14.01,2013-02-20 10:59:00,
2013-02-20 06:00:00,58.4,54.5,30.03,NNE,17,4.0,11.0,87,0.00,,---,0.00,VWS V14.01,2013-02-20 11:00:00,
2013-02-20 06:01:00,58.4,54.2,30.03,NNE,17,3.0,4.0,86,0.00,,---,0.00,VWS V14.01,2013-02-20 11:01:00,
2013-02-20 06:02:00,58.5,54.0,30.03,NNE,17,0.0,4.0,85,0.00,,---,0.00,VWS V14.01,2013-02-20 11:02:00,
2013-02-20 06:03:00,58.5,54.0,30.03,NNE,16,0.0,4.0,85,0.00,,---,0.00,VWS V14.01,2013-02-20 11:03:00,
2013-02-20 06:04:00,58.5,54.0,30.03,NNE,16,0.0,4.0,85,0.00,,---,0.00,VWS V14.01,2013-02-20 11:04:00,
2013-02-20 06:05:00,58.5,54.0,30.03,NNE,16,0.0,4.0,85,0.00,,---,0.00,VWS V14.01,2013-02-20 11:05:00,
2013-02-20 06:06:00,58.5,54.0,30.03,NNE,16,0.0,4.0,85,0.00,,---,0.00,VWS V14.01,2013-02-20 11:06:00,
2013-02-20 06:07:00,58.5,54.0,30.03,NNE,15,0.0,4.0,85,0.00,,---,0.00,VWS V14.01,2013-02-20 11:07:00,
2013-02-20 06:08:00,58.6,54.1,30.03,NNE,15,4.0,4.0,85,0.00,,---,0.00,VWS V14.01,2013-02-20 11:08:00,
2013-02-20 06:09:00,58.7,53.9,30.03,NNE,15,0.0,4.0,84,0.00,,---,0.00,VWS V14.01,2013-02-20 11:09:00,
2013-02-20 06:10:00,58.7,53.9,30.03,NNE,15,2.0,4.0,84,0.00,,---,0.00,VWS V14.01,2013-02-20 11:10:00,
2013-02-20 06:11:00,58.7,53.9,30.03,NNE,15,4.0,5.0,84,0.00,,---,0.00,VWS V14.01,2013-02-20 11:11:00,
2013-02-20 06:12:00,58.7,53.9,30.03,NNE,15,6.0,6.0,84,0.00,,---,0.00,VWS V14.01,2013-02-20 11:12:00,
2013-02-20 06:13:00,58.7,53.9,30.03,NNE,15,0.0,6.0,84,0.00,,---,0.00,VWS V14.01,2013-02-20 11:13:00,
2013-02-20 06:14:00,58.8,54.0,30.03,NNE,15,0.0,6.0,84,0.00,,---,0.00,VWS V14.01,2013-02-20 11:14:00,
2013-02-20 06:15:00,58.8,54.0,30.03,NNE,15,3.0,6.0,84,0.00,,---,0.00,VWS V14.01,2013-02-20 11:15:00,
2013-02-20 06:16:00,58.8,53.7,30.03,NNE,15,0.0,6.0,83,0.00,,---,0.00,VWS V14.01,2013-02-20 11:16:00,
2013-02-20 06:17:00,58.9,53.8,30.03,NNE,13,0.0,6.0,83,0.00,,---,0.00,VWS V14.01,2013-02-20 11:17:00,
2013-02-20 06:18:00,58.9,53.8,30.03,NNE,13,0.0,6.0,83,0.00,,---,0.00,VWS V14.01,2013-02-20 11:18:00,
2013-02-20 06:19:00,58.9,53.8,30.03,NNE,13,0.0,6.0,83,0.00,,---,0.00,VWS V14.01,2013-02-20 11:19:00,
2013-02-20 06:20:00,58.9,53.8,30.03,NNE,14,0.0,6.0,83,0.00,,---,0.00,VWS V14.01,2013-02-20 11:20:00,
2013-02-20 06:21:00,58.9,53.8,30.03,NNE,14,0.0,6.0,83,0.00,,---,0.00,VWS V14.01,2013-02-20 11:21:00,
2013-02-20 06:22:00,58.9,53.8,30.03,NNE,15,0.0,6.0,83,0.00,,---,0.00,VWS V14.01,2013-02-20 11:22:00,
2013-02-20 06:23:00,58.9,53.8,30.03,NNE,15,1.0,6.0,83,0.00,,---,0.00,VWS V14.01,2013-02-20 11:23:00,
2013-02-20 06:24:00,58.9,53.8,30.03,NNE,15,0.0,6.0,83,0.00,,---,0.00,VWS V14.01,2013-02-20 11:24:00,
2013-02-20 06:25:00,58.9,53.8,30.03,NNE,15,0.0,6.0,83,0.00,,---,0.00,VWS V14.01,2013-02-20 11:25:00,
2013-02-20 06:26:00,58.9,53.8,30.03,NNE,15,3.0,6.0,83,0.00,,---,0.00,VWS V14.01,2013-02-20 11:26:00,
2013-02-20 06:27:00,58.9,53.8,30.03,NNE,15,3.0,6.0,83,0.00,,---,0.00,VWS V14.01,2013-02-20 11:27:00,
2013-02-20 06:28:00,58.9,53.8,30.03,NNE,15,3.0,6.0,83,0.00,,---,0.00,VWS V14.01,2013-02-20 11:28:00,
2013-02-20 06:29:00,58.9,53.8,30.03,NNE,15,1.0,6.0,83,0.00,,---,0.00,VWS V14.01,2013-02-20 11:29:00,
2013-02-20 06:30:00,58.9,53.4,30.03,NNE,15,4.0,6.0,82,0.00,,---,0.00,VWS V14.01,2013-02-20 11:30:00,
2013-02-20 06:31:00,58.9,53.4,30.03,NNE,15,0.0,2.0,82,0.00,,---,0.00,VWS V14.01,2013-02-20 11:31:00,
2013-02-20 06:32:00,58.9,53.4,30.03,NNE,15,0.0,2.0,82,0.00,,---,0.00,VWS V14.01,2013-02-20 11:32:00,
2013-02-20 06:33:00,58.9,53.4,30.03,NNE,15,0.0,2.0,82,0.00,,---,0.00,VWS V14.01,2013-02-20 11:33:00,
2013-02-20 06:34:00,58.9,53.4,30.03,NNE,15,0.0,2.0,82,0.00,,---,0.00,VWS V14.01,2013-02-20 11:34:00,
2013-02-20 06:35:00,58.9,53.4,30.03,NNE,15,0.0,2.0,82,0.00,,---,0.00,VWS V14.01,2013-02-20 11:35:00,
2013-02-20 06:36:00,58.9,53.4,30.03,NNE,15,0.0,2.0,82,0.00,,---,0.00,VWS V14.01,2013-02-20 11:36:00,
2013-02-20 06:37:00,58.9,53.4,30.03,NNE,15,2.0,2.0,82,0.00,,---,0.00,VWS V14.01,2013-02-20 11:37:00,
2013-02-20 06:38:00,58.9,53.4,30.03,NNE,15,0.0,2.0,82,0.00,,---,0.00,VWS V14.01,2013-02-20 11:38:00,
2013-02-20 06:39:00,58.8,53.3,30.03,NNE,15,0.0,2.0,82,0.00,,---,0.00,VWS V14.01,2013-02-20 11:39:00,
2013-02-20 06:40:00,58.8,53.3,30.03,NNE,15,0.0,3.0,82,0.00,,---,0.00,VWS V14.01,2013-02-20 11:40:00,
2013-02-20 06:41:00,58.8,53.3,30.03,NNE,15,3.0,3.0,82,0.00,,---,0.00,VWS V14.01,2013-02-20 11:41:00,
2013-02-20 06:42:00,58.7,53.2,30.03,NNE,15,0.0,4.0,82,0.00,,---,0.00,VWS V14.01,2013-02-20 11:42:00,
2013-02-20 06:43:00,58.7,53.2,30.03,NNE,15,0.0,4.0,82,0.00,,---,0.00,VWS V14.01,2013-02-20 11:43:00,
2013-02-20 06:44:00,58.7,53.2,30.03,NNE,15,0.0,4.0,82,0.00,,---,0.00,VWS V14.01,2013-02-20 11:44:00,
2013-02-20 06:45:00,58.7,53.2,30.03,NNE,14,0.0,5.0,82,0.00,,---,0.00,VWS V14.01,2013-02-20 11:45:00,
2013-02-20 06:46:00,58.7,53.2,30.03,NNE,14,0.0,5.0,82,0.00,,---,0.00,VWS V14.01,2013-02-20 11:46:00,
2013-02-20 06:47:00,58.6,53.1,30.03,NNE,14,0.0,5.0,82,0.00,,---,0.00,VWS V14.01,2013-02-20 11:47:00,
2013-02-20 06:48:00,58.6,53.1,30.03,NNE,14,0.0,5.0,82,0.00,,---,0.00,VWS V14.01,2013-02-20 11:48:00,
2013-02-20 06:49:00,58.6,53.1,30.03,NNE,14,0.0,5.0,82,0.00,,---,0.00,VWS V14.01,2013-02-20 11:49:00,
2013-02-20 06:50:00,58.6,53.1,30.03,NNE,14,0.0,5.0,82,0.00,,---,0.00,VWS V14.01,2013-02-20 11:50:00,
2013-02-20 06:51:00,58.6,53.1,30.03,NNE,14,3.0,5.0,82,0.00,,---,0.00,VWS V14.01,2013-02-20 11:51:00,
2013-02-20 06:52:00,58.6,53.1,30.03,NNE,14,0.0,5.0,82,0.00,,---,0.00,VWS V14.01,2013-02-20 11:52:00,
2013-02-20 06:53:00,58.6,53.1,30.03,NNE,14,0.0,5.0,82,0.00,,---,0.00,VWS V14.01,2013-02-20 11:53:00,
2013-02-20 06:54:00,58.6,53.1,30.03,NNE,14,0.0,5.0,82,0.00,,---,0.00,VWS V14.01,2013-02-20 11:54:00,
2013-02-20 06:55:00,58.6,53.1,30.03,NNE,14,4.0,5.0,82,0.00,,---,0.00,VWS V14.01,2013-02-20 11:55:00,
2013-02-20 06:56:00,58.6,53.1,30.03,NNE,14,0.0,5.0,82,0.00,,---,0.00,VWS V14.01,2013-02-20 11:56:00,
2013-02-20 06:57:00,58.6,53.1,30.03,NNE,14,0.0,5.0,82,0.00,,---,0.00,VWS V14.01,2013-02-20 11:57:00,
2013-02-20 06:58:00,58.6,53.1,30.03,NNE,14,0.0,5.0,82,0.00,,---,0.00,VWS V14.01,2013-02-20 11:58:00,
2013-02-20 06:59:00,58.6,53.1,30.03,NNE,14,2.0,5.0,82,0.00,,---,0.00,VWS V14.01,2013-02-20 11:59:00,
2013-02-20 07:00:00,58.6,53.1,30.04,NNE,14,3.0,5.0,82,0.00,,---,0.00,VWS V14.01,2013-02-20 12:00:00,
2013-02-20 07:01:00,58.6,53.1,30.04,NNE,13,4.0,4.0,82,0.00,,---,0.00,VWS V14.01,2013-02-20 12:01:00,
2013-02-20 07:02:00,58.7,53.2,30.04,NNE,13,2.0,4.0,82,0.00,,---,0.00,VWS V14.01,2013-02-20 12:02:00,
2013-02-20 07:03:00,58.7,53.2,30.04,NNE,13,0.0,4.0,82,0.00,,---,0.00,VWS V14.01,2013-02-20 12:03:00,
2013-02-20 07:04:00,58.7,53.2,30.04,NNE,13,2.0,4.0,82,0.00,,---,0.00,VWS V14.01,2013-02-20 12:04:00,
2013-02-20 07:05:00,58.7,53.2,30.04,NNE,13,1.0,4.0,82,0.00,,---,0.00,VWS V14.01,2013-02-20 12:05:00,
2013-02-20 07:06:00,58.7,53.2,30.04,NNE,13,0.0,4.0,82,0.00,,---,0.00,VWS V14.01,2013-02-20 12:06:00,
2013-02-20 07:07:00,58.7,53.2,30.04,NNE,13,0.0,4.0,82,0.00,,---,0.00,VWS V14.01,2013-02-20 12:07:00,
2013-02-20 07:08:00,58.8,53.3,30.04,NNE,13,0.0,4.0,82,0.00,,---,0.00,VWS V14.01,2013-02-20 12:08:00,
2013-02-20 07:09:00,58.8,53.3,30.04,NNE,13,0.0,4.0,82,0.00,,---,0.00,VWS V14.01,2013-02-20 12:09:00,
2013-02-20 07:10:00,58.8,53.3,30.04,NNE,13,0.0,4.0,82,0.00,,---,0.00,VWS V14.01,2013-02-20 12:10:00,
2013-02-20 07:11:00,58.8,53.3,30.04,NNE,13,2.0,4.0,82,0.00,,---,0.00,VWS V14.01,2013-02-20 12:11:00,
2013-02-20 07:12:00,58.9,53.4,30.04,NNE,13,3.0,5.0,82,0.00,,---,0.00,VWS V14.01,2013-02-20 12:12:00,
2013-02-20 07:13:00,58.9,53.4,30.04,NNE,13,1.0,5.0,82,0.00,,---,0.00,VWS V14.01,2013-02-20 12:13:00,
2013-02-20 07:14:00,58.9,53.4,30.04,NNE,13,0.0,5.0,82,0.00,,---,0.00,VWS V14.01,2013-02-20 12:14:00,
2013-02-20 07:15:00,58.9,53.4,30.05,NNE,13,0.0,5.0,82,0.00,,---,0.00,VWS V14.01,2013-02-20 12:15:00,
2013-02-20 07:16:00,58.9,53.4,30.05,NNE,13,1.0,5.0,82,0.00,,---,0.00,VWS V14.01,2013-02-20 12:16:00,
2013-02-20 07:17:00,58.9,53.4,30.05,NNE,13,4.0,5.0,82,0.00,,---,0.00,VWS V14.01,2013-02-20 12:17:00,
2013-02-20 07:18:00,58.9,53.4,30.05,NNE,13,0.0,5.0,82,0.00,,---,0.00,VWS V14.01,2013-02-20 12:18:00,
2013-02-20 07:19:00,58.9,53.1,30.05,NNE,13,0.0,5.0,81,0.00,,---,0.00,VWS V14.01,2013-02-20 12:19:00,
2013-02-20 07:20:00,59.0,53.2,30.05,NNE,13,0.0,5.0,81,0.00,,---,0.00,VWS V14.01,2013-02-20 12:20:00,
2013-02-20 07:21:00,59.0,53.2,30.05,North,355,4.0,6.0,81,0.00,,---,0.00,VWS V14.01,2013-02-20 12:21:00,
2013-02-20 07:22:00,59.0,53.2,30.05,North,355,4.0,6.0,81,0.00,,---,0.00,VWS V14.01,2013-02-20 12:22:00,
2013-02-20 07:23:00,59.0,53.2,30.05,North,355,3.0,6.0,81,0.00,,---,0.00,VWS V14.01,2013-02-20 12:23:00,
2013-02-20 07:24:00,59.0,53.2,30.05,NNW,348,7.0,7.0,81,0.00,,---,0.00,VWS V14.01,2013-02-20 12:24:00,
2013-02-20 07:25:00,59.0,53.2,30.05,NW,323,3.0,10.0,81,0.00,,---,0.00,VWS V14.01,2013-02-20 12:25:00,
2013-02-20 07:26:00,59.0,53.5,30.05,NNW,346,6.0,10.0,82,0.00,,---,0.00,VWS V14.01,2013-02-20 12:26:00,
2013-02-20 07:27:00,59.0,53.5,30.05,North,355,7.0,10.0,82,0.00,,---,0.00,VWS V14.01,2013-02-20 12:27:00,
2013-02-20 07:28:00,59.0,53.2,30.05,North,355,4.0,10.0,81,0.00,,---,0.00,VWS V14.01,2013-02-20 12:28:00,
2013-02-20 07:29:00,59.0,53.2,30.05,North,355,2.0,10.0,81,0.00,,---,0.00,VWS V14.01,2013-02-20 12:29:00,
2013-02-20 07:30:00,59.0,53.2,30.06,North,355,1.0,10.0,81,0.00,,---,0.00,VWS V14.01,2013-02-20 12:30:00,
2013-02-20 07:31:00,59.0,53.5,30.06,North,355,3.0,3.0,82,0.00,,---,0.00,VWS V14.01,2013-02-20 12:31:00,
2013-02-20 07:32:00,59.0,53.5,30.06,North,355,0.0,3.0,82,0.00,,---,0.00,VWS V14.01,2013-02-20 12:32:00,
2013-02-20 07:33:00,59.0,53.5,30.06,North,355,0.0,3.0,82,0.00,,---,0.00,VWS V14.01,2013-02-20 12:33:00,
2013-02-20 07:34:00,59.0,53.5,30.06,North,355,2.0,3.0,82,0.00,,---,0.00,VWS V14.01,2013-02-20 12:34:00,
2013-02-20 07:35:00,59.0,53.5,30.06,North,355,0.0,4.0,82,0.00,,---,0.00,VWS V14.01,2013-02-20 12:35:00,
2013-02-20 07:36:00,59.0,53.5,30.06,North,5,9.0,9.0,82,0.00,,---,0.00,VWS V14.01,2013-02-20 12:36:00,
2013-02-20 07:37:00,59.0,53.5,30.06,North,5,2.0,9.0,82,0.00,,---,0.00,VWS V14.01,2013-02-20 12:37:00,
2013-02-20 07:38:00,58.9,53.4,30.06,North,5,5.0,9.0,82,0.00,,---,0.00,VWS V14.01,2013-02-20 12:38:00,
2013-02-20 07:39:00,59.0,53.5,30.06,North,5,3.0,9.0,82,0.00,,---,0.00,VWS V14.01,2013-02-20 12:39:00,
2013-02-20 07:40:00,58.9,53.4,30.06,North,5,3.0,9.0,82,0.00,,---,0.00,VWS V14.01,2013-02-20 12:40:00,
2013-02-20 07:41:00,58.9,53.4,30.06,North,5,5.0,9.0,82,0.00,,---,0.00,VWS V14.01,2013-02-20 12:41:00,
2013-02-20 07:42:00,58.9,53.4,30.06,North,5,1.0,9.0,82,0.00,,---,0.00,VWS V14.01,2013-02-20 12:42:00,
2013-02-20 07:43:00,58.9,53.4,30.06,North,5,5.0,9.0,82,0.00,,---,0.00,VWS V14.01,2013-02-20 12:43:00,
2013-02-20 07:44:00,58.9,53.4,30.06,North,5,0.0,9.0,82,0.00,,---,0.00,VWS V14.01,2013-02-20 12:44:00,
2013-02-20 07:45:00,58.9,53.4,30.05,North,5,0.0,9.0,82,0.00,,---,0.00,VWS V14.01,2013-02-20 12:45:00,
2013-02-20 07:46:00,59.0,53.5,30.05,North,5,3.0,9.0,82,0.00,,---,0.00,VWS V14.01,2013-02-20 12:46:00,
2013-02-20 07:47:00,58.9,53.4,30.05,North,5,0.0,9.0,82,0.00,,---,0.00,VWS V14.01,2013-02-20 12:47:00,
2013-02-20 07:48:00,59.0,53.5,30.05,North,5,5.0,9.0,82,0.00,,---,0.00,VWS V14.01,2013-02-20 12:48:00,
2013-02-20 07:49:00,58.9,53.4,30.05,North,5,9.0,9.0,82,0.00,,---,0.00,VWS V14.01,2013-02-20 12:49:00,
2013-02-20 07:50:00,59.0,53.5,30.05,North,5,6.0,9.0,82,0.00,,---,0.00,VWS V14.01,2013-02-20 12:50:00,
2013-02-20 07:51:00,58.9,53.4,30.05,North,5,5.0,9.0,82,0.00,,---,0.00,VWS V14.01,2013-02-20 12:51:00,
2013-02-20 07:52:00,58.9,53.4,30.05,North,5,3.0,9.0,82,0.00,,---,0.00,VWS V14.01,2013-02-20 12:52:00,
2013-02-20 07:53:00,58.9,53.4,30.05,North,360,4.0,9.0,82,0.00,,---,0.00,VWS V14.01,2013-02-20 12:53:00,
2013-02-20 07:54:00,58.9,53.4,30.05,North,355,3.0,9.0,82,0.00,,---,0.00,VWS V14.01,2013-02-20 12:54:00,
2013-02-20 07:55:00,58.9,53.4,30.05,North,5,0.0,9.0,82,0.00,,---,0.00,VWS V14.01,2013-02-20 12:55:00,
2013-02-20 07:56:00,58.8,53.3,30.05,North,5,6.0,9.0,82,0.00,,---,0.00,VWS V14.01,2013-02-20 12:56:00,
2013-02-20 07:57:00,58.8,53.3,30.05,North,5,7.0,10.0,82,0.00,,---,0.00,VWS V14.01,2013-02-20 12:57:00,
2013-02-20 07:58:00,58.8,53.7,30.05,North,5,7.0,10.0,83,0.00,,---,0.00,VWS V14.01,2013-02-20 12:58:00,
2013-02-20 07:59:00,58.8,53.7,30.05,NNE,14,6.0,10.0,83,0.00,,---,0.00,VWS V14.01,2013-02-20 12:59:00,
2013-02-20 08:00:00,58.7,53.6,30.06,North,355,8.0,12.0,83,0.00,,---,0.00,VWS V14.01,2013-02-20 13:00:00,
2013-02-20 08:01:00,58.7,53.6,30.06,North,9,5.0,6.0,83,0.00,,---,0.00,VWS V14.01,2013-02-20 13:01:00,
2013-02-20 08:02:00,58.7,53.6,30.06,NE,44,3.0,6.0,83,0.00,,---,0.00,VWS V14.01,2013-02-20 13:02:00,
2013-02-20 08:03:00,58.7,53.6,30.06,NE,42,4.0,6.0,83,0.00,,---,0.00,VWS V14.01,2013-02-20 13:03:00,
2013-02-20 08:04:00,58.7,53.6,30.06,NE,51,3.0,6.0,83,0.00,,---,0.00,VWS V14.01,2013-02-20 13:04:00,
2013-02-20 08:05:00,58.7,53.6,30.06,NE,46,4.0,6.0,83,0.00,,---,0.00,VWS V14.01,2013-02-20 13:05:00,
2013-02-20 08:06:00,58.7,53.6,30.06,NE,47,0.0,6.0,83,0.00,,---,0.00,VWS V14.01,2013-02-20 13:06:00,
2013-02-20 08:07:00,58.7,53.6,30.06,NE,48,5.0,6.0,83,0.00,,---,0.00,VWS V14.01,2013-02-20 13:07:00,
2013-02-20 08:08:00,58.7,53.6,30.06,NE,46,0.0,6.0,83,0.00,,---,0.00,VWS V14.01,2013-02-20 13:08:00,
2013-02-20 08:09:00,58.8,53.7,30.06,North,5,10.0,10.0,83,0.00,,---,0.00,VWS V14.01,2013-02-20 13:09:00,
2013-02-20 08:10:00,58.8,53.3,30.06,NNE,32,11.0,11.0,82,0.00,,---,0.00,VWS V14.01,2013-02-20 13:10:00,
2013-02-20 08:11:00,58.8,53.0,30.06,NE,51,4.0,11.0,81,0.00,,---,0.00,VWS V14.01,2013-02-20 13:11:00,
2013-02-20 08:12:00,58.8,53.0,30.06,NE,53,6.0,11.0,81,0.00,,---,0.00,VWS V14.01,2013-02-20 13:12:00,
2013-02-20 08:13:00,58.8,53.0,30.06,NE,42,3.0,11.0,81,0.00,,---,0.00,VWS V14.01,2013-02-20 13:13:00,
2013-02-20 08:14:00,58.9,53.4,30.06,NE,40,3.0,11.0,82,0.00,,---,0.00,VWS V14.01,2013-02-20 13:14:00,
2013-02-20 08:15:00,59.0,53.5,30.06,ENE,59,2.0,11.0,82,0.00,,---,0.00,VWS V14.01,2013-02-20 13:15:00,
2013-02-20 08:16:00,59.0,53.2,30.06,NNE,16,3.0,11.0,81,0.00,,---,0.00,VWS V14.01,2013-02-20 13:16:00,
2013-02-20 08:17:00,59.1,53.3,30.06,East,84,3.0,11.0,81,0.00,,---,0.00,VWS V14.01,2013-02-20 13:17:00,
2013-02-20 08:18:00,59.1,52.9,30.06,NNE,18,0.0,11.0,80,0.00,,---,0.00,VWS V14.01,2013-02-20 13:18:00,
2013-02-20 08:19:00,59.2,53.0,30.06,NNE,20,3.0,11.0,80,0.00,,---,0.00,VWS V14.01,2013-02-20 13:19:00,
2013-02-20 08:20:00,59.3,53.1,30.06,NE,49,10.0,11.0,80,0.00,,---,0.00,VWS V14.01,2013-02-20 13:20:00,
2013-02-20 08:21:00,59.3,53.1,30.06,NNE,23,4.0,11.0,80,0.00,,---,0.00,VWS V14.01,2013-02-20 13:21:00,
2013-02-20 08:22:00,59.3,52.8,30.06,NE,49,4.0,11.0,79,0.00,,---,0.00,VWS V14.01,2013-02-20 13:22:00,
2013-02-20 08:23:00,59.3,52.8,30.06,NNE,24,4.0,11.0,79,0.00,,---,0.00,VWS V14.01,2013-02-20 13:23:00,
2013-02-20 08:24:00,59.3,52.8,30.06,NNE,29,2.0,11.0,79,0.00,,---,0.00,VWS V14.01,2013-02-20 13:24:00,
2013-02-20 08:25:00,59.4,52.9,30.06,NE,40,6.0,11.0,79,0.00,,---,0.00,VWS V14.01,2013-02-20 13:25:00,
2013-02-20 08:26:00,59.4,52.9,30.06,NE,40,3.0,11.0,79,0.00,,---,0.00,VWS V14.01,2013-02-20 13:26:00,
2013-02-20 08:27:00,59.4,52.9,30.06,NE,41,5.0,11.0,79,0.00,,---,0.00,VWS V14.01,2013-02-20 13:27:00,
2013-02-20 08:28:00,59.5,52.6,30.06,ENE,60,4.0,13.0,78,0.00,,---,0.00,VWS V14.01,2013-02-20 13:28:00,
2013-02-20 08:29:00,59.5,52.6,30.06,NNE,13,1.0,13.0,78,0.00,,---,0.00,VWS V14.01,2013-02-20 13:29:00,
2013-02-20 08:30:00,59.5,52.6,30.06,NNE,24,2.0,13.0,78,0.00,,---,0.00,VWS V14.01,2013-02-20 13:30:00,
2013-02-20 08:31:00,59.5,52.3,30.06,NNE,18,4.0,5.0,77,0.00,,---,0.00,VWS V14.01,2013-02-20 13:31:00,
2013-02-20 08:32:00,59.6,52.7,30.06,NNE,13,5.0,9.0,78,0.00,,---,0.00,VWS V14.01,2013-02-20 13:32:00,
2013-02-20 08:33:00,59.6,52.4,30.06,NNE,18,1.0,9.0,77,0.00,,---,0.00,VWS V14.01,2013-02-20 13:33:00,
2013-02-20 08:34:00,59.7,52.5,30.06,NNE,21,1.0,9.0,77,0.00,,---,0.00,VWS V14.01,2013-02-20 13:34:00,
2013-02-20 08:35:00,59.7,52.5,30.06,NE,55,5.0,9.0,77,0.00,,---,0.00,VWS V14.01,2013-02-20 13:35:00,
2013-02-20 08:36:00,59.7,52.5,30.06,NE,53,5.0,9.0,77,0.00,,---,0.00,VWS V14.01,2013-02-20 13:36:00,
2013-02-20 08:37:00,59.7,52.5,30.06,NE,53,5.0,9.0,77,0.00,,---,0.00,VWS V14.01,2013-02-20 13:37:00,
2013-02-20 08:38:00,59.7,52.5,30.06,NE,53,5.0,9.0,77,0.00,,---,0.00,VWS V14.01,2013-02-20 13:38:00,
2013-02-20 08:39:00,59.8,52.2,30.06,NNE,12,3.0,9.0,76,0.00,,---,0.00,VWS V14.01,2013-02-20 13:39:00,
2013-02-20 08:40:00,59.8,51.9,30.06,NNE,14,4.0,10.0,75,0.00,,---,0.00,VWS V14.01,2013-02-20 13:40:00,
2013-02-20 08:41:00,59.8,51.9,30.06,North,9,5.0,10.0,75,0.00,,---,0.00,VWS V14.01,2013-02-20 13:41:00,
2013-02-20 08:42:00,59.8,51.9,30.06,NNE,13,6.0,10.0,75,0.00,,---,0.00,VWS V14.01,2013-02-20 13:42:00,
2013-02-20 08:43:00,59.8,51.9,30.06,NNE,18,3.0,10.0,75,0.00,,---,0.00,VWS V14.01,2013-02-20 13:43:00,
2013-02-20 08:44:00,59.8,51.9,30.06,NNE,18,3.0,10.0,75,0.00,,---,0.00,VWS V14.01,2013-02-20 13:44:00,
2013-02-20 08:45:00,59.7,51.8,30.06,NE,38,3.0,10.0,75,0.00,,---,0.00,VWS V14.01,2013-02-20 13:45:00,
2013-02-20 08:46:00,59.7,51.8,30.06,NNE,30,3.0,10.0,75,0.00,,---,0.00,VWS V14.01,2013-02-20 13:46:00,
2013-02-20 08:47:00,59.7,51.8,30.06,NNE,21,6.0,10.0,75,0.00,,---,0.00,VWS V14.01,2013-02-20 13:47:00,
2013-02-20 08:48:00,59.7,51.8,30.06,ENE,59,5.0,10.0,75,0.00,,---,0.00,VWS V14.01,2013-02-20 13:48:00,
2013-02-20 08:49:00,59.8,51.9,30.06,NNE,22,3.0,10.0,75,0.00,,---,0.00,VWS V14.01,2013-02-20 13:49:00,
2013-02-20 08:50:00,59.8,51.9,30.06,NNE,24,6.0,10.0,75,0.00,,---,0.00,VWS V14.01,2013-02-20 13:50:00,
2013-02-20 08:51:00,59.9,52.0,30.06,NNE,33,6.0,10.0,75,0.00,,---,0.00,VWS V14.01,2013-02-20 13:51:00,
2013-02-20 08:52:00,60.0,52.1,30.06,NE,56,4.0,10.0,75,0.00,,---,0.00,VWS V14.01,2013-02-20 13:52:00,
2013-02-20 08:53:00,60.1,51.8,30.06,NE,40,1.0,10.0,74,0.00,,---,0.00,VWS V14.01,2013-02-20 13:53:00,
2013-02-20 08:54:00,60.2,51.9,30.06,NNE,28,4.0,10.0,74,0.00,,---,0.00,VWS V14.01,2013-02-20 13:54:00,
2013-02-20 08:55:00,60.2,51.9,30.06,North,5,4.0,10.0,74,0.00,,---,0.00,VWS V14.01,2013-02-20 13:55:00,
2013-02-20 08:56:00,60.4,51.7,30.06,NNE,18,12.0,13.0,73,0.00,,---,0.00,VWS V14.01,2013-02-20 13:56:00,
2013-02-20 08:57:00,60.4,51.7,30.06,North,350,7.0,13.0,73,0.00,,---,0.00,VWS V14.01,2013-02-20 13:57:00,
2013-02-20 08:58:00,60.4,51.7,30.06,NNW,348,7.0,13.0,73,0.00,,---,0.00,VWS V14.01,2013-02-20 13:58:00,
2013-02-20 08:59:00,60.4,51.7,30.06,NNW,348,7.0,13.0,73,0.00,,---,0.00,VWS V14.01,2013-02-20 13:59:00,
2013-02-20 09:00:00,60.4,51.7,30.06,NNW,348,7.0,13.0,73,0.00,,---,0.00,VWS V14.01,2013-02-20 14:00:00,
2013-02-20 09:01:00,60.4,51.7,30.06,NNW,348,7.0,7.0,73,0.00,,---,0.00,VWS V14.01,2013-02-20 14:01:00,
2013-02-20 09:02:00,60.4,51.7,30.06,North,5,4.0,7.0,73,0.00,,---,0.00,VWS V14.01,2013-02-20 14:02:00,
2013-02-20 09:03:00,60.4,51.7,30.06,North,10,11.0,11.0,73,0.00,,---,0.00,VWS V14.01,2013-02-20 14:03:00,
2013-02-20 09:04:00,60.4,51.3,30.06,North,11,9.0,12.0,72,0.00,,---,0.00,VWS V14.01,2013-02-20 14:04:00,
2013-02-20 09:05:00,60.4,51.3,30.06,NNW,347,9.0,12.0,72,0.00,,---,0.00,VWS V14.01,2013-02-20 14:05:00,
2013-02-20 09:06:00,60.4,51.3,30.06,North,355,5.0,12.0,72,0.00,,---,0.00,VWS V14.01,2013-02-20 14:06:00,
2013-02-20 09:07:00,60.3,51.2,30.06,NNE,15,10.0,12.0,72,0.00,,---,0.00,VWS V14.01,2013-02-20 14:07:00,
2013-02-20 09:08:00,60.2,51.2,30.06,North,355,7.0,12.0,72,0.00,,---,0.00,VWS V14.01,2013-02-20 14:08:00,
2013-02-20 09:09:00,60.2,51.2,30.06,NNE,28,4.0,12.0,72,0.00,,---,0.00,VWS V14.01,2013-02-20 14:09:00,
2013-02-20 09:10:00,60.1,51.1,30.06,North,5,5.0,12.0,72,0.00,,---,0.00,VWS V14.01,2013-02-20 14:10:00,
2013-02-20 09:11:00,60.1,51.1,30.06,NNE,17,8.0,12.0,72,0.00,,---,0.00,VWS V14.01,2013-02-20 14:11:00,
2013-02-20 09:12:00,60.1,51.1,30.06,North,5,9.0,14.0,72,0.00,,---,0.00,VWS V14.01,2013-02-20 14:12:00,
2013-02-20 09:13:00,60.1,51.1,30.06,NNE,17,0.0,14.0,72,0.00,,---,0.00,VWS V14.01,2013-02-20 14:13:00,
2013-02-20 09:14:00,60.2,51.2,30.06,NE,46,1.0,14.0,72,0.00,,---,0.00,VWS V14.01,2013-02-20 14:14:00,
2013-02-20 09:15:00,60.2,51.2,30.06,NNE,13,6.0,14.0,72,0.00,,---,0.00,VWS V14.01,2013-02-20 14:15:00,
2013-02-20 09:16:00,60.2,51.2,30.06,North,5,7.0,14.0,72,0.00,,---,0.00,VWS V14.01,2013-02-20 14:16:00,
2013-02-20 09:17:00,60.3,51.2,30.06,North,5,9.0,14.0,72,0.00,,---,0.00,VWS V14.01,2013-02-20 14:17:00,
2013-02-20 09:18:00,60.3,51.2,30.06,North,5,7.0,14.0,72,0.00,,---,0.00,VWS V14.01,2013-02-20 14:18:00,
2013-02-20 09:19:00,60.3,51.2,30.06,North,5,10.0,14.0,72,0.00,,---,0.00,VWS V14.01,2013-02-20 14:19:00,
2013-02-20 09:20:00,60.3,50.9,30.06,North,10,5.0,14.0,71,0.00,,---,0.00,VWS V14.01,2013-02-20 14:20:00,
2013-02-20 09:21:00,60.3,50.9,30.06,North,5,7.0,14.0,71,0.00,,---,0.00,VWS V14.01,2013-02-20 14:21:00,
2013-02-20 09:22:00,60.3,50.9,30.06,North,5,7.0,14.0,71,0.00,,---,0.00,VWS V14.01,2013-02-20 14:22:00,
2013-02-20 09:23:00,60.3,50.9,30.06,North,5,10.0,14.0,71,0.00,,---,0.00,VWS V14.01,2013-02-20 14:23:00,
2013-02-20 09:24:00,60.3,50.9,30.06,NNE,20,3.0,14.0,71,0.00,,---,0.00,VWS V14.01,2013-02-20 14:24:00,
2013-02-20 09:25:00,60.3,50.9,30.06,North,5,9.0,14.0,71,0.00,,---,0.00,VWS V14.01,2013-02-20 14:25:00,
2013-02-20 09:26:00,60.3,50.5,30.06,NNE,15,3.0,14.0,70,0.00,,---,0.00,VWS V14.01,2013-02-20 14:26:00,
2013-02-20 09:27:00,60.3,50.9,30.06,North,5,4.0,14.0,71,0.00,,---,0.00,VWS V14.01,2013-02-20 14:27:00,
2013-02-20 09:28:00,60.3,50.5,30.06,North,11,5.0,14.0,70,0.00,,---,0.00,VWS V14.01,2013-02-20 14:28:00,
2013-02-20 09:29:00,60.2,50.8,30.06,NNE,19,9.0,14.0,71,0.00,,---,0.00,VWS V14.01,2013-02-20 14:29:00,
2013-02-20 09:30:00,60.3,50.9,30.06,North,5,5.0,14.0,71,0.00,,---,0.00,VWS V14.01,2013-02-20 14:30:00,
2013-02-20 09:31:00,60.3,50.9,30.06,North,5,1.0,9.0,71,0.00,,---,0.00,VWS V14.01,2013-02-20 14:31:00,
2013-02-20 09:32:00,60.3,50.9,30.06,NE,38,5.0,9.0,71,0.00,,---,0.00,VWS V14.01,2013-02-20 14:32:00,
2013-02-20 09:33:00,60.3,50.9,30.06,NE,39,0.0,9.0,71,0.00,,---,0.00,VWS V14.01,2013-02-20 14:33:00,
2013-02-20 09:34:00,60.4,51.0,30.06,NE,49,4.0,9.0,71,0.00,,---,0.00,VWS V14.01,2013-02-20 14:34:00,
2013-02-20 09:35:00,60.4,50.6,30.06,North,5,5.0,9.0,70,0.00,,---,0.00,VWS V14.01,2013-02-20 14:35:00,
2013-02-20 09:36:00,60.4,50.6,30.06,NNE,33,6.0,9.0,70,0.00,,---,0.00,VWS V14.01,2013-02-20 14:36:00,
2013-02-20 09:37:00,60.5,51.1,30.06,NNE,22,4.0,9.0,71,0.00,,---,0.00,VWS V14.01,2013-02-20 14:37:00,
2013-02-20 09:38:00,60.5,51.1,30.06,NE,44,2.0,9.0,71,0.00,,---,0.00,VWS V14.01,2013-02-20 14:38:00,
2013-02-20 09:39:00,60.7,51.2,30.06,NE,40,4.0,9.0,71,0.00,,---,0.00,VWS V14.01,2013-02-20 14:39:00,
2013-02-20 09:40:00,60.8,51.3,30.06,NNE,22,5.0,9.0,71,0.00,,---,0.00,VWS V14.01,2013-02-20 14:40:00,
2013-02-20 09:41:00,61.0,51.2,30.06,NNE,19,3.0,9.0,70,0.00,,---,0.00,VWS V14.01,2013-02-20 14:41:00,
2013-02-20 09:42:00,61.1,51.2,30.06,NNW,336,9.0,10.0,70,0.00,,---,0.00,VWS V14.01,2013-02-20 14:42:00,
2013-02-20 09:43:00,61.1,51.2,30.06,NNW,336,9.0,10.0,70,0.00,,---,0.00,VWS V14.01,2013-02-20 14:43:00,
2013-02-20 09:44:00,61.1,51.2,30.06,NNW,336,9.0,10.0,70,0.00,,---,0.00,VWS V14.01,2013-02-20 14:44:00,
2013-02-20 09:45:00,61.1,50.9,30.06,North,5,7.0,13.0,69,0.00,,---,0.00,VWS V14.01,2013-02-20 14:45:00,
2013-02-20 09:46:00,61.1,50.9,30.06,North,11,4.0,13.0,69,0.00,,---,0.00,VWS V14.01,2013-02-20 14:46:00,
2013-02-20 09:47:00,61.1,50.9,30.06,North,5,3.0,13.0,69,0.00,,---,0.00,VWS V14.01,2013-02-20 14:47:00,
2013-02-20 09:48:00,61.2,51.3,30.06,NNE,15,3.0,13.0,70,0.00,,---,0.00,VWS V14.01,2013-02-20 14:48:00,
2013-02-20 09:49:00,61.3,51.5,30.06,NE,46,5.0,13.0,70,0.00,,---,0.00,VWS V14.01,2013-02-20 14:49:00,
2013-02-20 09:50:00,61.3,51.1,30.06,NE,49,3.0,13.0,69,0.00,,---,0.00,VWS V14.01,2013-02-20 14:50:00,
2013-02-20 09:51:00,61.4,51.2,30.06,NE,51,1.0,13.0,69,0.00,,---,0.00,VWS V14.01,2013-02-20 14:51:00,
2013-02-20 09:52:00,61.4,51.2,30.06,NE,56,3.0,13.0,69,0.00,,---,0.00,VWS V14.01,2013-02-20 14:52:00,
2013-02-20 09:53:00,61.4,51.2,30.06,ENE,63,0.0,13.0,69,0.00,,---,0.00,VWS V14.01,2013-02-20 14:53:00,
2013-02-20 09:54:00,61.5,51.2,30.06,North,5,6.0,13.0,69,0.00,,---,0.00,VWS V14.01,2013-02-20 14:54:00,
2013-02-20 09:55:00,61.4,50.8,30.06,North,5,6.0,13.0,68,0.00,,---,0.00,VWS V14.01,2013-02-20 14:55:00,
2013-02-20 09:56:00,61.4,51.2,30.06,North,355,4.0,13.0,69,0.00,,---,0.00,VWS V14.01,2013-02-20 14:56:00,
2013-02-20 09:57:00,61.4,51.2,30.06,North,351,10.0,13.0,69,0.00,,---,0.00,VWS V14.01,2013-02-20 14:57:00,
2013-02-20 09:58:00,61.4,51.2,30.06,North,355,2.0,13.0,69,0.00,,---,0.00,VWS V14.01,2013-02-20 14:58:00,
2013-02-20 09:59:00,61.4,51.2,30.06,North,5,2.0,13.0,69,0.00,,---,0.00,VWS V14.01,2013-02-20 14:59:00,
2013-02-20 10:00:00,61.4,51.2,30.06,NNE,16,10.0,13.0,69,0.00,,---,0.00,VWS V14.01,2013-02-20 15:00:00,
2013-02-20 10:01:00,61.4,51.2,30.06,North,9,3.0,10.0,69,0.00,,---,0.00,VWS V14.01,2013-02-20 15:01:00,
2013-02-20 10:02:00,61.4,51.2,30.06,NNE,13,6.0,10.0,69,0.00,,---,0.00,VWS V14.01,2013-02-20 15:02:00,
2013-02-20 10:03:00,61.4,51.2,30.06,NE,37,4.0,10.0,69,0.00,,---,0.00,VWS V14.01,2013-02-20 15:03:00,
2013-02-20 10:04:00,61.4,50.8,30.06,NNE,18,5.0,10.0,68,0.00,,---,0.00,VWS V14.01,2013-02-20 15:04:00,
2013-02-20 10:05:00,61.4,51.2,30.06,North,355,5.0,10.0,69,0.00,,---,0.00,VWS V14.01,2013-02-20 15:05:00,
2013-02-20 10:06:00,61.4,51.2,30.06,North,5,10.0,10.0,69,0.00,,---,0.00,VWS V14.01,2013-02-20 15:06:00,
2013-02-20 10:07:00,61.4,50.8,30.06,North,5,9.0,10.0,68,0.00,,---,0.00,VWS V14.01,2013-02-20 15:07:00,
2013-02-20 10:08:00,61.4,50.8,30.06,North,355,9.0,10.0,68,0.00,,---,0.00,VWS V14.01,2013-02-20 15:08:00,
2013-02-20 10:09:00,61.3,50.7,30.06,North,11,5.0,10.0,68,0.00,,---,0.00,VWS V14.01,2013-02-20 15:09:00,
2013-02-20 10:10:00,61.2,50.6,30.06,NNE,30,3.0,10.0,68,0.00,,---,0.00,VWS V14.01,2013-02-20 15:10:00,
2013-02-20 10:11:00,61.3,50.7,30.06,NNE,18,6.0,10.0,68,0.00,,---,0.00,VWS V14.01,2013-02-20 15:11:00,
2013-02-20 10:12:00,61.3,51.1,30.06,NNE,16,2.0,10.0,69,0.00,,---,0.00,VWS V14.01,2013-02-20 15:12:00,
2013-02-20 10:13:00,61.4,51.2,30.06,NNE,17,1.0,10.0,69,0.00,,---,0.00,VWS V14.01,2013-02-20 15:13:00,
2013-02-20 10:14:00,61.4,51.2,30.06,NNE,30,4.0,10.0,69,0.00,,---,0.00,VWS V14.01,2013-02-20 15:14:00,
2013-02-20 10:15:00,61.4,51.2,30.07,NNE,30,0.0,10.0,69,0.00,,---,0.00,VWS V14.01,2013-02-20 15:15:00,
2013-02-20 10:16:00,61.5,50.8,30.07,NE,35,2.0,10.0,68,0.00,,---,0.00,VWS V14.01,2013-02-20 15:16:00,
2013-02-20 10:17:00,61.6,51.0,30.07,NE,43,1.0,10.0,68,0.00,,---,0.00,VWS V14.01,2013-02-20 15:17:00,
2013-02-20 10:18:00,61.7,50.6,30.07,NE,36,0.0,10.0,67,0.00,,---,0.00,VWS V14.01,2013-02-20 15:18:00,
2013-02-20 10:19:00,61.7,51.0,30.07,NNE,24,5.0,10.0,68,0.00,,---,0.00,VWS V14.01,2013-02-20 15:19:00,
2013-02-20 10:20:00,61.8,51.5,30.07,North,355,4.0,10.0,69,0.00,,---,0.00,VWS V14.01,2013-02-20 15:20:00,
2013-02-20 10:21:00,61.9,51.6,30.07,North,10,2.0,10.0,69,0.00,,---,0.00,VWS V14.01,2013-02-20 15:21:00,
2013-02-20 10:22:00,62.0,51.3,30.07,North,10,1.0,10.0,68,0.00,,---,0.00,VWS V14.01,2013-02-20 15:22:00,
2013-02-20 10:23:00,62.1,51.0,30.07,North,5,3.0,10.0,67,0.00,,---,0.00,VWS V14.01,2013-02-20 15:23:00,
2013-02-20 10:24:00,62.1,51.0,30.07,North,5,2.0,10.0,67,0.00,,---,0.00,VWS V14.01,2013-02-20 15:24:00,
2013-02-20 10:25:00,62.2,51.5,30.07,North,5,2.0,10.0,68,0.00,,---,0.00,VWS V14.01,2013-02-20 15:25:00,
2013-02-20 10:26:00,62.2,51.5,30.07,North,5,2.0,10.0,68,0.00,,---,0.00,VWS V14.01,2013-02-20 15:26:00,
2013-02-20 10:27:00,62.4,51.7,30.07,ENE,57,0.0,10.0,68,0.00,,---,0.00,VWS V14.01,2013-02-20 15:27:00,
2013-02-20 10:28:00,62.5,51.8,30.07,NNE,33,3.0,10.0,68,0.00,,---,0.00,VWS V14.01,2013-02-20 15:28:00,
2013-02-20 10:29:00,62.6,51.5,30.07,NNE,24,6.0,10.0,67,0.00,,---,0.00,VWS V14.01,2013-02-20 15:29:00,
2013-02-20 10:30:00,62.7,51.6,30.06,NNE,27,0.0,10.0,67,0.00,,---,0.00,VWS V14.01,2013-02-20 15:30:00,
2013-02-20 10:31:00,62.8,51.7,30.06,NNE,22,1.0,4.0,67,0.00,,---,0.00,VWS V14.01,2013-02-20 15:31:00,
2013-02-20 10:32:00,62.9,51.8,30.06,NNE,22,1.0,4.0,67,0.00,,---,0.00,VWS V14.01,2013-02-20 15:32:00,
2013-02-20 10:33:00,62.9,51.8,30.06,NNE,32,3.0,6.0,67,0.00,,---,0.00,VWS V14.01,2013-02-20 15:33:00,
2013-02-20 10:34:00,62.9,51.4,30.06,NNE,26,4.0,6.0,66,0.00,,---,0.00,VWS V14.01,2013-02-20 15:34:00,
2013-02-20 10:35:00,63.0,51.5,30.06,North,11,6.0,9.0,66,0.00,,---,0.00,VWS V14.01,2013-02-20 15:35:00,
2013-02-20 10:36:00,63.1,52.0,30.06,NNE,15,3.0,9.0,67,0.00,,---,0.00,VWS V14.01,2013-02-20 15:36:00,
2013-02-20 10:37:00,63.2,51.7,30.06,NNE,15,2.0,9.0,66,0.00,,---,0.00,VWS V14.01,2013-02-20 15:37:00,
2013-02-20 10:38:00,63.2,51.7,30.06,NNE,17,4.0,9.0,66,0.00,,---,0.00,VWS V14.01,2013-02-20 15:38:00,
2013-02-20 10:39:00,63.3,51.8,30.06,ENE,57,1.0,9.0,66,0.00,,---,0.00,VWS V14.01,2013-02-20 15:39:00,
2013-02-20 10:40:00,63.4,51.9,30.06,North,5,0.0,9.0,66,0.00,,---,0.00,VWS V14.01,2013-02-20 15:40:00,
2013-02-20 10:41:00,63.4,51.4,30.06,North,5,0.0,9.0,65,0.00,,---,0.00,VWS V14.01,2013-02-20 15:41:00,
2013-02-20 10:42:00,63.4,51.4,30.06,East,92,6.0,9.0,65,0.00,,---,0.00,VWS V14.01,2013-02-20 15:42:00,
2013-02-20 10:43:00,63.6,52.0,30.06,East,90,2.0,9.0,66,0.00,,---,0.00,VWS V14.01,2013-02-20 15:43:00,
2013-02-20 10:44:00,63.7,52.1,30.06,ESE,111,0.0,9.0,66,0.00,,---,0.00,VWS V14.01,2013-02-20 15:44:00,
2013-02-20 10:45:00,63.9,51.9,30.06,ESE,103,2.0,9.0,65,0.00,,---,0.00,VWS V14.01,2013-02-20 15:45:00,
2013-02-20 10:46:00,64.0,52.0,30.06,ESE,103,0.0,9.0,65,0.00,,---,0.00,VWS V14.01,2013-02-20 15:46:00,
2013-02-20 10:47:00,64.1,52.1,30.06,ESE,103,0.0,9.0,65,0.00,,---,0.00,VWS V14.01,2013-02-20 15:47:00,
2013-02-20 10:48:00,64.1,52.1,30.06,ESE,103,3.0,9.0,65,0.00,,---,0.00,VWS V14.01,2013-02-20 15:48:00,
2013-02-20 10:49:00,64.3,52.3,30.06,East,84,4.0,9.0,65,0.00,,---,0.00,VWS V14.01,2013-02-20 15:49:00,
2013-02-20 10:50:00,64.5,52.5,30.06,East,84,3.0,9.0,65,0.00,,---,0.00,VWS V14.01,2013-02-20 15:50:00,
2013-02-20 10:51:00,64.7,52.3,30.06,East,84,0.0,9.0,64,0.00,,---,0.00,VWS V14.01,2013-02-20 15:51:00,
2013-02-20 10:52:00,64.7,52.3,30.06,East,85,2.0,9.0,64,0.00,,---,0.00,VWS V14.01,2013-02-20 15:52:00,
2013-02-20 10:53:00,64.7,52.3,30.06,East,84,0.0,9.0,64,0.00,,---,0.00,VWS V14.01,2013-02-20 15:53:00,
2013-02-20 10:54:00,64.8,52.3,30.06,East,84,0.0,9.0,64,0.00,,---,0.00,VWS V14.01,2013-02-20 15:54:00,
2013-02-20 10:55:00,64.8,52.3,30.06,East,84,0.0,9.0,64,0.00,,---,0.00,VWS V14.01,2013-02-20 15:55:00,
2013-02-20 10:56:00,64.9,52.5,30.06,East,85,3.0,9.0,64,0.00,,---,0.00,VWS V14.01,2013-02-20 15:56:00,
2013-02-20 10:57:00,64.9,52.5,30.06,East,84,3.0,9.0,64,0.00,,---,0.00,VWS V14.01,2013-02-20 15:57:00,
2013-02-20 10:58:00,65.0,52.5,30.06,East,80,1.0,9.0,64,0.00,,---,0.00,VWS V14.01,2013-02-20 15:58:00,
2013-02-20 10:59:00,65.0,52.5,30.06,East,80,3.0,9.0,64,0.00,,---,0.00,VWS V14.01,2013-02-20 15:59:00,
2013-02-20 11:00:00,65.3,52.8,30.05,East,80,0.0,9.0,64,0.00,,---,0.00,VWS V14.01,2013-02-20 16:00:00,
2013-02-20 11:01:00,65.3,52.8,30.05,East,80,0.0,0.0,64,0.00,,---,0.00,VWS V14.01,2013-02-20 16:01:00,
2013-02-20 11:02:00,65.3,52.8,30.05,East,80,0.0,2.0,64,0.00,,---,0.00,VWS V14.01,2013-02-20 16:02:00,
2013-02-20 11:03:00,65.4,52.9,30.05,East,80,1.0,3.0,64,0.00,,---,0.00,VWS V14.01,2013-02-20 16:03:00,
2013-02-20 11:04:00,65.4,52.9,30.05,East,99,3.0,4.0,64,0.00,,---,0.00,VWS V14.01,2013-02-20 16:04:00,
2013-02-20 11:05:00,65.4,52.9,30.05,ESE,109,3.0,4.0,64,0.00,,---,0.00,VWS V14.01,2013-02-20 16:05:00,
2013-02-20 11:06:00,65.4,52.9,30.05,ESE,109,2.0,4.0,64,0.00,,---,0.00,VWS V14.01,2013-02-20 16:06:00,
2013-02-20 11:07:00,65.5,53.0,30.05,ESE,111,0.0,4.0,64,0.00,,---,0.00,VWS V14.01,2013-02-20 16:07:00,
2013-02-20 11:08:00,65.6,53.1,30.05,ESE,113,0.0,4.0,64,0.00,,---,0.00,VWS V14.01,2013-02-20 16:08:00,
2013-02-20 11:09:00,65.7,52.8,30.05,ESE,115,3.0,5.0,63,0.00,,---,0.00,VWS V14.01,2013-02-20 16:09:00,
2013-02-20 11:10:00,65.7,52.8,30.05,ESE,114,2.0,5.0,63,0.00,,---,0.00,VWS V14.01,2013-02-20 16:10:00,
2013-02-20 11:11:00,65.8,52.9,30.05,ESE,112,0.0,5.0,63,0.00,,---,0.00,VWS V14.01,2013-02-20 16:11:00,
2013-02-20 11:12:00,65.9,53.8,30.05,ESE,112,0.0,5.0,65,0.00,,---,0.00,VWS V14.01,2013-02-20 16:12:00,
2013-02-20 11:13:00,66.0,53.1,30.05,SE,124,6.0,9.0,63,0.00,,---,0.00,VWS V14.01,2013-02-20 16:13:00,
2013-02-20 11:14:00,66.1,53.2,30.05,ESE,113,0.0,9.0,63,0.00,,---,0.00,VWS V14.01,2013-02-20 16:14:00,
2013-02-20 11:15:00,66.2,53.2,30.04,ESE,110,3.0,9.0,63,0.00,,---,0.00,VWS V14.01,2013-02-20 16:15:00,
2013-02-20 11:16:00,66.2,53.2,30.04,ESE,103,0.0,9.0,63,0.00,,---,0.00,VWS V14.01,2013-02-20 16:16:00,
2013-02-20 11:17:00,66.3,53.3,30.04,ESE,103,0.0,9.0,63,0.00,,---,0.00,VWS V14.01,2013-02-20 16:17:00,
2013-02-20 11:18:00,66.4,53.4,30.04,ESE,103,0.0,9.0,63,0.00,,---,0.00,VWS V14.01,2013-02-20 16:18:00,
2013-02-20 11:19:00,66.4,53.4,30.04,ESE,103,0.0,9.0,63,0.00,,---,0.00,VWS V14.01,2013-02-20 16:19:00,
2013-02-20 11:20:00,66.4,53.4,30.04,ESE,103,0.0,9.0,63,0.00,,---,0.00,VWS V14.01,2013-02-20 16:20:00,
2013-02-20 11:21:00,66.5,53.5,30.04,ESE,103,0.0,9.0,63,0.00,,---,0.00,VWS V14.01,2013-02-20 16:21:00,
2013-02-20 11:22:00,66.5,53.5,30.04,ESE,103,0.0,9.0,63,0.00,,---,0.00,VWS V14.01,2013-02-20 16:22:00,
2013-02-20 11:23:00,66.6,54.1,30.04,ESE,103,0.0,9.0,64,0.00,,---,0.00,VWS V14.01,2013-02-20 16:23:00,
2013-02-20 11:24:00,66.7,53.7,30.04,ESE,103,2.0,9.0,63,0.00,,---,0.00,VWS V14.01,2013-02-20 16:24:00,
2013-02-20 11:25:00,66.8,53.8,30.04,ESE,103,0.0,9.0,63,0.00,,---,0.00,VWS V14.01,2013-02-20 16:25:00,
2013-02-20 11:26:00,66.9,53.9,30.04,East,97,2.0,9.0,63,0.00,,---,0.00,VWS V14.01,2013-02-20 16:26:00,
2013-02-20 11:27:00,67.0,54.0,30.04,East,96,0.0,9.0,63,0.00,,---,0.00,VWS V14.01,2013-02-20 16:27:00,
2013-02-20 11:28:00,67.1,54.1,30.04,East,96,0.0,9.0,63,0.00,,---,0.00,VWS V14.01,2013-02-20 16:28:00,
2013-02-20 11:29:00,67.2,53.8,30.04,East,96,0.0,9.0,62,0.00,,---,0.00,VWS V14.01,2013-02-20 16:29:00,
2013-02-20 11:30:00,67.2,53.8,30.04,East,95,0.0,9.0,62,0.00,,---,0.00,VWS V14.01,2013-02-20 16:30:00,
2013-02-20 11:31:00,67.3,54.3,30.04,ENE,73,1.0,4.0,63,0.00,,---,0.00,VWS V14.01,2013-02-20 16:31:00,
2013-02-20 11:32:00,67.4,54.4,30.04,ENE,72,0.0,4.0,63,0.00,,---,0.00,VWS V14.01,2013-02-20 16:32:00,
2013-02-20 11:33:00,67.4,54.4,30.04,NE,56,3.0,4.0,63,0.00,,---,0.00,VWS V14.01,2013-02-20 16:33:00,
2013-02-20 11:34:00,67.4,53.9,30.04,NE,56,0.0,4.0,62,0.00,,---,0.00,VWS V14.01,2013-02-20 16:34:00,
2013-02-20 11:35:00,67.4,53.9,30.04,NE,56,0.0,4.0,62,0.00,,---,0.00,VWS V14.01,2013-02-20 16:35:00,
2013-02-20 11:36:00,67.4,54.4,30.04,NE,56,1.0,4.0,63,0.00,,---,0.00,VWS V14.01,2013-02-20 16:36:00,
2013-02-20 11:37:00,67.4,54.4,30.04,NE,56,0.0,4.0,63,0.00,,---,0.00,VWS V14.01,2013-02-20 16:37:00,
2013-02-20 11:38:00,67.6,54.6,30.04,NE,56,0.0,4.0,63,0.00,,---,0.00,VWS V14.01,2013-02-20 16:38:00,
2013-02-20 11:39:00,67.6,54.6,30.04,NE,56,2.0,4.0,63,0.00,,---,0.00,VWS V14.01,2013-02-20 16:39:00,
2013-02-20 11:40:00,67.9,54.4,30.04,ENE,72,1.0,4.0,62,0.00,,---,0.00,VWS V14.01,2013-02-20 16:40:00,
2013-02-20 11:41:00,68.0,54.5,30.04,ENE,72,0.0,4.0,62,0.00,,---,0.00,VWS V14.01,2013-02-20 16:41:00,
2013-02-20 11:42:00,68.1,54.6,30.04,East,83,1.0,4.0,62,0.00,,---,0.00,VWS V14.01,2013-02-20 16:42:00,
2013-02-20 11:43:00,68.2,54.2,30.04,East,88,0.0,4.0,61,0.00,,---,0.00,VWS V14.01,2013-02-20 16:43:00,
2013-02-20 11:44:00,68.3,54.3,30.04,East,85,0.0,4.0,61,0.00,,---,0.00,VWS V14.01,2013-02-20 16:44:00,
2013-02-20 11:45:00,68.4,54.9,30.03,ENE,74,2.0,4.0,62,0.00,,---,0.00,VWS V14.01,2013-02-20 16:45:00,
2013-02-20 11:46:00,68.4,54.4,30.03,ENE,67,1.0,4.0,61,0.00,,---,0.00,VWS V14.01,2013-02-20 16:46:00,
2013-02-20 11:47:00,68.4,54.4,30.03,ENE,67,0.0,4.0,61,0.00,,---,0.00,VWS V14.01,2013-02-20 16:47:00,
2013-02-20 11:48:00,68.5,54.5,30.03,NNE,28,7.0,7.0,61,0.00,,---,0.00,VWS V14.01,2013-02-20 16:48:00,
2013-02-20 11:49:00,68.5,54.5,30.03,NNE,24,5.0,7.0,61,0.00,,---,0.00,VWS V14.01,2013-02-20 16:49:00,
2013-02-20 11:50:00,68.4,54.0,30.03,NNE,21,0.0,7.0,60,0.00,,---,0.00,VWS V14.01,2013-02-20 16:50:00,
2013-02-20 11:51:00,68.3,54.3,30.03,NNE,21,0.0,7.0,61,0.00,,---,0.00,VWS V14.01,2013-02-20 16:51:00,
2013-02-20 11:52:00,68.3,54.3,30.03,NNE,22,0.0,7.0,61,0.00,,---,0.00,VWS V14.01,2013-02-20 16:52:00,
2013-02-20 11:53:00,68.3,54.8,30.03,NNE,22,1.0,7.0,62,0.00,,---,0.00,VWS V14.01,2013-02-20 16:53:00,
2013-02-20 11:54:00,68.3,54.8,30.03,NNE,22,0.0,7.0,62,0.00,,---,0.00,VWS V14.01,2013-02-20 16:54:00,
2013-02-20 11:55:00,68.2,54.2,30.03,NNE,22,0.0,7.0,61,0.00,,---,0.00,VWS V14.01,2013-02-20 16:55:00,
2013-02-20 11:56:00,68.2,54.7,30.03,NNE,22,0.0,7.0,62,0.00,,---,0.00,VWS V14.01,2013-02-20 16:56:00,
2013-02-20 11:57:00,68.2,55.1,30.03,NNE,21,5.0,7.0,63,0.00,,---,0.00,VWS V14.01,2013-02-20 16:57:00,
2013-02-20 11:58:00,68.3,54.8,30.03,NNE,21,0.0,7.0,62,0.00,,---,0.00,VWS V14.01,2013-02-20 16:58:00,
2013-02-20 11:59:00,68.3,55.2,30.03,North,11,6.0,7.0,63,0.00,,---,0.00,VWS V14.01,2013-02-20 16:59:00,
2013-02-20 12:00:00,68.3,55.2,30.02,North,10,1.0,7.0,63,0.00,,---,0.00,VWS V14.01,2013-02-20 17:00:00,
2013-02-20 12:01:00,68.3,55.2,30.02,North,11,2.0,2.0,63,0.00,,---,0.00,VWS V14.01,2013-02-20 17:01:00,
2013-02-20 12:02:00,68.4,55.3,30.02,North,11,3.0,5.0,63,0.00,,---,0.00,VWS V14.01,2013-02-20 17:02:00,
2013-02-20 12:03:00,68.4,55.3,30.02,North,11,0.0,5.0,63,0.00,,---,0.00,VWS V14.01,2013-02-20 17:03:00,
2013-02-20 12:04:00,68.5,55.4,30.02,NE,40,3.0,5.0,63,0.00,,---,0.00,VWS V14.01,2013-02-20 17:04:00,
2013-02-20 12:05:00,68.5,55.0,30.02,NE,42,0.0,5.0,62,0.00,,---,0.00,VWS V14.01,2013-02-20 17:05:00,
2013-02-20 12:06:00,68.5,55.4,30.02,NE,44,5.0,5.0,63,0.00,,---,0.00,VWS V14.01,2013-02-20 17:06:00,
2013-02-20 12:07:00,68.5,55.4,30.02,NE,44,0.0,5.0,63,0.00,,---,0.00,VWS V14.01,2013-02-20 17:07:00,
2013-02-20 12:08:00,68.5,55.4,30.02,NE,44,0.0,5.0,63,0.00,,---,0.00,VWS V14.01,2013-02-20 17:08:00,
2013-02-20 12:09:00,68.6,55.1,30.02,NE,44,0.0,5.0,62,0.00,,---,0.00,VWS V14.01,2013-02-20 17:09:00,
2013-02-20 12:10:00,68.6,55.1,30.02,East,91,4.0,5.0,62,0.00,,---,0.00,VWS V14.01,2013-02-20 17:10:00,
2013-02-20 12:11:00,68.8,55.3,30.02,East,98,0.0,6.0,62,0.00,,---,0.00,VWS V14.01,2013-02-20 17:11:00,
2013-02-20 12:12:00,68.8,54.8,30.02,East,98,0.0,6.0,61,0.00,,---,0.00,VWS V14.01,2013-02-20 17:12:00,
2013-02-20 12:13:00,68.9,54.9,30.02,East,97,0.0,6.0,61,0.00,,---,0.00,VWS V14.01,2013-02-20 17:13:00,
2013-02-20 12:14:00,69.0,55.0,30.02,East,92,0.0,6.0,61,0.00,,---,0.00,VWS V14.01,2013-02-20 17:14:00,
2013-02-20 12:15:00,69.1,55.1,30.01,East,87,1.0,6.0,61,0.00,,---,0.00,VWS V14.01,2013-02-20 17:15:00,
2013-02-20 12:16:00,69.2,55.6,30.01,NE,36,3.0,6.0,62,0.00,,---,0.00,VWS V14.01,2013-02-20 17:16:00,
2013-02-20 12:17:00,69.2,55.6,30.01,North,355,2.0,6.0,62,0.00,,---,0.00,VWS V14.01,2013-02-20 17:17:00,
2013-02-20 12:18:00,69.3,55.7,30.01,North,351,2.0,6.0,62,0.00,,---,0.00,VWS V14.01,2013-02-20 17:18:00,
2013-02-20 12:19:00,69.3,55.7,30.01,North,351,1.0,6.0,62,0.00,,---,0.00,VWS V14.01,2013-02-20 17:19:00,
2013-02-20 12:20:00,69.3,55.7,30.01,NNW,346,2.0,6.0,62,0.00,,---,0.00,VWS V14.01,2013-02-20 17:20:00,
2013-02-20 12:21:00,69.2,55.6,30.01,NNW,345,3.0,6.0,62,0.00,,---,0.00,VWS V14.01,2013-02-20 17:21:00,
2013-02-20 12:22:00,69.2,55.6,30.01,NNW,345,3.0,6.0,62,0.00,,---,0.00,VWS V14.01,2013-02-20 17:22:00,
2013-02-20 12:23:00,69.1,56.0,30.01,NNW,346,4.0,6.0,63,0.00,,---,0.00,VWS V14.01,2013-02-20 17:23:00,
2013-02-20 12:24:00,69.2,56.5,30.01,NNW,341,3.0,6.0,64,0.00,,---,0.00,VWS V14.01,2013-02-20 17:24:00,
2013-02-20 12:25:00,69.2,56.5,30.01,NNW,338,4.0,6.0,64,0.00,,---,0.00,VWS V14.01,2013-02-20 17:25:00,
2013-02-20 12:26:00,69.2,56.5,30.01,NNW,337,3.0,6.0,64,0.00,,---,0.00,VWS V14.01,2013-02-20 17:26:00,
2013-02-20 12:27:00,69.1,55.5,30.01,NNW,339,0.0,6.0,62,0.00,,---,0.00,VWS V14.01,2013-02-20 17:27:00,
2013-02-20 12:28:00,69.2,57.0,30.01,NNW,339,3.0,6.0,65,0.00,,---,0.00,VWS V14.01,2013-02-20 17:28:00,
2013-02-20 12:29:00,69.2,56.5,30.01,NNW,339,2.0,6.0,64,0.00,,---,0.00,VWS V14.01,2013-02-20 17:29:00,
2013-02-20 12:30:00,69.3,56.2,29.99,NNW,339,0.0,6.0,63,0.00,,---,0.00,VWS V14.01,2013-02-20 17:30:00,
2013-02-20 12:31:00,69.3,56.2,29.99,NNW,339,0.0,0.0,63,0.00,,---,0.00,VWS V14.01,2013-02-20 17:31:00,
2013-02-20 12:32:00,69.4,56.3,29.99,East,94,2.0,3.0,63,0.00,,---,0.00,VWS V14.01,2013-02-20 17:32:00,
2013-02-20 12:33:00,69.5,55.9,29.99,ESE,116,0.0,6.0,62,0.00,,---,0.00,VWS V14.01,2013-02-20 17:33:00,
2013-02-20 12:34:00,69.6,56.0,29.99,ESE,116,0.0,6.0,62,0.00,,---,0.00,VWS V14.01,2013-02-20 17:34:00,
2013-02-20 12:35:00,69.7,56.1,29.99,ENE,69,4.0,6.0,62,0.00,,---,0.00,VWS V14.01,2013-02-20 17:35:00,
2013-02-20 12:36:00,69.8,56.2,29.99,ENE,67,4.0,6.0,62,0.00,,---,0.00,VWS V14.01,2013-02-20 17:36:00,
2013-02-20 12:37:00,69.9,56.3,29.99,ENE,65,0.0,6.0,62,0.00,,---,0.00,VWS V14.01,2013-02-20 17:37:00,
2013-02-20 12:38:00,70.0,56.4,29.99,ENE,65,0.0,6.0,62,0.00,,---,0.00,VWS V14.01,2013-02-20 17:38:00,
2013-02-20 12:39:00,70.2,56.6,29.99,ENE,65,2.0,6.0,62,0.00,,---,0.00,VWS V14.01,2013-02-20 17:39:00,
2013-02-20 12:40:00,70.3,56.2,29.99,ENE,58,0.0,6.0,61,0.00,,---,0.00,VWS V14.01,2013-02-20 17:40:00,
2013-02-20 12:41:00,70.4,56.3,29.99,ENE,61,0.0,6.0,61,0.00,,---,0.00,VWS V14.01,2013-02-20 17:41:00,
2013-02-20 12:42:00,70.6,56.5,29.99,ENE,61,0.0,6.0,61,0.00,,---,0.00,VWS V14.01,2013-02-20 17:42:00,
2013-02-20 12:43:00,70.7,56.6,29.99,ENE,61,0.0,6.0,61,0.00,,---,0.00,VWS V14.01,2013-02-20 17:43:00,
2013-02-20 12:44:00,70.8,56.2,29.99,ENE,61,0.0,6.0,60,0.00,,---,0.00,VWS V14.01,2013-02-20 17:44:00,
2013-02-20 12:45:00,70.8,56.2,29.98,ENE,61,0.0,6.0,60,0.00,,---,0.00,VWS V14.01,2013-02-20 17:45:00,
2013-02-20 12:46:00,70.8,56.2,29.98,ENE,61,0.0,6.0,60,0.00,,---,0.00,VWS V14.01,2013-02-20 17:46:00,
2013-02-20 12:47:00,70.8,56.2,29.98,ESE,104,2.0,6.0,60,0.00,,---,0.00,VWS V14.01,2013-02-20 17:47:00,
2013-02-20 12:48:00,70.9,56.3,29.98,ESE,105,0.0,6.0,60,0.00,,---,0.00,VWS V14.01,2013-02-20 17:48:00,
2013-02-20 12:49:00,71.0,56.4,29.98,SSE,161,4.0,6.0,60,0.00,,---,0.00,VWS V14.01,2013-02-20 17:49:00,
2013-02-20 12:50:00,71.0,56.4,29.98,SSE,162,0.0,6.0,60,0.00,,---,0.00,VWS V14.01,2013-02-20 17:50:00,
2013-02-20 12:51:00,71.1,56.5,29.98,SSE,162,0.0,6.0,60,0.00,,---,0.00,VWS V14.01,2013-02-20 17:51:00,
2013-02-20 12:52:00,71.2,56.6,29.98,SSE,162,0.0,6.0,60,0.00,,---,0.00,VWS V14.01,2013-02-20 17:52:00,
2013-02-20 12:53:00,71.3,56.7,29.98,SSE,162,0.0,6.0,60,0.00,,---,0.00,VWS V14.01,2013-02-20 17:53:00,
2013-02-20 12:54:00,71.3,56.7,29.98,SSE,162,0.0,6.0,60,0.00,,---,0.00,VWS V14.01,2013-02-20 17:54:00,
2013-02-20 12:55:00,71.4,56.8,29.98,SSE,156,0.0,6.0,60,0.00,,---,0.00,VWS V14.01,2013-02-20 17:55:00,
2013-02-20 12:56:00,71.5,56.4,29.98,SSE,156,0.0,6.0,59,0.00,,---,0.00,VWS V14.01,2013-02-20 17:56:00,
2013-02-20 12:57:00,71.7,56.6,29.98,SE,136,2.0,6.0,59,0.00,,---,0.00,VWS V14.01,2013-02-20 17:57:00,
2013-02-20 12:58:00,71.7,56.6,29.98,SE,131,1.0,6.0,59,0.00,,---,0.00,VWS V14.01,2013-02-20 17:58:00,
2013-02-20 12:59:00,71.8,56.7,29.98,SE,125,4.0,6.0,59,0.00,,---,0.00,VWS V14.01,2013-02-20 17:59:00,
2013-02-20 13:00:00,71.8,56.7,29.97,ESE,121,3.0,6.0,59,0.00,,---,0.00,VWS V14.01,2013-02-20 18:00:00,
2013-02-20 13:01:00,71.8,56.7,29.97,ESE,119,0.0,3.0,59,0.00,,---,0.00,VWS V14.01,2013-02-20 18:01:00,
2013-02-20 13:02:00,71.9,56.8,29.97,ESE,115,2.0,3.0,59,0.00,,---,0.00,VWS V14.01,2013-02-20 18:02:00,
2013-02-20 13:03:00,72.0,56.9,29.97,ESE,115,0.0,3.0,59,0.00,,---,0.00,VWS V14.01,2013-02-20 18:03:00,
2013-02-20 13:04:00,72.0,56.9,29.97,SE,125,1.0,3.0,59,0.00,,---,0.00,VWS V14.01,2013-02-20 18:04:00,
2013-02-20 13:05:00,72.1,57.5,29.97,SE,134,1.0,3.0,60,0.00,,---,0.00,VWS V14.01,2013-02-20 18:05:00,
2013-02-20 13:06:00,72.1,57.5,29.97,WSW,257,5.0,6.0,60,0.00,,---,0.00,VWS V14.01,2013-02-20 18:06:00,
2013-02-20 13:07:00,72.2,57.1,29.97,West,263,3.0,6.0,59,0.00,,---,0.00,VWS V14.01,2013-02-20 18:07:00,
2013-02-20 13:08:00,72.2,57.1,29.97,West,263,2.0,6.0,59,0.00,,---,0.00,VWS V14.01,2013-02-20 18:08:00,
2013-02-20 13:09:00,72.2,57.1,29.97,West,263,2.0,6.0,59,0.00,,---,0.00,VWS V14.01,2013-02-20 18:09:00,
2013-02-20 13:10:00,72.1,57.5,29.97,West,263,1.0,6.0,60,0.00,,---,0.00,VWS V14.01,2013-02-20 18:10:00,
2013-02-20 13:11:00,72.1,57.5,29.97,West,264,0.0,6.0,60,0.00,,---,0.00,VWS V14.01,2013-02-20 18:11:00,
2013-02-20 13:12:00,72.1,57.5,29.97,WNW,294,1.0,6.0,60,0.00,,---,0.00,VWS V14.01,2013-02-20 18:12:00,
2013-02-20 13:13:00,72.1,57.9,29.97,WNW,294,0.0,6.0,61,0.00,,---,0.00,VWS V14.01,2013-02-20 18:13:00,
2013-02-20 13:14:00,72.1,57.5,29.97,WNW,294,0.0,6.0,60,0.00,,---,0.00,VWS V14.01,2013-02-20 18:14:00,
2013-02-20 13:15:00,72.1,57.0,29.97,WNW,294,0.0,6.0,59,0.00,,---,0.00,VWS V14.01,2013-02-20 18:15:00,
2013-02-20 13:16:00,72.1,57.0,29.97,WNW,294,0.0,6.0,59,0.00,,---,0.00,VWS V14.01,2013-02-20 18:16:00,
2013-02-20 13:17:00,72.1,57.0,29.97,WNW,294,0.0,6.0,59,0.00,,---,0.00,VWS V14.01,2013-02-20 18:17:00,
2013-02-20 13:18:00,72.1,57.0,29.97,WNW,294,0.0,6.0,59,0.00,,---,0.00,VWS V14.01,2013-02-20 18:18:00,
2013-02-20 13:19:00,72.1,57.0,29.97,WNW,294,0.0,6.0,59,0.00,,---,0.00,VWS V14.01,2013-02-20 18:19:00,
2013-02-20 13:20:00,72.4,57.3,29.97,ENE,66,0.0,6.0,59,0.00,,---,0.00,VWS V14.01,2013-02-20 18:20:00,
2013-02-20 13:21:00,72.5,57.4,29.97,ENE,66,0.0,6.0,59,0.00,,---,0.00,VWS V14.01,2013-02-20 18:21:00,
2013-02-20 13:22:00,72.5,57.4,29.97,East,94,1.0,6.0,59,0.00,,---,0.00,VWS V14.01,2013-02-20 18:22:00,
2013-02-20 13:23:00,72.6,57.5,29.97,ESE,108,5.0,6.0,59,0.00,,---,0.00,VWS V14.01,2013-02-20 18:23:00,
2013-02-20 13:24:00,72.8,57.7,29.97,ESE,111,0.0,6.0,59,0.00,,---,0.00,VWS V14.01,2013-02-20 18:24:00,
2013-02-20 13:25:00,72.8,57.2,29.97,SE,139,2.0,6.0,58,0.00,,---,0.00,VWS V14.01,2013-02-20 18:25:00,
2013-02-20 13:26:00,72.9,57.3,29.97,SE,134,5.0,6.0,58,0.00,,---,0.00,VWS V14.01,2013-02-20 18:26:00,
2013-02-20 13:27:00,72.9,57.8,29.97,East,101,4.0,6.0,59,0.00,,---,0.00,VWS V14.01,2013-02-20 18:27:00,
2013-02-20 13:28:00,73.1,58.4,29.97,East,92,0.0,6.0,60,0.00,,---,0.00,VWS V14.01,2013-02-20 18:28:00,
2013-02-20 13:29:00,73.1,58.4,29.97,East,84,0.0,6.0,60,0.00,,---,0.00,VWS V14.01,2013-02-20 18:29:00,
2013-02-20 13:30:00,73.1,58.4,29.95,East,81,3.0,6.0,60,0.00,,---,0.00,VWS V14.01,2013-02-20 18:30:00,
2013-02-20 13:31:00,73.1,58.4,29.95,NE,56,2.0,5.0,60,0.00,,---,0.00,VWS V14.01,2013-02-20 18:31:00,
2013-02-20 13:32:00,73.0,57.4,29.95,NE,56,0.0,5.0,58,0.00,,---,0.00,VWS V14.01,2013-02-20 18:32:00,
2013-02-20 13:33:00,73.0,57.4,29.95,NE,56,0.0,5.0,58,0.00,,---,0.00,VWS V14.01,2013-02-20 18:33:00,
2013-02-20 13:34:00,73.0,57.4,29.95,ENE,61,2.0,5.0,58,0.00,,---,0.00,VWS V14.01,2013-02-20 18:34:00,
2013-02-20 13:35:00,72.9,57.3,29.95,ENE,61,0.0,5.0,58,0.00,,---,0.00,VWS V14.01,2013-02-20 18:35:00,
2013-02-20 13:36:00,72.9,57.3,29.95,ENE,61,0.0,5.0,58,0.00,,---,0.00,VWS V14.01,2013-02-20 18:36:00,
2013-02-20 13:37:00,72.9,57.8,29.95,ENE,61,0.0,5.0,59,0.00,,---,0.00,VWS V14.01,2013-02-20 18:37:00,
2013-02-20 13:38:00,72.8,57.7,29.95,ENE,61,0.0,5.0,59,0.00,,---,0.00,VWS V14.01,2013-02-20 18:38:00,
2013-02-20 13:39:00,72.8,57.7,29.95,ENE,61,0.0,5.0,59,0.00,,---,0.00,VWS V14.01,2013-02-20 18:39:00,
2013-02-20 13:40:00,72.8,57.7,29.95,SSE,156,6.0,9.0,59,0.00,,---,0.00,VWS V14.01,2013-02-20 18:40:00,
2013-02-20 13:41:00,72.8,57.7,29.95,SSE,156,2.0,9.0,59,0.00,,---,0.00,VWS V14.01,2013-02-20 18:41:00,
2013-02-20 13:42:00,72.9,57.3,29.95,SSE,156,0.0,9.0,58,0.00,,---,0.00,VWS V14.01,2013-02-20 18:42:00,
2013-02-20 13:43:00,72.9,57.3,29.95,SSE,157,0.0,9.0,58,0.00,,---,0.00,VWS V14.01,2013-02-20 18:43:00,
2013-02-20 13:44:00,72.9,57.3,29.95,SSE,157,0.0,9.0,58,0.00,,---,0.00,VWS V14.01,2013-02-20 18:44:00,
2013-02-20 13:45:00,72.9,57.3,29.95,SSE,157,0.0,9.0,58,0.00,,---,0.00,VWS V14.01,2013-02-20 18:45:00,
2013-02-20 13:46:00,72.9,57.3,29.95,SSE,157,1.0,9.0,58,0.00,,---,0.00,VWS V14.01,2013-02-20 18:46:00,
2013-02-20 13:47:00,72.9,57.3,29.95,SSE,157,0.0,9.0,58,0.00,,---,0.00,VWS V14.01,2013-02-20 18:47:00,
2013-02-20 13:48:00,73.0,57.4,29.95,SSE,165,5.0,9.0,58,0.00,,---,0.00,VWS V14.01,2013-02-20 18:48:00,
2013-02-20 13:49:00,73.0,57.4,29.95,SSE,167,3.0,9.0,58,0.00,,---,0.00,VWS V14.01,2013-02-20 18:49:00,
2013-02-20 13:50:00,73.0,56.9,29.95,South,186,4.0,9.0,57,0.00,,---,0.00,VWS V14.01,2013-02-20 18:50:00,
2013-02-20 13:51:00,73.0,56.9,29.95,SSW,193,6.0,9.0,57,0.00,,---,0.00,VWS V14.01,2013-02-20 18:51:00,
2013-02-20 13:52:00,73.0,56.9,29.95,SSW,196,3.0,9.0,57,0.00,,---,0.00,VWS V14.01,2013-02-20 18:52:00,
2013-02-20 13:53:00,73.1,57.0,29.95,SSW,199,2.0,9.0,57,0.00,,---,0.00,VWS V14.01,2013-02-20 18:53:00,
2013-02-20 13:54:00,73.1,57.0,29.95,SSW,199,0.0,9.0,57,0.00,,---,0.00,VWS V14.01,2013-02-20 18:54:00,
2013-02-20 13:55:00,73.1,57.0,29.95,SSW,199,0.0,9.0,57,0.00,,---,0.00,VWS V14.01,2013-02-20 18:55:00,
2013-02-20 13:56:00,73.1,57.0,29.95,SSW,199,2.0,9.0,57,0.00,,---,0.00,VWS V14.01,2013-02-20 18:56:00,
2013-02-20 13:57:00,73.1,57.0,29.95,SSW,198,2.0,9.0,57,0.00,,---,0.00,VWS V14.01,2013-02-20 18:57:00,
2013-02-20 13:58:00,73.1,57.5,29.95,SSW,195,1.0,9.0,58,0.00,,---,0.00,VWS V14.01,2013-02-20 18:58:00,
2013-02-20 13:59:00,73.1,57.0,29.95,South,187,3.0,9.0,57,0.00,,---,0.00,VWS V14.01,2013-02-20 18:59:00,
2013-02-20 14:00:00,73.0,56.9,29.95,South,184,4.0,9.0,57,0.00,,---,0.00,VWS V14.01,2013-02-20 19:00:00,
2013-02-20 14:01:00,73.0,57.4,29.95,South,182,0.0,4.0,58,0.00,,---,0.00,VWS V14.01,2013-02-20 19:01:00,
2013-02-20 14:02:00,73.1,57.5,29.95,South,180,1.0,4.0,58,0.00,,---,0.00,VWS V14.01,2013-02-20 19:02:00,
2013-02-20 14:03:00,73.1,57.5,29.95,SSE,165,3.0,4.0,58,0.00,,---,0.00,VWS V14.01,2013-02-20 19:03:00,
2013-02-20 14:04:00,73.2,57.1,29.95,SSE,162,2.0,4.0,57,0.00,,---,0.00,VWS V14.01,2013-02-20 19:04:00,
2013-02-20 14:05:00,73.2,57.1,29.95,SSE,161,1.0,4.0,57,0.00,,---,0.00,VWS V14.01,2013-02-20 19:05:00,
2013-02-20 14:06:00,73.2,57.1,29.95,SSE,159,5.0,5.0,57,0.00,,---,0.00,VWS V14.01,2013-02-20 19:06:00,
2013-02-20 14:07:00,73.2,57.1,29.95,SSE,159,1.0,5.0,57,0.00,,---,0.00,VWS V14.01,2013-02-20 19:07:00,
2013-02-20 14:08:00,73.2,57.1,29.95,SSE,159,1.0,5.0,57,0.00,,---,0.00,VWS V14.01,2013-02-20 19:08:00,
2013-02-20 14:09:00,73.2,57.1,29.95,SSE,157,0.0,5.0,57,0.00,,---,0.00,VWS V14.01,2013-02-20 19:09:00,
2013-02-20 14:10:00,73.1,57.0,29.95,SSE,157,0.0,5.0,57,0.00,,---,0.00,VWS V14.01,2013-02-20 19:10:00,
2013-02-20 14:11:00,73.1,57.0,29.95,SSE,155,2.0,5.0,57,0.00,,---,0.00,VWS V14.01,2013-02-20 19:11:00,
2013-02-20 14:12:00,73.1,57.0,29.95,SSE,155,0.0,5.0,57,0.00,,---,0.00,VWS V14.01,2013-02-20 19:12:00,
2013-02-20 14:13:00,73.0,56.9,29.95,SSE,155,0.0,5.0,57,0.00,,---,0.00,VWS V14.01,2013-02-20 19:13:00,
2013-02-20 14:14:00,73.0,56.9,29.95,SSE,155,0.0,5.0,57,0.00,,---,0.00,VWS V14.01,2013-02-20 19:14:00,
2013-02-20 14:15:00,73.0,56.9,29.95,SSE,155,0.0,5.0,57,0.00,,---,0.00,VWS V14.01,2013-02-20 19:15:00,
2013-02-20 14:16:00,73.0,57.4,29.95,SSE,155,0.0,5.0,58,0.00,,---,0.00,VWS V14.01,2013-02-20 19:16:00,
2013-02-20 14:17:00,72.9,57.3,29.95,SSE,155,0.0,5.0,58,0.00,,---,0.00,VWS V14.01,2013-02-20 19:17:00,
2013-02-20 14:18:00,72.9,57.3,29.95,SSE,155,0.0,5.0,58,0.00,,---,0.00,VWS V14.01,2013-02-20 19:18:00,
2013-02-20 14:19:00,72.9,57.3,29.95,SSE,155,0.0,5.0,58,0.00,,---,0.00,VWS V14.01,2013-02-20 19:19:00,
2013-02-20 14:20:00,72.9,57.8,29.95,SSE,155,0.0,5.0,59,0.00,,---,0.00,VWS V14.01,2013-02-20 19:20:00,
2013-02-20 14:21:00,72.8,57.2,29.95,SSE,155,0.0,5.0,58,0.00,,---,0.00,VWS V14.01,2013-02-20 19:21:00,
2013-02-20 14:22:00,72.8,57.2,29.95,SSE,155,0.0,5.0,58,0.00,,---,0.00,VWS V14.01,2013-02-20 19:22:00,
2013-02-20 14:23:00,72.9,57.8,29.95,SSE,155,0.0,5.0,59,0.00,,---,0.00,VWS V14.01,2013-02-20 19:23:00,
2013-02-20 14:24:00,72.9,57.8,29.95,SSE,155,0.0,5.0,59,0.00,,---,0.00,VWS V14.01,2013-02-20 19:24:00,
2013-02-20 14:25:00,72.9,57.8,29.95,SSE,155,0.0,5.0,59,0.00,,---,0.00,VWS V14.01,2013-02-20 19:25:00,
2013-02-20 14:26:00,72.9,57.3,29.95,SSE,155,0.0,5.0,58,0.00,,---,0.00,VWS V14.01,2013-02-20 19:26:00,
2013-02-20 14:27:00,72.9,57.3,29.95,SSE,155,0.0,5.0,58,0.00,,---,0.00,VWS V14.01,2013-02-20 19:27:00,
2013-02-20 14:28:00,73.0,57.4,29.95,SSE,155,0.0,5.0,58,0.00,,---,0.00,VWS V14.01,2013-02-20 19:28:00,
2013-02-20 14:29:00,73.0,57.4,29.95,SSE,155,0.0,5.0,58,0.00,,---,0.00,VWS V14.01,2013-02-20 19:29:00,
2013-02-20 14:30:00,73.1,57.9,29.95,SE,144,2.0,7.0,59,0.00,,---,0.00,VWS V14.01,2013-02-20 19:30:00,
2013-02-20 14:31:00,73.1,57.5,29.95,SSE,150,5.0,5.0,58,0.00,,---,0.00,VWS V14.01,2013-02-20 19:31:00,
2013-02-20 14:32:00,73.3,57.7,29.95,SSE,156,0.0,5.0,58,0.00,,---,0.00,VWS V14.01,2013-02-20 19:32:00,
2013-02-20 14:33:00,73.4,57.7,29.95,SSE,156,0.0,5.0,58,0.00,,---,0.00,VWS V14.01,2013-02-20 19:33:00,
2013-02-20 14:34:00,73.4,57.7,29.95,SSE,156,1.0,5.0,58,0.00,,---,0.00,VWS V14.01,2013-02-20 19:34:00,
2013-02-20 14:35:00,73.0,57.4,29.95,SSE,155,0.0,5.0,58,0.00,,---,0.00,VWS V14.01,2013-02-20 19:35:00,
2013-02-20 14:36:00,73.5,57.3,29.95,SSE,156,0.0,5.0,57,0.00,,---,0.00,VWS V14.01,2013-02-20 19:36:00,
2013-02-20 14:37:00,73.5,57.3,29.95,SSE,156,0.0,5.0,57,0.00,,---,0.00,VWS V14.01,2013-02-20 19:37:00,
2013-02-20 14:38:00,73.6,57.4,29.95,SSE,156,0.0,5.0,57,0.00,,---,0.00,VWS V14.01,2013-02-20 19:38:00,
2013-02-20 14:39:00,73.6,57.4,29.95,SSE,156,0.0,5.0,57,0.00,,---,0.00,VWS V14.01,2013-02-20 19:39:00,
2013-02-20 14:40:00,73.6,57.4,29.95,SSE,156,2.0,5.0,57,0.00,,---,0.00,VWS V14.01,2013-02-20 19:40:00,
2013-02-20 14:41:00,73.6,57.4,29.95,SSE,156,2.0,5.0,57,0.00,,---,0.00,VWS V14.01,2013-02-20 19:41:00,
2013-02-20 14:42:00,73.6,57.4,29.95,SSE,156,0.0,5.0,57,0.00,,---,0.00,VWS V14.01,2013-02-20 19:42:00,
2013-02-20 14:43:00,73.5,57.3,29.95,SSE,156,0.0,5.0,57,0.00,,---,0.00,VWS V14.01,2013-02-20 19:43:00,
2013-02-20 14:44:00,73.5,57.3,29.95,SSE,156,0.0,5.0,57,0.00,,---,0.00,VWS V14.01,2013-02-20 19:44:00,
2013-02-20 14:45:00,73.5,57.3,29.95,SSE,156,0.0,5.0,57,0.00,,---,0.00,VWS V14.01,2013-02-20 19:45:00,
2013-02-20 14:46:00,73.5,57.3,29.95,SSE,156,0.0,5.0,57,0.00,,---,0.00,VWS V14.01,2013-02-20 19:46:00,
2013-02-20 14:47:00,73.5,57.3,29.95,SSE,156,0.0,5.0,57,0.00,,---,0.00,VWS V14.01,2013-02-20 19:47:00,
2013-02-20 14:48:00,73.5,57.3,29.95,SSE,156,0.0,5.0,57,0.00,,---,0.00,VWS V14.01,2013-02-20 19:48:00,
2013-02-20 14:49:00,73.5,58.3,29.95,SSE,156,0.0,5.0,59,0.00,,---,0.00,VWS V14.01,2013-02-20 19:49:00,
2013-02-20 14:50:00,73.5,58.3,29.95,SSE,156,0.0,5.0,59,0.00,,---,0.00,VWS V14.01,2013-02-20 19:50:00,
2013-02-20 14:51:00,73.6,57.9,29.95,SSE,156,0.0,5.0,58,0.00,,---,0.00,VWS V14.01,2013-02-20 19:51:00,
2013-02-20 14:52:00,73.6,57.9,29.95,SSE,156,0.0,5.0,58,0.00,,---,0.00,VWS V14.01,2013-02-20 19:52:00,
2013-02-20 14:53:00,73.7,57.5,29.95,SSE,156,0.0,5.0,57,0.00,,---,0.00,VWS V14.01,2013-02-20 19:53:00,
2013-02-20 14:54:00,73.7,58.0,29.95,SSE,156,3.0,5.0,58,0.00,,---,0.00,VWS V14.01,2013-02-20 19:54:00,
2013-02-20 14:55:00,73.7,57.5,29.95,SSE,156,0.0,5.0,57,0.00,,---,0.00,VWS V14.01,2013-02-20 19:55:00,
2013-02-20 14:56:00,73.8,57.6,29.95,SSE,156,3.0,5.0,57,0.00,,---,0.00,VWS V14.01,2013-02-20 19:56:00,
2013-02-20 14:57:00,73.8,57.6,29.95,SSE,161,4.0,5.0,57,0.00,,---,0.00,VWS V14.01,2013-02-20 19:57:00,
2013-02-20 14:58:00,73.8,57.6,29.95,South,181,5.0,5.0,57,0.00,,---,0.00,VWS V14.01,2013-02-20 19:58:00,
2013-02-20 14:59:00,73.7,57.5,29.95,South,185,5.0,5.0,57,0.00,,---,0.00,VWS V14.01,2013-02-20 19:59:00,
2013-02-20 15:00:00,73.7,57.5,29.94,South,186,2.0,5.0,57,0.00,,---,0.00,VWS V14.01,2013-02-20 20:00:00,
2013-02-20 15:01:00,73.7,57.5,29.94,South,186,0.0,2.0,57,0.00,,---,0.00,VWS V14.01,2013-02-20 20:01:00,
2013-02-20 15:02:00,73.6,57.9,29.94,South,186,2.0,4.0,58,0.00,,---,0.00,VWS V14.01,2013-02-20 20:02:00,
2013-02-20 15:03:00,73.6,57.9,29.94,South,186,2.0,4.0,58,0.00,,---,0.00,VWS V14.01,2013-02-20 20:03:00,
2013-02-20 15:04:00,73.6,57.4,29.94,South,186,1.0,4.0,57,0.00,,---,0.00,VWS V14.01,2013-02-20 20:04:00,
2013-02-20 15:05:00,73.6,57.4,29.94,South,186,0.0,4.0,57,0.00,,---,0.00,VWS V14.01,2013-02-20 20:05:00,
2013-02-20 15:06:00,73.7,58.0,29.94,South,186,0.0,4.0,58,0.00,,---,0.00,VWS V14.01,2013-02-20 20:06:00,
2013-02-20 15:07:00,73.7,58.0,29.94,South,186,0.0,4.0,58,0.00,,---,0.00,VWS V14.01,2013-02-20 20:07:00,
2013-02-20 15:08:00,73.7,58.0,29.94,South,186,0.0,4.0,58,0.00,,---,0.00,VWS V14.01,2013-02-20 20:08:00,
2013-02-20 15:09:00,73.8,57.6,29.94,South,186,0.0,4.0,57,0.00,,---,0.00,VWS V14.01,2013-02-20 20:09:00,
2013-02-20 15:10:00,73.9,58.2,29.94,South,186,0.0,4.0,58,0.00,,---,0.00,VWS V14.01,2013-02-20 20:10:00,
2013-02-20 15:11:00,73.9,58.2,29.94,South,186,0.0,4.0,58,0.00,,---,0.00,VWS V14.01,2013-02-20 20:11:00,
2013-02-20 15:12:00,74.0,58.3,29.94,South,186,0.0,4.0,58,0.00,,---,0.00,VWS V14.01,2013-02-20 20:12:00,
2013-02-20 15:13:00,74.0,57.8,29.94,South,186,0.0,4.0,57,0.00,,---,0.00,VWS V14.01,2013-02-20 20:13:00,
2013-02-20 15:14:00,74.0,57.8,29.94,South,186,3.0,4.0,57,0.00,,---,0.00,VWS V14.01,2013-02-20 20:14:00,
2013-02-20 15:15:00,74.1,57.9,29.94,South,186,0.0,4.0,57,0.00,,---,0.00,VWS V14.01,2013-02-20 20:15:00,
2013-02-20 15:16:00,74.1,57.9,29.94,South,186,0.0,4.0,57,0.00,,---,0.00,VWS V14.01,2013-02-20 20:16:00,
2013-02-20 15:17:00,74.1,57.9,29.94,South,186,0.0,4.0,57,0.00,,---,0.00,VWS V14.01,2013-02-20 20:17:00,
2013-02-20 15:18:00,74.2,58.5,29.94,South,186,0.0,4.0,58,0.00,,---,0.00,VWS V14.01,2013-02-20 20:18:00,
2013-02-20 15:19:00,74.2,58.5,29.94,South,186,1.0,4.0,58,0.00,,---,0.00,VWS V14.01,2013-02-20 20:19:00,
2013-02-20 15:20:00,74.2,58.5,29.94,South,182,0.0,4.0,58,0.00,,---,0.00,VWS V14.01,2013-02-20 20:20:00,
2013-02-20 15:21:00,74.2,58.0,29.94,South,182,0.0,4.0,57,0.00,,---,0.00,VWS V14.01,2013-02-20 20:21:00,
2013-02-20 15:22:00,74.2,58.0,29.94,South,182,0.0,4.0,57,0.00,,---,0.00,VWS V14.01,2013-02-20 20:22:00,
2013-02-20 15:23:00,74.2,58.5,29.94,South,182,0.0,4.0,58,0.00,,---,0.00,VWS V14.01,2013-02-20 20:23:00,
2013-02-20 15:24:00,74.2,58.5,29.94,South,189,0.0,4.0,58,0.00,,---,0.00,VWS V14.01,2013-02-20 20:24:00,
2013-02-20 15:25:00,74.2,58.5,29.94,SSW,194,2.0,4.0,58,0.00,,---,0.00,VWS V14.01,2013-02-20 20:25:00,
2013-02-20 15:26:00,74.2,58.5,29.94,SW,214,3.0,5.0,58,0.00,,---,0.00,VWS V14.01,2013-02-20 20:26:00,
2013-02-20 15:27:00,74.2,58.5,29.94,SW,217,0.0,5.0,58,0.00,,---,0.00,VWS V14.01,2013-02-20 20:27:00,
2013-02-20 15:28:00,74.1,58.4,29.94,SW,223,0.0,5.0,58,0.00,,---,0.00,VWS V14.01,2013-02-20 20:28:00,
2013-02-20 15:29:00,74.0,57.8,29.94,SW,223,0.0,5.0,57,0.00,,---,0.00,VWS V14.01,2013-02-20 20:29:00,
2013-02-20 15:30:00,74.0,58.3,29.95,SW,223,0.0,5.0,58,0.00,,---,0.00,VWS V14.01,2013-02-20 20:30:00,
2013-02-20 15:31:00,74.0,58.3,29.95,SW,223,0.0,0.0,58,0.00,,---,0.00,VWS V14.01,2013-02-20 20:31:00,
2013-02-20 15:32:00,73.9,58.2,29.95,SW,223,0.0,0.0,58,0.00,,---,0.00,VWS V14.01,2013-02-20 20:32:00,
2013-02-20 15:33:00,73.9,58.2,29.95,SW,225,1.0,3.0,58,0.00,,---,0.00,VWS V14.01,2013-02-20 20:33:00,
2013-02-20 15:34:00,73.9,58.2,29.95,SW,225,0.0,3.0,58,0.00,,---,0.00,VWS V14.01,2013-02-20 20:34:00,
2013-02-20 15:35:00,73.8,58.1,29.95,SW,225,0.0,3.0,58,0.00,,---,0.00,VWS V14.01,2013-02-20 20:35:00,
2013-02-20 15:36:00,73.8,58.6,29.95,SW,229,1.0,3.0,59,0.00,,---,0.00,VWS V14.01,2013-02-20 20:36:00,
2013-02-20 15:37:00,73.8,58.6,29.95,SW,229,1.0,3.0,59,0.00,,---,0.00,VWS V14.01,2013-02-20 20:37:00,
2013-02-20 15:38:00,73.8,58.6,29.95,WNW,302,7.0,7.0,59,0.00,,---,0.00,VWS V14.01,2013-02-20 20:38:00,
2013-02-20 15:39:00,73.7,58.5,29.95,NW,304,5.0,7.0,59,0.00,,---,0.00,VWS V14.01,2013-02-20 20:39:00,
2013-02-20 15:40:00,73.7,58.5,29.95,WNW,301,0.0,7.0,59,0.00,,---,0.00,VWS V14.01,2013-02-20 20:40:00,
2013-02-20 15:41:00,73.6,58.4,29.95,West,274,4.0,7.0,59,0.00,,---,0.00,VWS V14.01,2013-02-20 20:41:00,
2013-02-20 15:42:00,73.5,57.8,29.95,West,275,4.0,7.0,58,0.00,,---,0.00,VWS V14.01,2013-02-20 20:42:00,
2013-02-20 15:43:00,73.4,57.7,29.95,NW,316,1.0,7.0,58,0.00,,---,0.00,VWS V14.01,2013-02-20 20:43:00,
2013-02-20 15:44:00,73.3,57.7,29.95,NW,316,0.0,7.0,58,0.00,,---,0.00,VWS V14.01,2013-02-20 20:44:00,
2013-02-20 15:45:00,73.3,57.7,29.95,NW,323,2.0,7.0,58,0.00,,---,0.00,VWS V14.01,2013-02-20 20:45:00,
2013-02-20 15:46:00,73.2,58.0,29.95,WNW,301,4.0,7.0,59,0.00,,---,0.00,VWS V14.01,2013-02-20 20:46:00,
2013-02-20 15:47:00,73.0,57.8,29.95,WNW,301,1.0,7.0,59,0.00,,---,0.00,VWS V14.01,2013-02-20 20:47:00,
2013-02-20 15:48:00,72.9,57.8,29.95,WNW,299,0.0,7.0,59,0.00,,---,0.00,VWS V14.01,2013-02-20 20:48:00,
2013-02-20 15:49:00,72.9,57.8,29.95,WNW,299,0.0,7.0,59,0.00,,---,0.00,VWS V14.01,2013-02-20 20:49:00,
2013-02-20 15:50:00,72.8,58.1,29.95,WNW,299,0.0,7.0,60,0.00,,---,0.00,VWS V14.01,2013-02-20 20:50:00,
2013-02-20 15:51:00,72.8,58.1,29.95,WNW,299,0.0,7.0,60,0.00,,---,0.00,VWS V14.01,2013-02-20 20:51:00,
2013-02-20 15:52:00,72.7,58.0,29.95,WNW,298,0.0,7.0,60,0.00,,---,0.00,VWS V14.01,2013-02-20 20:52:00,
2013-02-20 15:53:00,72.7,58.0,29.95,WNW,285,3.0,7.0,60,0.00,,---,0.00,VWS V14.01,2013-02-20 20:53:00,
2013-02-20 15:54:00,72.7,58.0,29.95,West,259,2.0,7.0,60,0.00,,---,0.00,VWS V14.01,2013-02-20 20:54:00,
2013-02-20 15:55:00,72.7,58.0,29.95,West,259,0.0,7.0,60,0.00,,---,0.00,VWS V14.01,2013-02-20 20:55:00,
2013-02-20 15:56:00,72.6,57.9,29.95,West,263,2.0,7.0,60,0.00,,---,0.00,VWS V14.01,2013-02-20 20:56:00,
2013-02-20 15:57:00,72.6,57.9,29.95,West,266,5.0,7.0,60,0.00,,---,0.00,VWS V14.01,2013-02-20 20:57:00,
2013-02-20 15:58:00,72.6,57.9,29.95,West,265,5.0,7.0,60,0.00,,---,0.00,VWS V14.01,2013-02-20 20:58:00,
2013-02-20 15:59:00,72.6,57.9,29.95,West,271,4.0,7.0,60,0.00,,---,0.00,VWS V14.01,2013-02-20 20:59:00,
2013-02-20 16:00:00,72.6,57.9,29.96,West,270,4.0,7.0,60,0.00,,---,0.00,VWS V14.01,2013-02-20 21:00:00,
2013-02-20 16:01:00,72.5,57.8,29.96,West,270,5.0,5.0,60,0.00,,---,0.00,VWS V14.01,2013-02-20 21:01:00,
2013-02-20 16:02:00,72.5,57.8,29.96,West,270,5.0,5.0,60,0.00,,---,0.00,VWS V14.01,2013-02-20 21:02:00,
2013-02-20 16:03:00,72.5,57.8,29.96,West,265,2.0,5.0,60,0.00,,---,0.00,VWS V14.01,2013-02-20 21:03:00,
2013-02-20 16:04:00,72.5,57.8,29.96,West,269,3.0,5.0,60,0.00,,---,0.00,VWS V14.01,2013-02-20 21:04:00,
2013-02-20 16:05:00,72.4,57.8,29.96,West,279,2.0,5.0,60,0.00,,---,0.00,VWS V14.01,2013-02-20 21:05:00,
2013-02-20 16:06:00,72.4,57.8,29.96,West,279,3.0,5.0,60,0.00,,---,0.00,VWS V14.01,2013-02-20 21:06:00,
2013-02-20 16:07:00,72.4,57.8,29.96,West,281,3.0,5.0,60,0.00,,---,0.00,VWS V14.01,2013-02-20 21:07:00,
2013-02-20 16:08:00,72.3,57.7,29.96,West,280,0.0,5.0,60,0.00,,---,0.00,VWS V14.01,2013-02-20 21:08:00,
2013-02-20 16:09:00,72.2,58.0,29.96,West,281,3.0,5.0,61,0.00,,---,0.00,VWS V14.01,2013-02-20 21:09:00,
2013-02-20 16:10:00,72.2,57.6,29.96,West,281,0.0,5.0,60,0.00,,---,0.00,VWS V14.01,2013-02-20 21:10:00,
2013-02-20 16:11:00,72.2,58.0,29.96,WNW,284,3.0,5.0,61,0.00,,---,0.00,VWS V14.01,2013-02-20 21:11:00,
2013-02-20 16:12:00,72.1,57.5,29.96,WNW,285,3.0,5.0,60,0.00,,---,0.00,VWS V14.01,2013-02-20 21:12:00,
2013-02-20 16:13:00,72.1,57.5,29.96,WNW,285,0.0,5.0,60,0.00,,---,0.00,VWS V14.01,2013-02-20 21:13:00,
2013-02-20 16:14:00,72.0,57.8,29.96,WNW,285,0.0,5.0,61,0.00,,---,0.00,VWS V14.01,2013-02-20 21:14:00,
2013-02-20 16:15:00,72.0,57.8,29.97,WNW,290,0.0,5.0,61,0.00,,---,0.00,VWS V14.01,2013-02-20 21:15:00,
2013-02-20 16:16:00,72.0,57.8,29.97,WNW,288,0.0,5.0,61,0.00,,---,0.00,VWS V14.01,2013-02-20 21:16:00,
2013-02-20 16:17:00,72.0,57.8,29.97,WNW,288,0.0,5.0,61,0.00,,---,0.00,VWS V14.01,2013-02-20 21:17:00,
2013-02-20 16:18:00,71.9,57.7,29.97,WNW,288,0.0,5.0,61,0.00,,---,0.00,VWS V14.01,2013-02-20 21:18:00,
2013-02-20 16:19:00,71.9,57.7,29.97,WNW,288,1.0,5.0,61,0.00,,---,0.00,VWS V14.01,2013-02-20 21:19:00,
2013-02-20 16:20:00,71.9,58.2,29.97,WNW,288,0.0,5.0,62,0.00,,---,0.00,VWS V14.01,2013-02-20 21:20:00,
2013-02-20 16:21:00,71.9,58.2,29.97,WNW,288,0.0,5.0,62,0.00,,---,0.00,VWS V14.01,2013-02-20 21:21:00,
2013-02-20 16:22:00,71.9,58.2,29.97,WNW,288,2.0,5.0,62,0.00,,---,0.00,VWS V14.01,2013-02-20 21:22:00,
2013-02-20 16:23:00,71.8,58.1,29.97,WNW,294,0.0,5.0,62,0.00,,---,0.00,VWS V14.01,2013-02-20 21:23:00,
2013-02-20 16:24:00,71.8,58.1,29.97,WNW,303,2.0,5.0,62,0.00,,---,0.00,VWS V14.01,2013-02-20 21:24:00,
2013-02-20 16:25:00,71.7,58.0,29.97,NW,305,4.0,5.0,62,0.00,,---,0.00,VWS V14.01,2013-02-20 21:25:00,
2013-02-20 16:26:00,71.7,57.5,29.97,NW,306,2.0,5.0,61,0.00,,---,0.00,VWS V14.01,2013-02-20 21:26:00,
2013-02-20 16:27:00,71.6,57.9,29.97,NW,306,0.0,5.0,62,0.00,,---,0.00,VWS V14.01,2013-02-20 21:27:00,
2013-02-20 16:28:00,71.6,57.9,29.97,NW,306,0.0,5.0,62,0.00,,---,0.00,VWS V14.01,2013-02-20 21:28:00,
2013-02-20 16:29:00,71.5,57.8,29.97,NW,306,0.0,5.0,62,0.00,,---,0.00,VWS V14.01,2013-02-20 21:29:00,
2013-02-20 16:30:00,71.5,57.8,29.97,NW,306,0.0,5.0,62,0.00,,---,0.00,VWS V14.01,2013-02-20 21:30:00,
2013-02-20 16:31:00,71.5,57.8,29.97,NW,306,0.0,2.0,62,0.00,,---,0.00,VWS V14.01,2013-02-20 21:31:00,
2013-02-20 16:32:00,71.4,58.2,29.97,NW,306,0.0,2.0,63,0.00,,---,0.00,VWS V14.01,2013-02-20 21:32:00,
2013-02-20 16:33:00,71.4,57.7,29.97,NW,306,0.0,2.0,62,0.00,,---,0.00,VWS V14.01,2013-02-20 21:33:00,
2013-02-20 16:34:00,71.3,57.6,29.97,NW,306,0.0,2.0,62,0.00,,---,0.00,VWS V14.01,2013-02-20 21:34:00,
2013-02-20 16:35:00,71.3,57.6,29.97,NW,306,0.0,4.0,62,0.00,,---,0.00,VWS V14.01,2013-02-20 21:35:00,
2013-02-20 16:36:00,71.3,57.6,29.97,NW,306,0.0,4.0,62,0.00,,---,0.00,VWS V14.01,2013-02-20 21:36:00,
2013-02-20 16:37:00,71.3,58.1,29.97,NW,306,0.0,4.0,63,0.00,,---,0.00,VWS V14.01,2013-02-20 21:37:00,
2013-02-20 16:38:00,71.3,58.1,29.97,NW,306,0.0,4.0,63,0.00,,---,0.00,VWS V14.01,2013-02-20 21:38:00,
2013-02-20 16:39:00,71.2,58.4,29.97,NW,306,0.0,4.0,64,0.00,,---,0.00,VWS V14.01,2013-02-20 21:39:00,
2013-02-20 16:40:00,71.2,58.0,29.97,NW,323,3.0,5.0,63,0.00,,---,0.00,VWS V14.01,2013-02-20 21:40:00,
2013-02-20 16:41:00,71.2,57.5,29.97,NW,325,3.0,5.0,62,0.00,,---,0.00,VWS V14.01,2013-02-20 21:41:00,
2013-02-20 16:42:00,71.2,58.0,29.97,NNW,327,3.0,5.0,63,0.00,,---,0.00,VWS V14.01,2013-02-20 21:42:00,
2013-02-20 16:43:00,71.1,57.9,29.97,NE,34,6.0,7.0,63,0.00,,---,0.00,VWS V14.01,2013-02-20 21:43:00,
2013-02-20 16:44:00,71.0,56.0,29.97,NNE,15,4.0,7.0,59,0.00,,---,0.00,VWS V14.01,2013-02-20 21:44:00,
2013-02-20 16:45:00,70.8,55.3,29.98,NNE,30,3.0,7.0,58,0.00,,---,0.00,VWS V14.01,2013-02-20 21:45:00,
2013-02-20 16:46:00,70.6,55.1,29.98,NNE,31,2.0,7.0,58,0.00,,---,0.00,VWS V14.01,2013-02-20 21:46:00,
2013-02-20 16:47:00,70.4,54.9,29.98,NE,36,3.0,7.0,58,0.00,,---,0.00,VWS V14.01,2013-02-20 21:47:00,
2013-02-20 16:48:00,70.1,54.7,29.98,NE,52,2.0,7.0,58,0.00,,---,0.00,VWS V14.01,2013-02-20 21:48:00,
2013-02-20 16:49:00,69.9,54.5,29.98,NE,52,0.0,9.0,58,0.00,,---,0.00,VWS V14.01,2013-02-20 21:49:00,
2013-02-20 16:50:00,69.7,54.3,29.98,NNE,22,2.0,9.0,58,0.00,,---,0.00,VWS V14.01,2013-02-20 21:50:00,
2013-02-20 16:51:00,69.4,54.0,29.98,NNE,22,0.0,9.0,58,0.00,,---,0.00,VWS V14.01,2013-02-20 21:51:00,
2013-02-20 16:52:00,69.2,53.8,29.98,NNE,26,2.0,9.0,58,0.00,,---,0.00,VWS V14.01,2013-02-20 21:52:00,
2013-02-20 16:53:00,69.0,53.6,29.98,ENE,72,2.0,9.0,58,0.00,,---,0.00,VWS V14.01,2013-02-20 21:53:00,
2013-02-20 16:54:00,68.9,53.5,29.98,ENE,71,1.0,9.0,58,0.00,,---,0.00,VWS V14.01,2013-02-20 21:54:00,
2013-02-20 16:55:00,68.7,53.3,29.98,ENE,67,5.0,9.0,58,0.00,,---,0.00,VWS V14.01,2013-02-20 21:55:00,
2013-02-20 16:56:00,68.5,53.6,29.98,ENE,66,1.0,9.0,59,0.00,,---,0.00,VWS V14.01,2013-02-20 21:56:00,
2013-02-20 16:57:00,68.3,53.4,29.98,ENE,67,2.0,9.0,59,0.00,,---,0.00,VWS V14.01,2013-02-20 21:57:00,
2013-02-20 16:58:00,68.2,53.3,29.98,East,93,2.0,9.0,59,0.00,,---,0.00,VWS V14.01,2013-02-20 21:58:00,
2013-02-20 16:59:00,68.1,53.2,29.98,ENE,65,3.0,9.0,59,0.00,,---,0.00,VWS V14.01,2013-02-20 21:59:00,
2013-02-20 17:00:00,67.9,53.1,29.98,ENE,77,3.0,9.0,59,0.00,,---,0.00,VWS V14.01,2013-02-20 22:00:00,
2013-02-20 17:01:00,67.8,53.4,29.98,ENE,71,1.0,4.0,60,0.00,,---,0.00,VWS V14.01,2013-02-20 22:01:00,
2013-02-20 17:02:00,67.7,53.3,29.98,East,79,4.0,5.0,60,0.00,,---,0.00,VWS V14.01,2013-02-20 22:02:00,
2013-02-20 17:03:00,67.6,53.2,29.98,ENE,76,4.0,6.0,60,0.00,,---,0.00,VWS V14.01,2013-02-20 22:03:00,
2013-02-20 17:04:00,67.5,53.1,29.98,ENE,62,2.0,6.0,60,0.00,,---,0.00,VWS V14.01,2013-02-20 22:04:00,
2013-02-20 17:05:00,67.4,53.0,29.98,ENE,62,0.0,6.0,60,0.00,,---,0.00,VWS V14.01,2013-02-20 22:05:00,
2013-02-20 17:06:00,67.3,53.0,29.98,ENE,61,3.0,6.0,60,0.00,,---,0.00,VWS V14.01,2013-02-20 22:06:00,
2013-02-20 17:07:00,67.3,53.4,29.98,ENE,61,0.0,6.0,61,0.00,,---,0.00,VWS V14.01,2013-02-20 22:07:00,
2013-02-20 17:08:00,67.2,53.3,29.98,East,80,3.0,6.0,61,0.00,,---,0.00,VWS V14.01,2013-02-20 22:08:00,
2013-02-20 17:09:00,67.0,53.1,29.98,East,79,0.0,6.0,61,0.00,,---,0.00,VWS V14.01,2013-02-20 22:09:00,
2013-02-20 17:10:00,67.0,53.1,29.98,East,79,0.0,6.0,61,0.00,,---,0.00,VWS V14.01,2013-02-20 22:10:00,
2013-02-20 17:11:00,66.9,53.0,29.98,ENE,69,3.0,6.0,61,0.00,,---,0.00,VWS V14.01,2013-02-20 22:11:00,
2013-02-20 17:12:00,66.8,52.9,29.98,ENE,60,1.0,6.0,61,0.00,,---,0.00,VWS V14.01,2013-02-20 22:12:00,
2013-02-20 17:13:00,66.7,52.8,29.98,ENE,64,3.0,6.0,61,0.00,,---,0.00,VWS V14.01,2013-02-20 22:13:00,
2013-02-20 17:14:00,66.7,52.8,29.98,ENE,63,0.0,6.0,61,0.00,,---,0.00,VWS V14.01,2013-02-20 22:14:00,
2013-02-20 17:15:00,66.6,52.8,29.98,ENE,62,1.0,6.0,61,0.00,,---,0.00,VWS V14.01,2013-02-20 22:15:00,
2013-02-20 17:16:00,66.5,52.7,29.98,ENE,63,0.0,6.0,61,0.00,,---,0.00,VWS V14.01,2013-02-20 22:16:00,
2013-02-20 17:17:00,66.5,52.7,29.98,ENE,63,0.0,6.0,61,0.00,,---,0.00,VWS V14.01,2013-02-20 22:17:00,
2013-02-20 17:18:00,66.4,52.6,29.98,ENE,63,0.0,6.0,61,0.00,,---,0.00,VWS V14.01,2013-02-20 22:18:00,
2013-02-20 17:19:00,66.3,52.5,29.98,ENE,63,0.0,6.0,61,0.00,,---,0.00,VWS V14.01,2013-02-20 22:19:00,
2013-02-20 17:20:00,66.3,52.9,29.98,ENE,63,0.0,6.0,62,0.00,,---,0.00,VWS V14.01,2013-02-20 22:20:00,
2013-02-20 17:21:00,66.3,52.9,29.98,ENE,65,1.0,6.0,62,0.00,,---,0.00,VWS V14.01,2013-02-20 22:21:00,
2013-02-20 17:22:00,66.2,52.8,29.98,ENE,68,0.0,6.0,62,0.00,,---,0.00,VWS V14.01,2013-02-20 22:22:00,
2013-02-20 17:23:00,66.2,52.8,29.98,ENE,69,0.0,6.0,62,0.00,,---,0.00,VWS V14.01,2013-02-20 22:23:00,
2013-02-20 17:24:00,66.1,52.7,29.98,ENE,71,1.0,6.0,62,0.00,,---,0.00,VWS V14.01,2013-02-20 22:24:00,
2013-02-20 17:25:00,66.0,52.6,29.98,ENE,71,0.0,6.0,62,0.00,,---,0.00,VWS V14.01,2013-02-20 22:25:00,
2013-02-20 17:26:00,65.9,52.5,29.98,ENE,65,0.0,6.0,62,0.00,,---,0.00,VWS V14.01,2013-02-20 22:26:00,
2013-02-20 17:27:00,65.9,52.5,29.98,ENE,66,1.0,6.0,62,0.00,,---,0.00,VWS V14.01,2013-02-20 22:27:00,
2013-02-20 17:28:00,65.9,52.5,29.98,ENE,66,1.0,6.0,62,0.00,,---,0.00,VWS V14.01,2013-02-20 22:28:00,
2013-02-20 17:29:00,65.9,52.5,29.98,ENE,66,1.0,6.0,62,0.00,,---,0.00,VWS V14.01,2013-02-20 22:29:00,
2013-02-20 17:30:00,65.9,52.5,29.99,ENE,66,1.0,6.0,62,0.00,,---,0.00,VWS V14.01,2013-02-20 22:30:00,
2013-02-20 17:31:00,65.7,52.3,29.99,ENE,70,2.0,2.0,62,0.00,,---,0.00,VWS V14.01,2013-02-20 22:31:00,
2013-02-20 17:32:00,65.6,52.2,29.99,ENE,69,0.0,4.0,62,0.00,,---,0.00,VWS V14.01,2013-02-20 22:32:00,
2013-02-20 17:33:00,65.6,52.2,29.99,ENE,69,0.0,4.0,62,0.00,,---,0.00,VWS V14.01,2013-02-20 22:33:00,
2013-02-20 17:34:00,65.6,52.7,29.99,ENE,69,0.0,4.0,63,0.00,,---,0.00,VWS V14.01,2013-02-20 22:34:00,
2013-02-20 17:35:00,65.5,52.6,29.99,ENE,71,0.0,4.0,63,0.00,,---,0.00,VWS V14.01,2013-02-20 22:35:00,
2013-02-20 17:36:00,65.4,52.5,29.99,ENE,71,0.0,4.0,63,0.00,,---,0.00,VWS V14.01,2013-02-20 22:36:00,
2013-02-20 17:37:00,65.4,52.5,29.99,ENE,71,0.0,4.0,63,0.00,,---,0.00,VWS V14.01,2013-02-20 22:37:00,
2013-02-20 17:38:00,65.3,52.4,29.99,ENE,74,2.0,4.0,63,0.00,,---,0.00,VWS V14.01,2013-02-20 22:38:00,
2013-02-20 17:39:00,66.3,52.9,29.98,ENE,63,0.0,6.0,62,0.00,,---,0.00,VWS V14.01,2013-02-20 22:39:00,
2013-02-20 17:40:00,65.2,52.3,29.99,East,82,0.0,4.0,63,0.00,,---,0.00,VWS V14.01,2013-02-20 22:40:00,
2013-02-20 17:41:00,65.2,52.3,29.99,East,82,0.0,4.0,63,0.00,,---,0.00,VWS V14.01,2013-02-20 22:41:00,
2013-02-20 17:42:00,65.1,52.2,29.99,East,82,0.0,4.0,63,0.00,,---,0.00,VWS V14.01,2013-02-20 22:42:00,
2013-02-20 17:43:00,65.1,52.2,29.99,East,82,0.0,4.0,63,0.00,,---,0.00,VWS V14.01,2013-02-20 22:43:00,
2013-02-20 17:44:00,65.0,52.1,29.99,East,82,0.0,4.0,63,0.00,,---,0.00,VWS V14.01,2013-02-20 22:44:00,
2013-02-20 17:45:00,65.0,52.1,29.98,East,82,0.0,4.0,63,0.00,,---,0.00,VWS V14.01,2013-02-20 22:45:00,
2013-02-20 17:46:00,64.9,52.0,29.98,East,82,0.0,4.0,63,0.00,,---,0.00,VWS V14.01,2013-02-20 22:46:00,
2013-02-20 17:47:00,64.9,52.0,29.98,East,82,1.0,4.0,63,0.00,,---,0.00,VWS V14.01,2013-02-20 22:47:00,
2013-02-20 17:48:00,64.8,52.3,29.98,East,82,1.0,4.0,64,0.00,,---,0.00,VWS V14.01,2013-02-20 22:48:00,
2013-02-20 17:49:00,64.8,52.3,29.98,East,82,1.0,4.0,64,0.00,,---,0.00,VWS V14.01,2013-02-20 22:49:00,
2013-02-20 17:50:00,64.7,52.3,29.98,East,82,0.0,4.0,64,0.00,,---,0.00,VWS V14.01,2013-02-20 22:50:00,
2013-02-20 17:51:00,64.7,52.3,29.98,East,83,0.0,4.0,64,0.00,,---,0.00,VWS V14.01,2013-02-20 22:51:00,
2013-02-20 17:52:00,64.6,52.2,29.98,East,85,2.0,4.0,64,0.00,,---,0.00,VWS V14.01,2013-02-20 22:52:00,
2013-02-20 17:53:00,64.5,52.1,29.98,East,93,4.0,4.0,64,0.00,,---,0.00,VWS V14.01,2013-02-20 22:53:00,
2013-02-20 17:54:00,64.4,52.0,29.98,East,100,4.0,5.0,64,0.00,,---,0.00,VWS V14.01,2013-02-20 22:54:00,
2013-02-20 17:55:00,64.3,51.9,29.98,ESE,107,5.0,6.0,64,0.00,,---,0.00,VWS V14.01,2013-02-20 22:55:00,
2013-02-20 17:56:00,64.3,51.9,29.98,ESE,107,0.0,6.0,64,0.00,,---,0.00,VWS V14.01,2013-02-20 22:56:00,
2013-02-20 17:57:00,64.2,51.8,29.98,ESE,107,3.0,6.0,64,0.00,,---,0.00,VWS V14.01,2013-02-20 22:57:00,
2013-02-20 17:58:00,64.1,52.1,29.98,ESE,107,0.0,6.0,65,0.00,,---,0.00,VWS V14.01,2013-02-20 22:58:00,
2013-02-20 17:59:00,64.1,52.1,29.98,ESE,107,0.0,6.0,65,0.00,,---,0.00,VWS V14.01,2013-02-20 22:59:00,
2013-02-20 18:00:00,64.0,52.0,29.98,ESE,107,0.0,6.0,65,0.00,,---,0.00,VWS V14.01,2013-02-20 23:00:00,
2013-02-20 18:01:00,63.9,51.9,29.98,ESE,107,0.0,0.0,65,0.00,,---,0.00,VWS V14.01,2013-02-20 23:01:00,
2013-02-20 18:02:00,63.9,51.9,29.98,ESE,107,0.0,0.0,65,0.00,,---,0.00,VWS V14.01,2013-02-20 23:02:00,
2013-02-20 18:03:00,63.8,51.8,29.98,ESE,107,0.0,0.0,65,0.00,,---,0.00,VWS V14.01,2013-02-20 23:03:00,
2013-02-20 18:04:00,63.8,51.8,29.98,ESE,107,0.0,1.0,65,0.00,,---,0.00,VWS V14.01,2013-02-20 23:04:00,
2013-02-20 18:05:00,63.7,51.7,29.98,ESE,107,0.0,1.0,65,0.00,,---,0.00,VWS V14.01,2013-02-20 23:05:00,
2013-02-20 18:06:00,63.7,52.1,29.98,ESE,107,0.0,1.0,66,0.00,,---,0.00,VWS V14.01,2013-02-20 23:06:00,
2013-02-20 18:07:00,63.6,52.0,29.98,ESE,107,0.0,1.0,66,0.00,,---,0.00,VWS V14.01,2013-02-20 23:07:00,
2013-02-20 18:08:00,63.5,52.0,29.98,ESE,107,0.0,1.0,66,0.00,,---,0.00,VWS V14.01,2013-02-20 23:08:00,
2013-02-20 18:09:00,63.5,52.0,29.98,ESE,107,0.0,1.0,66,0.00,,---,0.00,VWS V14.01,2013-02-20 23:09:00,
2013-02-20 18:10:00,63.4,51.9,29.98,ESE,107,0.0,1.0,66,0.00,,---,0.00,VWS V14.01,2013-02-20 23:10:00,
2013-02-20 18:11:00,63.4,51.9,29.98,ESE,107,0.0,1.0,66,0.00,,---,0.00,VWS V14.01,2013-02-20 23:11:00,
2013-02-20 18:12:00,63.2,51.7,29.98,ESE,107,0.0,1.0,66,0.00,,---,0.00,VWS V14.01,2013-02-20 23:12:00,
2013-02-20 18:13:00,63.2,51.7,29.98,ESE,107,0.0,1.0,66,0.00,,---,0.00,VWS V14.01,2013-02-20 23:13:00,
2013-02-20 18:14:00,63.2,51.7,29.98,ESE,107,0.0,1.0,66,0.00,,---,0.00,VWS V14.01,2013-02-20 23:14:00,
2013-02-20 18:15:00,63.1,52.0,29.99,ESE,107,0.0,2.0,67,0.00,,---,0.00,VWS V14.01,2013-02-20 23:15:00,
2013-02-20 18:16:00,63.0,51.9,29.99,ESE,107,0.0,2.0,67,0.00,,---,0.00,VWS V14.01,2013-02-20 23:16:00,
2013-02-20 18:17:00,62.9,51.8,29.99,ESE,107,0.0,2.0,67,0.00,,---,0.00,VWS V14.01,2013-02-20 23:17:00,
2013-02-20 18:18:00,62.9,51.8,29.99,ESE,107,0.0,2.0,67,0.00,,---,0.00,VWS V14.01,2013-02-20 23:18:00,
2013-02-20 18:19:00,62.8,51.7,29.99,ESE,107,0.0,2.0,67,0.00,,---,0.00,VWS V14.01,2013-02-20 23:19:00,
2013-02-20 18:20:00,62.7,51.6,29.99,ESE,107,0.0,2.0,67,0.00,,---,0.00,VWS V14.01,2013-02-20 23:20:00,
2013-02-20 18:21:00,62.7,51.6,29.99,ESE,107,0.0,2.0,67,0.00,,---,0.00,VWS V14.01,2013-02-20 23:21:00,
2013-02-20 18:22:00,62.6,51.5,29.99,ESE,107,0.0,2.0,67,0.00,,---,0.00,VWS V14.01,2013-02-20 23:22:00,
2013-02-20 18:23:00,62.6,51.5,29.99,ESE,107,0.0,2.0,67,0.00,,---,0.00,VWS V14.01,2013-02-20 23:23:00,
2013-02-20 18:24:00,62.5,51.8,29.99,ESE,107,0.0,2.0,68,0.00,,---,0.00,VWS V14.01,2013-02-20 23:24:00,
2013-02-20 18:25:00,62.5,51.8,29.99,ESE,107,0.0,2.0,68,0.00,,---,0.00,VWS V14.01,2013-02-20 23:25:00,
2013-02-20 18:26:00,62.4,51.7,29.99,ESE,107,0.0,2.0,68,0.00,,---,0.00,VWS V14.01,2013-02-20 23:26:00,
2013-02-20 18:27:00,62.4,51.7,29.99,ESE,107,0.0,2.0,68,0.00,,---,0.00,VWS V14.01,2013-02-20 23:27:00,
2013-02-20 18:28:00,62.3,51.6,29.99,ESE,107,0.0,2.0,68,0.00,,---,0.00,VWS V14.01,2013-02-20 23:28:00,
2013-02-20 18:29:00,62.3,51.6,29.99,ESE,107,0.0,2.0,68,0.00,,---,0.00,VWS V14.01,2013-02-20 23:29:00,
2013-02-20 18:30:00,62.2,51.5,30.00,ESE,107,0.0,2.0,68,0.00,,---,0.00,VWS V14.01,2013-02-20 23:30:00,
2013-02-20 18:31:00,62.1,51.4,30.00,ESE,107,0.0,0.0,68,0.00,,---,0.00,VWS V14.01,2013-02-20 23:31:00,
2013-02-20 18:32:00,62.1,51.4,30.00,ESE,107,0.0,0.0,68,0.00,,---,0.00,VWS V14.01,2013-02-20 23:32:00,
2013-02-20 18:33:00,62.0,51.3,30.00,ESE,107,0.0,0.0,68,0.00,,---,0.00,VWS V14.01,2013-02-20 23:33:00,
2013-02-20 18:34:00,61.9,51.6,30.00,ESE,107,0.0,0.0,69,0.00,,---,0.00,VWS V14.01,2013-02-20 23:34:00,
2013-02-20 18:35:00,61.9,51.6,30.00,ESE,107,0.0,0.0,69,0.00,,---,0.00,VWS V14.01,2013-02-20 23:35:00,
2013-02-20 18:36:00,61.8,51.5,30.00,ESE,107,0.0,0.0,69,0.00,,---,0.00,VWS V14.01,2013-02-20 23:36:00,
2013-02-20 18:37:00,61.8,51.5,30.00,ESE,107,0.0,0.0,69,0.00,,---,0.00,VWS V14.01,2013-02-20 23:37:00,
2013-02-20 18:38:00,61.7,51.4,30.00,ESE,107,0.0,3.0,69,0.00,,---,0.00,VWS V14.01,2013-02-20 23:38:00,
2013-02-20 18:39:00,61.7,51.4,30.00,ESE,107,0.0,3.0,69,0.00,,---,0.00,VWS V14.01,2013-02-20 23:39:00,
2013-02-20 18:40:00,61.6,51.7,30.00,ESE,107,0.0,3.0,70,0.00,,---,0.00,VWS V14.01,2013-02-20 23:40:00,
2013-02-20 18:41:00,61.6,51.7,30.00,ESE,107,0.0,3.0,70,0.00,,---,0.00,VWS V14.01,2013-02-20 23:41:00,
2013-02-20 18:42:00,61.5,51.6,30.00,ESE,107,0.0,3.0,70,0.00,,---,0.00,VWS V14.01,2013-02-20 23:42:00,
2013-02-20 18:43:00,61.5,51.6,30.00,ESE,107,0.0,3.0,70,0.00,,---,0.00,VWS V14.01,2013-02-20 23:43:00,
2013-02-20 18:44:00,61.4,51.5,30.00,ESE,107,0.0,3.0,70,0.00,,---,0.00,VWS V14.01,2013-02-20 23:44:00,
2013-02-20 18:45:00,61.4,51.5,30.01,ESE,107,0.0,3.0,70,0.00,,---,0.00,VWS V14.01,2013-02-20 23:45:00,
2013-02-20 18:46:00,61.4,51.5,30.01,ESE,107,0.0,3.0,70,0.00,,---,0.00,VWS V14.01,2013-02-20 23:46:00,
2013-02-20 18:47:00,61.3,51.5,30.01,ESE,107,0.0,3.0,70,0.00,,---,0.00,VWS V14.01,2013-02-20 23:47:00,
2013-02-20 18:48:00,61.3,51.5,30.01,ESE,107,0.0,3.0,70,0.00,,---,0.00,VWS V14.01,2013-02-20 23:48:00,
2013-02-20 18:49:00,61.2,51.3,30.01,ESE,107,0.0,3.0,70,0.00,,---,0.00,VWS V14.01,2013-02-20 23:49:00,
2013-02-20 18:50:00,61.2,51.3,30.01,ESE,107,0.0,3.0,70,0.00,,---,0.00,VWS V14.01,2013-02-20 23:50:00,
2013-02-20 18:51:00,61.1,51.2,30.01,ESE,107,0.0,3.0,70,0.00,,---,0.00,VWS V14.01,2013-02-20 23:51:00,
2013-02-20 18:52:00,61.1,51.2,30.01,ESE,107,0.0,3.0,70,0.00,,---,0.00,VWS V14.01,2013-02-20 23:52:00,
2013-02-20 18:53:00,61.1,51.2,30.01,ESE,107,0.0,3.0,70,0.00,,---,0.00,VWS V14.01,2013-02-20 23:53:00,
2013-02-20 18:54:00,61.0,51.2,30.01,ESE,107,0.0,3.0,70,0.00,,---,0.00,VWS V14.01,2013-02-20 23:54:00,
2013-02-20 18:55:00,61.0,51.5,30.01,ESE,107,0.0,3.0,71,0.00,,---,0.00,VWS V14.01,2013-02-20 23:55:00,
2013-02-20 18:56:00,60.9,51.5,30.01,ESE,107,0.0,3.0,71,0.00,,---,0.00,VWS V14.01,2013-02-20 23:56:00,
2013-02-20 18:57:00,60.9,51.5,30.01,ESE,107,0.0,3.0,71,0.00,,---,0.00,VWS V14.01,2013-02-20 23:57:00,
2013-02-20 18:58:00,60.9,51.5,30.01,ESE,107,0.0,3.0,71,0.00,,---,0.00,VWS V14.01,2013-02-20 23:58:00,
2013-02-20 18:59:00,60.8,51.3,30.01,ESE,107,0.0,3.0,71,0.00,,---,0.00,VWS V14.01,2013-02-20 23:59:00,
2013-02-20 19:00:00,60.7,51.2,30.01,ESE,107,0.0,3.0,71,0.00,,---,0.00,VWS V14.01,2013-02-21 00:00:00,
2013-02-20 19:01:00,60.7,51.2,30.01,ESE,107,0.0,0.0,71,0.00,,---,0.00,VWS V14.01,2013-02-21 00:01:00,
2013-02-20 19:02:00,60.7,51.2,30.01,ESE,107,0.0,0.0,71,0.00,,---,0.00,VWS V14.01,2013-02-21 00:02:00,
2013-02-20 19:03:00,60.7,51.2,30.01,ESE,107,0.0,0.0,71,0.00,,---,0.00,VWS V14.01,2013-02-21 00:03:00,
2013-02-20 19:04:00,60.6,51.2,30.01,ESE,107,0.0,0.0,71,0.00,,---,0.00,VWS V14.01,2013-02-21 00:04:00,
2013-02-20 19:05:00,60.5,51.1,30.01,ESE,107,0.0,0.0,71,0.00,,---,0.00,VWS V14.01,2013-02-21 00:05:00,
2013-02-20 19:06:00,60.4,51.0,30.01,ESE,107,0.0,0.0,71,0.00,,---,0.00,VWS V14.01,2013-02-21 00:06:00,
2013-02-20 19:07:00,60.4,51.3,30.01,ESE,107,0.0,0.0,72,0.00,,---,0.00,VWS V14.01,2013-02-21 00:07:00,
2013-02-20 19:08:00,60.3,51.2,30.01,ESE,107,0.0,0.0,72,0.00,,---,0.00,VWS V14.01,2013-02-21 00:08:00,
2013-02-20 19:09:00,60.2,51.2,30.01,ESE,107,0.0,0.0,72,0.00,,---,0.00,VWS V14.01,2013-02-21 00:09:00,
2013-02-20 19:10:00,60.2,51.2,30.01,ESE,107,0.0,0.0,72,0.00,,---,0.00,VWS V14.01,2013-02-21 00:10:00,
2013-02-20 19:11:00,60.2,51.2,30.01,ESE,107,0.0,0.0,72,0.00,,---,0.00,VWS V14.01,2013-02-21 00:11:00,
2013-02-20 19:12:00,60.1,51.1,30.01,ESE,107,0.0,0.0,72,0.00,,---,0.00,VWS V14.01,2013-02-21 00:12:00,
2013-02-20 19:13:00,60.1,51.1,30.01,ESE,107,0.0,0.0,72,0.00,,---,0.00,VWS V14.01,2013-02-21 00:13:00,
2013-02-20 19:14:00,60.0,51.0,30.01,ESE,107,0.0,0.0,72,0.00,,---,0.00,VWS V14.01,2013-02-21 00:14:00,
2013-02-20 19:15:00,60.0,51.0,30.01,ESE,107,0.0,0.0,72,0.00,,---,0.00,VWS V14.01,2013-02-21 00:15:00,
2013-02-20 19:16:00,60.0,51.3,30.01,ESE,107,0.0,0.0,73,0.00,,---,0.00,VWS V14.01,2013-02-21 00:16:00,
2013-02-20 19:17:00,59.9,51.2,30.01,ESE,107,0.0,0.0,73,0.00,,---,0.00,VWS V14.01,2013-02-21 00:17:00,
2013-02-20 19:18:00,59.9,51.2,30.01,ESE,107,0.0,0.0,73,0.00,,---,0.00,VWS V14.01,2013-02-21 00:18:00,
2013-02-20 19:19:00,59.9,51.2,30.01,ESE,107,0.0,0.0,73,0.00,,---,0.00,VWS V14.01,2013-02-21 00:19:00,
2013-02-20 19:20:00,59.8,51.1,30.01,ESE,107,0.0,0.0,73,0.00,,---,0.00,VWS V14.01,2013-02-21 00:20:00,
2013-02-20 19:21:00,59.8,51.1,30.01,ESE,107,0.0,0.0,73,0.00,,---,0.00,VWS V14.01,2013-02-21 00:21:00,
2013-02-20 19:22:00,59.8,51.1,30.01,ESE,107,0.0,0.0,73,0.00,,---,0.00,VWS V14.01,2013-02-21 00:22:00,
2013-02-20 19:23:00,59.8,51.1,30.01,ESE,107,1.0,1.0,73,0.00,,---,0.00,VWS V14.01,2013-02-21 00:23:00,
2013-02-20 19:24:00,59.8,51.5,30.01,ESE,107,0.0,1.0,74,0.00,,---,0.00,VWS V14.01,2013-02-21 00:24:00,
2013-02-20 19:25:00,59.8,51.5,30.01,ESE,107,0.0,1.0,74,0.00,,---,0.00,VWS V14.01,2013-02-21 00:25:00,
2013-02-20 19:26:00,59.8,51.5,30.01,ESE,107,0.0,1.0,74,0.00,,---,0.00,VWS V14.01,2013-02-21 00:26:00,
2013-02-20 19:27:00,59.7,51.4,30.01,ESE,107,0.0,1.0,74,0.00,,---,0.00,VWS V14.01,2013-02-21 00:27:00,
2013-02-20 19:28:00,59.7,51.4,30.01,ESE,107,0.0,1.0,74,0.00,,---,0.00,VWS V14.01,2013-02-21 00:28:00,
2013-02-20 19:29:00,59.7,51.4,30.01,ESE,107,0.0,1.0,74,0.00,,---,0.00,VWS V14.01,2013-02-21 00:29:00,
2013-02-20 19:30:00,59.7,51.4,30.02,ESE,107,0.0,1.0,74,0.00,,---,0.00,VWS V14.01,2013-02-21 00:30:00,
2013-02-20 19:31:00,59.7,51.4,30.02,ESE,107,0.0,0.0,74,0.00,,---,0.00,VWS V14.01,2013-02-21 00:31:00,
2013-02-20 19:32:00,59.7,51.4,30.02,ESE,107,0.0,0.0,74,0.00,,---,0.00,VWS V14.01,2013-02-21 00:32:00,
2013-02-20 19:33:00,59.6,51.3,30.02,ESE,107,0.0,0.0,74,0.00,,---,0.00,VWS V14.01,2013-02-21 00:33:00,
2013-02-20 19:34:00,59.7,51.4,30.02,ESE,107,0.0,0.0,74,0.00,,---,0.00,VWS V14.01,2013-02-21 00:34:00,
2013-02-20 19:35:00,59.7,51.4,30.02,ESE,107,0.0,0.0,74,0.00,,---,0.00,VWS V14.01,2013-02-21 00:35:00,
2013-02-20 19:36:00,59.6,51.3,30.02,ESE,107,0.0,0.0,74,0.00,,---,0.00,VWS V14.01,2013-02-21 00:36:00,
2013-02-20 19:37:00,59.7,51.4,30.02,ESE,107,3.0,4.0,74,0.00,,---,0.00,VWS V14.01,2013-02-21 00:37:00,
2013-02-20 19:38:00,59.7,51.4,30.02,ESE,105,0.0,4.0,74,0.00,,---,0.00,VWS V14.01,2013-02-21 00:38:00,
2013-02-20 19:39:00,59.6,51.3,30.02,ESE,104,1.0,4.0,74,0.00,,---,0.00,VWS V14.01,2013-02-21 00:39:00,
2013-02-20 19:40:00,59.6,51.3,30.02,East,100,0.0,4.0,74,0.00,,---,0.00,VWS V14.01,2013-02-21 00:40:00,
2013-02-20 19:41:00,59.6,51.3,30.02,East,99,1.0,4.0,74,0.00,,---,0.00,VWS V14.01,2013-02-21 00:41:00,
2013-02-20 19:42:00,59.6,51.3,30.02,East,99,1.0,4.0,74,0.00,,---,0.00,VWS V14.01,2013-02-21 00:42:00,
2013-02-20 19:43:00,59.6,51.3,30.02,East,99,0.0,4.0,74,0.00,,---,0.00,VWS V14.01,2013-02-21 00:43:00,
2013-02-20 19:44:00,59.6,51.3,30.02,East,99,0.0,4.0,74,0.00,,---,0.00,VWS V14.01,2013-02-21 00:44:00,
2013-02-20 19:45:00,59.6,51.3,30.03,East,99,0.0,4.0,74,0.00,,---,0.00,VWS V14.01,2013-02-21 00:45:00,
2013-02-20 19:46:00,59.6,51.3,30.03,East,98,0.0,4.0,74,0.00,,---,0.00,VWS V14.01,2013-02-21 00:46:00,
2013-02-20 19:47:00,59.6,51.3,30.03,East,98,0.0,4.0,74,0.00,,---,0.00,VWS V14.01,2013-02-21 00:47:00,
2013-02-20 19:48:00,59.5,51.2,30.03,East,98,0.0,4.0,74,0.00,,---,0.00,VWS V14.01,2013-02-21 00:48:00,
2013-02-20 19:49:00,59.5,51.2,30.03,East,98,0.0,4.0,74,0.00,,---,0.00,VWS V14.01,2013-02-21 00:49:00,
2013-02-20 19:50:00,59.5,51.2,30.03,East,98,0.0,4.0,74,0.00,,---,0.00,VWS V14.01,2013-02-21 00:50:00,
2013-02-20 19:51:00,59.4,51.1,30.03,East,98,0.0,4.0,74,0.00,,---,0.00,VWS V14.01,2013-02-21 00:51:00,
2013-02-20 19:52:00,59.4,51.1,30.03,East,98,0.0,4.0,74,0.00,,---,0.00,VWS V14.01,2013-02-21 00:52:00,
2013-02-20 19:53:00,59.4,51.1,30.03,East,98,0.0,4.0,74,0.00,,---,0.00,VWS V14.01,2013-02-21 00:53:00,
2013-02-20 19:54:00,59.3,51.0,30.03,East,98,0.0,4.0,74,0.00,,---,0.00,VWS V14.01,2013-02-21 00:54:00,
2013-02-20 19:55:00,59.3,51.0,30.03,East,98,0.0,4.0,74,0.00,,---,0.00,VWS V14.01,2013-02-21 00:55:00,
2013-02-20 19:56:00,59.3,51.0,30.03,East,98,0.0,4.0,74,0.00,,---,0.00,VWS V14.01,2013-02-21 00:56:00,
2013-02-20 19:57:00,59.2,50.9,30.03,East,98,0.0,4.0,74,0.00,,---,0.00,VWS V14.01,2013-02-21 00:57:00,
2013-02-20 19:58:00,59.1,51.2,30.03,East,98,0.0,4.0,75,0.00,,---,0.00,VWS V14.01,2013-02-21 00:58:00,
2013-02-20 19:59:00,59.1,51.2,30.03,East,98,0.0,4.0,75,0.00,,---,0.00,VWS V14.01,2013-02-21 00:59:00,
2013-02-20 20:00:00,59.0,51.1,30.03,East,98,0.0,4.0,75,0.00,,---,0.00,VWS V14.01,2013-02-21 01:00:00,
2013-02-20 20:01:00,59.0,51.1,30.03,East,98,0.0,1.0,75,0.00,,---,0.00,VWS V14.01,2013-02-21 01:01:00,
2013-02-20 20:02:00,58.9,51.0,30.03,East,98,0.0,1.0,75,0.00,,---,0.00,VWS V14.01,2013-02-21 01:02:00,
2013-02-20 20:03:00,58.8,50.9,30.03,East,98,0.0,1.0,75,0.00,,---,0.00,VWS V14.01,2013-02-21 01:03:00,
2013-02-20 20:04:00,58.8,50.9,30.03,East,98,0.0,1.0,75,0.00,,---,0.00,VWS V14.01,2013-02-21 01:04:00,
2013-02-20 20:05:00,58.8,50.9,30.03,East,98,0.0,1.0,75,0.00,,---,0.00,VWS V14.01,2013-02-21 01:05:00,
2013-02-20 20:06:00,58.7,50.8,30.03,East,98,0.0,1.0,75,0.00,,---,0.00,VWS V14.01,2013-02-21 01:06:00,
2013-02-20 20:07:00,58.7,50.8,30.03,East,98,0.0,1.0,75,0.00,,---,0.00,VWS V14.01,2013-02-21 01:07:00,
2013-02-20 20:08:00,58.6,50.7,30.03,East,98,0.0,1.0,75,0.00,,---,0.00,VWS V14.01,2013-02-21 01:08:00,
2013-02-20 20:09:00,58.6,50.7,30.03,East,98,0.0,1.0,75,0.00,,---,0.00,VWS V14.01,2013-02-21 01:09:00,
2013-02-20 20:10:00,58.5,50.6,30.03,East,98,0.0,1.0,75,0.00,,---,0.00,VWS V14.01,2013-02-21 01:10:00,
2013-02-20 20:11:00,58.5,51.0,30.03,East,98,0.0,1.0,76,0.00,,---,0.00,VWS V14.01,2013-02-21 01:11:00,
2013-02-20 20:12:00,58.4,50.9,30.03,East,98,0.0,1.0,76,0.00,,---,0.00,VWS V14.01,2013-02-21 01:12:00,
2013-02-20 20:13:00,58.4,50.9,30.03,East,98,0.0,1.0,76,0.00,,---,0.00,VWS V14.01,2013-02-21 01:13:00,
2013-02-20 20:14:00,58.4,50.9,30.03,East,98,0.0,1.0,76,0.00,,---,0.00,VWS V14.01,2013-02-21 01:14:00,
2013-02-20 20:15:00,58.4,50.9,30.03,East,98,0.0,1.0,76,0.00,,---,0.00,VWS V14.01,2013-02-21 01:15:00,
2013-02-20 20:16:00,58.3,50.8,30.03,East,98,0.0,1.0,76,0.00,,---,0.00,VWS V14.01,2013-02-21 01:16:00,
2013-02-20 20:17:00,58.2,50.7,30.03,East,98,0.0,1.0,76,0.00,,---,0.00,VWS V14.01,2013-02-21 01:17:00,
2013-02-20 20:18:00,58.2,50.7,30.03,East,98,0.0,1.0,76,0.00,,---,0.00,VWS V14.01,2013-02-21 01:18:00,
2013-02-20 20:19:00,58.1,50.6,30.03,East,98,0.0,1.0,76,0.00,,---,0.00,VWS V14.01,2013-02-21 01:19:00,
2013-02-20 20:20:00,58.1,50.6,30.03,East,98,0.0,1.0,76,0.00,,---,0.00,VWS V14.01,2013-02-21 01:20:00,
2013-02-20 20:21:00,58.1,50.6,30.03,East,98,0.0,1.0,76,0.00,,---,0.00,VWS V14.01,2013-02-21 01:21:00,
2013-02-20 20:22:00,58.0,50.5,30.03,East,98,0.0,1.0,76,0.00,,---,0.00,VWS V14.01,2013-02-21 01:22:00,
2013-02-20 20:23:00,58.0,50.5,30.03,East,98,0.0,1.0,76,0.00,,---,0.00,VWS V14.01,2013-02-21 01:23:00,
2013-02-20 20:24:00,57.9,50.4,30.03,East,98,0.0,1.0,76,0.00,,---,0.00,VWS V14.01,2013-02-21 01:24:00,
2013-02-20 20:25:00,57.9,50.4,30.03,East,98,0.0,1.0,76,0.00,,---,0.00,VWS V14.01,2013-02-21 01:25:00,
2013-02-20 20:26:00,57.9,50.4,30.03,East,98,0.0,1.0,76,0.00,,---,0.00,VWS V14.01,2013-02-21 01:26:00,
2013-02-20 20:27:00,57.8,50.3,30.03,East,98,0.0,1.0,76,0.00,,---,0.00,VWS V14.01,2013-02-21 01:27:00,
2013-02-20 20:28:00,57.8,50.3,30.03,East,98,0.0,1.0,76,0.00,,---,0.00,VWS V14.01,2013-02-21 01:28:00,
2013-02-20 20:29:00,57.7,50.2,30.03,East,98,0.0,1.0,76,0.00,,---,0.00,VWS V14.01,2013-02-21 01:29:00,
2013-02-20 20:30:00,57.7,50.2,30.04,East,98,0.0,1.0,76,0.00,,---,0.00,VWS V14.01,2013-02-21 01:30:00,
2013-02-20 20:31:00,57.6,50.1,30.04,East,98,0.0,0.0,76,0.00,,---,0.00,VWS V14.01,2013-02-21 01:31:00,
2013-02-20 20:32:00,57.6,50.1,30.04,East,98,0.0,0.0,76,0.00,,---,0.00,VWS V14.01,2013-02-21 01:32:00,
2013-02-20 20:33:00,57.6,50.5,30.04,East,98,0.0,0.0,77,0.00,,---,0.00,VWS V14.01,2013-02-21 01:33:00,
2013-02-20 20:34:00,57.5,50.4,30.04,East,98,0.0,0.0,77,0.00,,---,0.00,VWS V14.01,2013-02-21 01:34:00,
2013-02-20 20:35:00,57.4,50.3,30.04,East,98,0.0,0.0,77,0.00,,---,0.00,VWS V14.01,2013-02-21 01:35:00,
2013-02-20 20:36:00,57.4,50.3,30.04,East,98,0.0,0.0,77,0.00,,---,0.00,VWS V14.01,2013-02-21 01:36:00,
2013-02-20 20:37:00,57.4,50.3,30.04,East,98,0.0,0.0,77,0.00,,---,0.00,VWS V14.01,2013-02-21 01:37:00,
2013-02-20 20:38:00,57.3,50.2,30.04,East,98,0.0,0.0,77,0.00,,---,0.00,VWS V14.01,2013-02-21 01:38:00,
2013-02-20 20:39:00,57.2,50.1,30.04,East,98,0.0,0.0,77,0.00,,---,0.00,VWS V14.01,2013-02-21 01:39:00,
2013-02-20 20:40:00,57.2,50.1,30.04,East,98,0.0,0.0,77,0.00,,---,0.00,VWS V14.01,2013-02-21 01:40:00,
2013-02-20 20:41:00,57.1,50.0,30.04,East,98,0.0,0.0,77,0.00,,---,0.00,VWS V14.01,2013-02-21 01:41:00,
2013-02-20 20:42:00,57.1,50.0,30.04,East,98,0.0,0.0,77,0.00,,---,0.00,VWS V14.01,2013-02-21 01:42:00,
2013-02-20 20:43:00,57.0,49.9,30.04,East,98,0.0,0.0,77,0.00,,---,0.00,VWS V14.01,2013-02-21 01:43:00,
2013-02-20 20:44:00,57.0,49.9,30.04,East,98,0.0,0.0,77,0.00,,---,0.00,VWS V14.01,2013-02-21 01:44:00,
2013-02-20 20:45:00,56.9,50.1,30.04,East,98,0.0,0.0,78,0.00,,---,0.00,VWS V14.01,2013-02-21 01:45:00,
2013-02-20 20:46:00,56.9,50.1,30.04,East,98,0.0,0.0,78,0.00,,---,0.00,VWS V14.01,2013-02-21 01:46:00,
2013-02-20 20:47:00,56.8,50.0,30.04,East,98,0.0,0.0,78,0.00,,---,0.00,VWS V14.01,2013-02-21 01:47:00,
2013-02-20 20:48:00,56.8,50.0,30.04,East,98,0.0,0.0,78,0.00,,---,0.00,VWS V14.01,2013-02-21 01:48:00,
2013-02-20 20:49:00,56.8,50.0,30.04,East,98,0.0,0.0,78,0.00,,---,0.00,VWS V14.01,2013-02-21 01:49:00,
2013-02-20 20:50:00,56.8,50.0,30.04,East,98,0.0,0.0,78,0.00,,---,0.00,VWS V14.01,2013-02-21 01:50:00,
2013-02-20 20:51:00,56.7,49.9,30.04,East,98,0.0,0.0,78,0.00,,---,0.00,VWS V14.01,2013-02-21 01:51:00,
2013-02-20 20:52:00,56.7,49.9,30.04,East,98,0.0,0.0,78,0.00,,---,0.00,VWS V14.01,2013-02-21 01:52:00,
2013-02-20 20:53:00,56.6,49.8,30.04,East,98,0.0,0.0,78,0.00,,---,0.00,VWS V14.01,2013-02-21 01:53:00,
2013-02-20 20:54:00,56.6,49.8,30.04,East,98,0.0,0.0,78,0.00,,---,0.00,VWS V14.01,2013-02-21 01:54:00,
2013-02-20 20:55:00,56.6,49.8,30.04,East,98,0.0,0.0,78,0.00,,---,0.00,VWS V14.01,2013-02-21 01:55:00,
2013-02-20 20:56:00,56.5,49.7,30.04,East,98,0.0,0.0,78,0.00,,---,0.00,VWS V14.01,2013-02-21 01:56:00,
2013-02-20 20:57:00,56.5,49.7,30.04,East,98,0.0,0.0,78,0.00,,---,0.00,VWS V14.01,2013-02-21 01:57:00,
2013-02-20 20:58:00,56.5,49.7,30.04,East,98,0.0,0.0,78,0.00,,---,0.00,VWS V14.01,2013-02-21 01:58:00,
2013-02-20 20:59:00,56.3,49.5,30.04,East,98,0.0,0.0,78,0.00,,---,0.00,VWS V14.01,2013-02-21 01:59:00,
2013-02-20 21:00:00,56.3,49.9,30.03,East,98,0.0,0.0,79,0.00,,---,0.00,VWS V14.01,2013-02-21 02:00:00,
2013-02-20 21:01:00,56.2,49.8,30.03,East,98,0.0,0.0,79,0.00,,---,0.00,VWS V14.01,2013-02-21 02:01:00,
2013-02-20 21:02:00,56.2,49.8,30.03,East,98,0.0,0.0,79,0.00,,---,0.00,VWS V14.01,2013-02-21 02:02:00,
2013-02-20 21:03:00,56.1,49.7,30.03,East,98,0.0,0.0,79,0.00,,---,0.00,VWS V14.01,2013-02-21 02:03:00,
2013-02-20 21:04:00,56.1,49.7,30.03,East,98,0.0,0.0,79,0.00,,---,0.00,VWS V14.01,2013-02-21 02:04:00,
2013-02-20 21:05:00,56.1,49.7,30.03,East,98,0.0,0.0,79,0.00,,---,0.00,VWS V14.01,2013-02-21 02:05:00,
2013-02-20 21:06:00,56.0,49.6,30.03,East,98,0.0,0.0,79,0.00,,---,0.00,VWS V14.01,2013-02-21 02:06:00,
2013-02-20 21:07:00,56.0,49.6,30.03,East,98,0.0,0.0,79,0.00,,---,0.00,VWS V14.01,2013-02-21 02:07:00,
2013-02-20 21:08:00,55.9,49.5,30.03,East,98,0.0,0.0,79,0.00,,---,0.00,VWS V14.01,2013-02-21 02:08:00,
2013-02-20 21:09:00,55.9,49.5,30.03,East,98,0.0,0.0,79,0.00,,---,0.00,VWS V14.01,2013-02-21 02:09:00,
2013-02-20 21:10:00,55.7,49.3,30.03,East,98,0.0,0.0,79,0.00,,---,0.00,VWS V14.01,2013-02-21 02:10:00,
2013-02-20 21:11:00,55.6,49.2,30.03,East,98,0.0,0.0,79,0.00,,---,0.00,VWS V14.01,2013-02-21 02:11:00,
2013-02-20 21:12:00,55.6,49.5,30.03,East,98,0.0,0.0,80,0.00,,---,0.00,VWS V14.01,2013-02-21 02:12:00,
2013-02-20 21:13:00,55.4,49.3,30.03,East,98,0.0,0.0,80,0.00,,---,0.00,VWS V14.01,2013-02-21 02:13:00,
2013-02-20 21:14:00,55.4,49.3,30.03,East,98,0.0,0.0,80,0.00,,---,0.00,VWS V14.01,2013-02-21 02:14:00,
2013-02-20 21:15:00,55.2,49.2,30.03,East,98,0.0,0.0,80,0.00,,---,0.00,VWS V14.01,2013-02-21 02:15:00,
2013-02-20 21:16:00,55.1,49.0,30.03,East,98,0.0,0.0,80,0.00,,---,0.00,VWS V14.01,2013-02-21 02:16:00,
2013-02-20 21:17:00,55.1,49.0,30.03,East,98,0.0,0.0,80,0.00,,---,0.00,VWS V14.01,2013-02-21 02:17:00,
2013-02-20 21:18:00,54.9,48.9,30.03,East,98,0.0,0.0,80,0.00,,---,0.00,VWS V14.01,2013-02-21 02:18:00,
2013-02-20 21:19:00,54.8,49.1,30.03,East,98,0.0,0.0,81,0.00,,---,0.00,VWS V14.01,2013-02-21 02:19:00,
2013-02-20 21:20:00,54.7,49.0,30.03,East,98,0.0,0.0,81,0.00,,---,0.00,VWS V14.01,2013-02-21 02:20:00,
2013-02-20 21:21:00,54.6,48.9,30.03,East,98,0.0,0.0,81,0.00,,---,0.00,VWS V14.01,2013-02-21 02:21:00,
2013-02-20 21:22:00,54.6,49.2,30.03,East,98,0.0,0.0,82,0.00,,---,0.00,VWS V14.01,2013-02-21 02:22:00,
2013-02-20 21:23:00,54.5,49.1,30.03,East,98,0.0,0.0,82,0.00,,---,0.00,VWS V14.01,2013-02-21 02:23:00,
2013-02-20 21:24:00,54.4,48.7,30.03,East,98,0.0,0.0,81,0.00,,---,0.00,VWS V14.01,2013-02-21 02:24:00,
2013-02-20 21:25:00,54.3,48.6,30.03,East,98,0.0,0.0,81,0.00,,---,0.00,VWS V14.01,2013-02-21 02:25:00,
2013-02-20 21:26:00,54.2,48.8,30.03,East,98,0.0,0.0,82,0.00,,---,0.00,VWS V14.01,2013-02-21 02:26:00,
2013-02-20 21:27:00,54.1,48.7,30.03,East,98,0.0,0.0,82,0.00,,---,0.00,VWS V14.01,2013-02-21 02:27:00,
2013-02-20 21:28:00,54.1,48.7,30.03,East,98,0.0,0.0,82,0.00,,---,0.00,VWS V14.01,2013-02-21 02:28:00,
2013-02-20 21:29:00,54.0,48.6,30.03,East,98,0.0,0.0,82,0.00,,---,0.00,VWS V14.01,2013-02-21 02:29:00,
2013-02-20 21:30:00,53.9,48.5,30.04,East,98,0.0,0.0,82,0.00,,---,0.00,VWS V14.01,2013-02-21 02:30:00,
2013-02-20 21:31:00,53.8,48.4,30.04,East,98,0.0,0.0,82,0.00,,---,0.00,VWS V14.01,2013-02-21 02:31:00,
2013-02-20 21:32:00,53.8,48.4,30.04,East,98,0.0,0.0,82,0.00,,---,0.00,VWS V14.01,2013-02-21 02:32:00,
2013-02-20 21:33:00,53.7,48.3,30.04,East,98,0.0,0.0,82,0.00,,---,0.00,VWS V14.01,2013-02-21 02:33:00,
2013-02-20 21:34:00,53.6,48.6,30.04,East,98,0.0,0.0,83,0.00,,---,0.00,VWS V14.01,2013-02-21 02:34:00,
2013-02-20 21:35:00,53.5,48.5,30.04,East,98,0.0,0.0,83,0.00,,---,0.00,VWS V14.01,2013-02-21 02:35:00,
2013-02-20 21:36:00,53.5,48.5,30.04,East,98,0.0,0.0,83,0.00,,---,0.00,VWS V14.01,2013-02-21 02:36:00,
2013-02-20 21:37:00,53.4,48.4,30.04,East,98,0.0,0.0,83,0.00,,---,0.00,VWS V14.01,2013-02-21 02:37:00,
2013-02-20 21:38:00,53.4,48.7,30.04,East,98,0.0,0.0,84,0.00,,---,0.00,VWS V14.01,2013-02-21 02:38:00,
2013-02-20 21:39:00,53.3,48.6,30.04,East,98,0.0,0.0,84,0.00,,---,0.00,VWS V14.01,2013-02-21 02:39:00,
2013-02-20 21:40:00,53.3,48.6,30.04,East,98,0.0,0.0,84,0.00,,---,0.00,VWS V14.01,2013-02-21 02:40:00,
2013-02-20 21:41:00,53.3,48.6,30.04,East,98,0.0,0.0,84,0.00,,---,0.00,VWS V14.01,2013-02-21 02:41:00,
2013-02-20 21:42:00,53.2,48.5,30.04,East,98,0.0,0.0,84,0.00,,---,0.00,VWS V14.01,2013-02-21 02:42:00,
2013-02-20 21:43:00,53.2,48.5,30.04,East,98,0.0,0.0,84,0.00,,---,0.00,VWS V14.01,2013-02-21 02:43:00,
2013-02-20 21:44:00,53.1,48.4,30.04,East,98,0.0,0.0,84,0.00,,---,0.00,VWS V14.01,2013-02-21 02:44:00,
2013-02-20 21:45:00,53.1,48.4,30.03,East,98,0.0,0.0,84,0.00,,---,0.00,VWS V14.01,2013-02-21 02:45:00,
2013-02-20 21:46:00,53.0,48.3,30.03,East,98,0.0,0.0,84,0.00,,---,0.00,VWS V14.01,2013-02-21 02:46:00,
2013-02-20 21:47:00,53.0,48.3,30.03,East,98,0.0,0.0,84,0.00,,---,0.00,VWS V14.01,2013-02-21 02:47:00,
2013-02-20 21:48:00,53.0,48.3,30.03,East,98,0.0,0.0,84,0.00,,---,0.00,VWS V14.01,2013-02-21 02:48:00,
2013-02-20 21:49:00,52.7,48.0,30.03,East,98,0.0,0.0,84,0.00,,---,0.00,VWS V14.01,2013-02-21 02:49:00,
2013-02-20 21:50:00,52.7,48.0,30.03,East,98,0.0,0.0,84,0.00,,---,0.00,VWS V14.01,2013-02-21 02:50:00,
2013-02-20 21:51:00,52.6,47.9,30.03,East,98,0.0,0.0,84,0.00,,---,0.00,VWS V14.01,2013-02-21 02:51:00,
2013-02-20 21:52:00,52.6,47.9,30.03,East,98,0.0,0.0,84,0.00,,---,0.00,VWS V14.01,2013-02-21 02:52:00,
2013-02-20 21:53:00,52.5,47.8,30.03,East,98,0.0,0.0,84,0.00,,---,0.00,VWS V14.01,2013-02-21 02:53:00,
2013-02-20 21:54:00,52.5,47.8,30.03,East,98,0.0,0.0,84,0.00,,---,0.00,VWS V14.01,2013-02-21 02:54:00,
2013-02-20 21:55:00,52.5,48.1,30.03,East,98,0.0,0.0,85,0.00,,---,0.00,VWS V14.01,2013-02-21 02:55:00,
2013-02-20 21:56:00,52.4,48.0,30.03,East,98,0.0,0.0,85,0.00,,---,0.00,VWS V14.01,2013-02-21 02:56:00,
2013-02-20 21:57:00,52.4,48.0,30.03,East,98,0.0,0.0,85,0.00,,---,0.00,VWS V14.01,2013-02-21 02:57:00,
2013-02-20 21:58:00,52.4,48.0,30.03,East,98,0.0,0.0,85,0.00,,---,0.00,VWS V14.01,2013-02-21 02:58:00,
2013-02-20 21:59:00,52.4,48.3,30.03,East,98,0.0,0.0,86,0.00,,---,0.00,VWS V14.01,2013-02-21 02:59:00,
2013-02-20 22:00:00,52.4,48.3,30.03,East,98,0.0,0.0,86,0.00,,---,0.00,VWS V14.01,2013-02-21 03:00:00,
2013-02-20 22:01:00,52.4,48.3,30.03,East,98,0.0,0.0,86,0.00,,---,0.00,VWS V14.01,2013-02-21 03:01:00,
2013-02-20 22:02:00,52.4,48.3,30.03,East,98,0.0,0.0,86,0.00,,---,0.00,VWS V14.01,2013-02-21 03:02:00,
2013-02-20 22:03:00,52.4,48.3,30.03,East,98,0.0,0.0,86,0.00,,---,0.00,VWS V14.01,2013-02-21 03:03:00,
2013-02-20 22:04:00,52.5,48.4,30.03,East,98,0.0,0.0,86,0.00,,---,0.00,VWS V14.01,2013-02-21 03:04:00,
2013-02-20 22:05:00,52.6,48.5,30.03,East,98,0.0,0.0,86,0.00,,---,0.00,VWS V14.01,2013-02-21 03:05:00,
2013-02-20 22:06:00,52.6,48.5,30.03,East,98,0.0,0.0,86,0.00,,---,0.00,VWS V14.01,2013-02-21 03:06:00,
2013-02-20 22:07:00,52.6,48.2,30.03,East,98,0.0,0.0,85,0.00,,---,0.00,VWS V14.01,2013-02-21 03:07:00,
2013-02-20 22:08:00,52.6,48.2,30.03,East,98,0.0,0.0,85,0.00,,---,0.00,VWS V14.01,2013-02-21 03:08:00,
2013-02-20 22:09:00,52.6,48.2,30.03,East,98,0.0,0.0,85,0.00,,---,0.00,VWS V14.01,2013-02-21 03:09:00,
2013-02-20 22:10:00,52.5,48.1,30.03,East,98,0.0,0.0,85,0.00,,---,0.00,VWS V14.01,2013-02-21 03:10:00,
2013-02-20 22:11:00,52.5,48.1,30.03,East,98,0.0,0.0,85,0.00,,---,0.00,VWS V14.01,2013-02-21 03:11:00,
2013-02-20 22:12:00,52.4,48.0,30.03,East,98,0.0,0.0,85,0.00,,---,0.00,VWS V14.01,2013-02-21 03:12:00,
2013-02-20 22:13:00,52.3,47.9,30.03,East,98,0.0,0.0,85,0.00,,---,0.00,VWS V14.01,2013-02-21 03:13:00,
2013-02-20 22:14:00,52.2,47.8,30.03,East,98,0.0,0.0,85,0.00,,---,0.00,VWS V14.01,2013-02-21 03:14:00,
2013-02-20 22:15:00,52.1,47.7,30.03,East,98,0.0,0.0,85,0.00,,---,0.00,VWS V14.01,2013-02-21 03:15:00,
2013-02-20 22:16:00,52.0,47.6,30.03,East,98,0.0,0.0,85,0.00,,---,0.00,VWS V14.01,2013-02-21 03:16:00,
2013-02-20 22:17:00,52.0,47.6,30.03,East,98,0.0,0.0,85,0.00,,---,0.00,VWS V14.01,2013-02-21 03:17:00,
2013-02-20 22:18:00,51.9,47.5,30.03,East,98,0.0,0.0,85,0.00,,---,0.00,VWS V14.01,2013-02-21 03:18:00,
2013-02-20 22:19:00,51.9,47.5,30.03,East,98,0.0,0.0,85,0.00,,---,0.00,VWS V14.01,2013-02-21 03:19:00,
2013-02-20 22:20:00,51.8,47.4,30.03,East,98,0.0,0.0,85,0.00,,---,0.00,VWS V14.01,2013-02-21 03:20:00,
2013-02-20 22:21:00,51.8,47.4,30.03,East,98,0.0,0.0,85,0.00,,---,0.00,VWS V14.01,2013-02-21 03:21:00,
2013-02-20 22:22:00,51.7,47.3,30.03,East,98,0.0,0.0,85,0.00,,---,0.00,VWS V14.01,2013-02-21 03:22:00,
2013-02-20 22:23:00,51.7,47.3,30.03,East,98,0.0,0.0,85,0.00,,---,0.00,VWS V14.01,2013-02-21 03:23:00,
2013-02-20 22:24:00,51.6,47.6,30.03,East,98,0.0,0.0,86,0.00,,---,0.00,VWS V14.01,2013-02-21 03:24:00,
2013-02-20 22:25:00,51.6,47.6,30.03,East,98,0.0,0.0,86,0.00,,---,0.00,VWS V14.01,2013-02-21 03:25:00,
2013-02-20 22:26:00,51.4,47.4,30.03,East,98,0.0,0.0,86,0.00,,---,0.00,VWS V14.01,2013-02-21 03:26:00,
2013-02-20 22:27:00,51.3,47.0,30.03,East,98,0.0,0.0,85,0.00,,---,0.00,VWS V14.01,2013-02-21 03:27:00,
2013-02-20 22:28:00,51.2,47.2,30.03,East,98,0.0,0.0,86,0.00,,---,0.00,VWS V14.01,2013-02-21 03:28:00,
2013-02-20 22:29:00,51.2,47.2,30.03,East,98,0.0,0.0,86,0.00,,---,0.00,VWS V14.01,2013-02-21 03:29:00,
2013-02-20 22:30:00,51.1,47.1,30.01,East,98,0.0,0.0,86,0.00,,---,0.00,VWS V14.01,2013-02-21 03:30:00,
2013-02-20 22:31:00,50.9,46.9,30.01,East,98,0.0,0.0,86,0.00,,---,0.00,VWS V14.01,2013-02-21 03:31:00,
2013-02-20 22:32:00,50.8,46.8,30.01,East,98,0.0,0.0,86,0.00,,---,0.00,VWS V14.01,2013-02-21 03:32:00,
2013-02-20 22:33:00,50.7,46.7,30.01,East,98,0.0,0.0,86,0.00,,---,0.00,VWS V14.01,2013-02-21 03:33:00,
2013-02-20 22:34:00,50.6,46.6,30.01,East,98,0.0,0.0,86,0.00,,---,0.00,VWS V14.01,2013-02-21 03:34:00,
2013-02-20 22:35:00,50.5,46.5,30.01,East,98,0.0,0.0,86,0.00,,---,0.00,VWS V14.01,2013-02-21 03:35:00,
2013-02-20 22:36:00,50.5,46.5,30.01,East,98,0.0,0.0,86,0.00,,---,0.00,VWS V14.01,2013-02-21 03:36:00,
2013-02-20 22:37:00,50.4,46.4,30.01,East,98,0.0,0.0,86,0.00,,---,0.00,VWS V14.01,2013-02-21 03:37:00,
2013-02-20 22:38:00,50.4,46.7,30.01,East,98,0.0,0.0,87,0.00,,---,0.00,VWS V14.01,2013-02-21 03:38:00,
2013-02-20 22:39:00,50.4,46.7,30.01,East,98,0.0,0.0,87,0.00,,---,0.00,VWS V14.01,2013-02-21 03:39:00,
2013-02-20 22:40:00,50.3,46.6,30.01,East,98,0.0,0.0,87,0.00,,---,0.00,VWS V14.01,2013-02-21 03:40:00,
2013-02-20 22:41:00,50.3,46.6,30.01,East,98,0.0,0.0,87,0.00,,---,0.00,VWS V14.01,2013-02-21 03:41:00,
2013-02-20 22:42:00,50.3,46.9,30.01,East,98,0.0,0.0,88,0.00,,---,0.00,VWS V14.01,2013-02-21 03:42:00,
2013-02-20 22:43:00,50.3,46.9,30.01,East,98,0.0,0.0,88,0.00,,---,0.00,VWS V14.01,2013-02-21 03:43:00,
2013-02-20 22:44:00,50.3,46.9,30.01,East,98,0.0,0.0,88,0.00,,---,0.00,VWS V14.01,2013-02-21 03:44:00,
2013-02-20 22:45:00,50.3,46.9,30.01,East,98,0.0,0.0,88,0.00,,---,0.00,VWS V14.01,2013-02-21 03:45:00,
2013-02-20 22:46:00,50.3,46.6,30.01,East,98,0.0,0.0,87,0.00,,---,0.00,VWS V14.01,2013-02-21 03:46:00,
2013-02-20 22:47:00,50.2,46.5,30.01,East,98,0.0,0.0,87,0.00,,---,0.00,VWS V14.01,2013-02-21 03:47:00,
2013-02-20 22:48:00,50.2,46.8,30.01,East,98,0.0,0.0,88,0.00,,---,0.00,VWS V14.01,2013-02-21 03:48:00,
2013-02-20 22:49:00,50.2,46.8,30.01,East,98,0.0,0.0,88,0.00,,---,0.00,VWS V14.01,2013-02-21 03:49:00,
2013-02-20 22:50:00,50.2,46.8,30.01,East,98,0.0,0.0,88,0.00,,---,0.00,VWS V14.01,2013-02-21 03:50:00,
2013-02-20 22:51:00,50.2,46.8,30.01,East,98,0.0,0.0,88,0.00,,---,0.00,VWS V14.01,2013-02-21 03:51:00,
2013-02-20 22:52:00,50.2,46.8,30.01,East,98,0.0,0.0,88,0.00,,---,0.00,VWS V14.01,2013-02-21 03:52:00,
2013-02-20 22:53:00,50.1,46.7,30.01,East,98,0.0,0.0,88,0.00,,---,0.00,VWS V14.01,2013-02-21 03:53:00,
2013-02-20 22:54:00,50.0,46.6,30.01,East,98,0.0,0.0,88,0.00,,---,0.00,VWS V14.01,2013-02-21 03:54:00,
2013-02-20 22:55:00,50.0,46.6,30.01,East,98,0.0,0.0,88,0.00,,---,0.00,VWS V14.01,2013-02-21 03:55:00,
2013-02-20 22:56:00,50.0,46.6,30.01,East,98,0.0,0.0,88,0.00,,---,0.00,VWS V14.01,2013-02-21 03:56:00,
2013-02-20 22:57:00,50.0,46.6,30.01,East,98,0.0,0.0,88,0.00,,---,0.00,VWS V14.01,2013-02-21 03:57:00,
2013-02-20 22:58:00,49.9,46.5,30.01,East,98,0.0,0.0,88,0.00,,---,0.00,VWS V14.01,2013-02-21 03:58:00,
2013-02-20 22:59:00,49.9,46.5,30.01,East,98,0.0,0.0,88,0.00,,---,0.00,VWS V14.01,2013-02-21 03:59:00,
2013-02-20 23:00:00,49.9,46.5,30.00,East,98,0.0,0.0,88,0.00,,---,0.00,VWS V14.01,2013-02-21 04:00:00,
2013-02-20 23:01:00,49.9,46.5,30.00,East,98,0.0,0.0,88,0.00,,---,0.00,VWS V14.01,2013-02-21 04:01:00,
2013-02-20 23:02:00,49.8,46.4,30.00,East,98,0.0,0.0,88,0.00,,---,0.00,VWS V14.01,2013-02-21 04:02:00,
2013-02-20 23:03:00,49.7,46.3,30.00,East,98,0.0,0.0,88,0.00,,---,0.00,VWS V14.01,2013-02-21 04:03:00,
2013-02-20 23:04:00,49.7,46.3,30.00,East,98,0.0,0.0,88,0.00,,---,0.00,VWS V14.01,2013-02-21 04:04:00,
2013-02-20 23:05:00,49.6,46.2,30.00,East,98,0.0,0.0,88,0.00,,---,0.00,VWS V14.01,2013-02-21 04:05:00,
2013-02-20 23:06:00,49.6,46.2,30.00,East,98,0.0,0.0,88,0.00,,---,0.00,VWS V14.01,2013-02-21 04:06:00,
2013-02-20 23:07:00,49.6,46.2,30.00,East,98,0.0,0.0,88,0.00,,---,0.00,VWS V14.01,2013-02-21 04:07:00,
2013-02-20 23:08:00,49.6,46.2,30.00,East,98,0.0,0.0,88,0.00,,---,0.00,VWS V14.01,2013-02-21 04:08:00,
2013-02-20 23:09:00,49.6,46.2,30.00,East,98,0.0,0.0,88,0.00,,---,0.00,VWS V14.01,2013-02-21 04:09:00,
2013-02-20 23:10:00,49.6,46.2,30.00,East,98,0.0,0.0,88,0.00,,---,0.00,VWS V14.01,2013-02-21 04:10:00,
2013-02-20 23:11:00,49.6,46.2,30.00,East,98,0.0,0.0,88,0.00,,---,0.00,VWS V14.01,2013-02-21 04:11:00,
2013-02-20 23:12:00,49.2,45.8,30.00,East,98,0.0,0.0,88,0.00,,---,0.00,VWS V14.01,2013-02-21 04:12:00,
2013-02-20 23:13:00,49.2,45.8,30.00,East,98,0.0,0.0,88,0.00,,---,0.00,VWS V14.01,2013-02-21 04:13:00,
2013-02-20 23:14:00,49.1,45.7,30.00,East,98,0.0,0.0,88,0.00,,---,0.00,VWS V14.01,2013-02-21 04:14:00,
2013-02-20 23:15:00,49.1,46.0,30.01,East,98,0.0,0.0,89,0.00,,---,0.00,VWS V14.01,2013-02-21 04:15:00,
2013-02-20 23:16:00,49.1,46.0,30.01,East,98,0.0,0.0,89,0.00,,---,0.00,VWS V14.01,2013-02-21 04:16:00,
2013-02-20 23:17:00,49.1,46.0,30.01,East,98,0.0,0.0,89,0.00,,---,0.00,VWS V14.01,2013-02-21 04:17:00,
2013-02-20 23:18:00,49.1,46.0,30.01,East,98,0.0,0.0,89,0.00,,---,0.00,VWS V14.01,2013-02-21 04:18:00,
2013-02-20 23:19:00,49.1,46.0,30.01,East,98,0.0,0.0,89,0.00,,---,0.00,VWS V14.01,2013-02-21 04:19:00,
2013-02-20 23:20:00,49.1,46.0,30.01,East,98,0.0,0.0,89,0.00,,---,0.00,VWS V14.01,2013-02-21 04:20:00,
2013-02-20 23:21:00,49.0,45.9,30.01,East,98,0.0,0.0,89,0.00,,---,0.00,VWS V14.01,2013-02-21 04:21:00,
2013-02-20 23:22:00,49.0,45.9,30.01,East,98,0.0,0.0,89,0.00,,---,0.00,VWS V14.01,2013-02-21 04:22:00,
2013-02-20 23:23:00,49.0,45.9,30.01,East,98,0.0,0.0,89,0.00,,---,0.00,VWS V14.01,2013-02-21 04:23:00,
2013-02-20 23:24:00,48.9,45.8,30.01,East,98,0.0,0.0,89,0.00,,---,0.00,VWS V14.01,2013-02-21 04:24:00,
2013-02-20 23:25:00,48.9,45.8,30.01,East,98,0.0,0.0,89,0.00,,---,0.00,VWS V14.01,2013-02-21 04:25:00,
2013-02-20 23:26:00,48.9,45.8,30.01,East,98,0.0,0.0,89,0.00,,---,0.00,VWS V14.01,2013-02-21 04:26:00,
2013-02-20 23:27:00,48.8,45.7,30.01,East,98,0.0,0.0,89,0.00,,---,0.00,VWS V14.01,2013-02-21 04:27:00,
2013-02-20 23:28:00,48.8,45.7,30.01,East,98,0.0,0.0,89,0.00,,---,0.00,VWS V14.01,2013-02-21 04:28:00,
2013-02-20 23:29:00,48.8,45.7,30.01,East,98,0.0,0.0,89,0.00,,---,0.00,VWS V14.01,2013-02-21 04:29:00,
2013-02-20 23:30:00,48.8,45.7,30.00,East,98,0.0,0.0,89,0.00,,---,0.00,VWS V14.01,2013-02-21 04:30:00,
2013-02-20 23:31:00,48.8,45.7,30.00,East,98,0.0,0.0,89,0.00,,---,0.00,VWS V14.01,2013-02-21 04:31:00,
2013-02-20 23:32:00,48.7,45.6,30.00,East,98,0.0,0.0,89,0.00,,---,0.00,VWS V14.01,2013-02-21 04:32:00,
2013-02-20 23:33:00,48.7,45.6,30.00,East,98,0.0,0.0,89,0.00,,---,0.00,VWS V14.01,2013-02-21 04:33:00,
2013-02-20 23:34:00,48.7,45.6,30.00,East,98,0.0,0.0,89,0.00,,---,0.00,VWS V14.01,2013-02-21 04:34:00,
2013-02-20 23:35:00,48.7,45.6,30.00,East,98,0.0,0.0,89,0.00,,---,0.00,VWS V14.01,2013-02-21 04:35:00,
2013-02-20 23:36:00,48.7,45.9,30.00,East,98,0.0,0.0,90,0.00,,---,0.00,VWS V14.01,2013-02-21 04:36:00,
2013-02-20 23:37:00,48.7,45.9,30.00,East,98,2.0,2.0,90,0.00,,---,0.00,VWS V14.01,2013-02-21 04:37:00,
2013-02-20 23:38:00,48.8,46.0,30.00,East,98,2.0,2.0,90,0.00,,---,0.00,VWS V14.01,2013-02-21 04:38:00,
2013-02-20 23:39:00,48.8,46.0,30.00,East,98,1.0,2.0,90,0.00,,---,0.00,VWS V14.01,2013-02-21 04:39:00,
2013-02-20 23:40:00,48.9,46.1,30.00,East,98,0.0,2.0,90,0.00,,---,0.00,VWS V14.01,2013-02-21 04:40:00,
2013-02-20 23:41:00,48.9,46.1,30.00,East,98,0.0,2.0,90,0.00,,---,0.00,VWS V14.01,2013-02-21 04:41:00,
2013-02-20 23:42:00,48.9,46.1,30.00,East,98,0.0,2.0,90,0.00,,---,0.00,VWS V14.01,2013-02-21 04:42:00,
2013-02-20 23:43:00,48.9,46.1,30.00,East,98,0.0,2.0,90,0.00,,---,0.00,VWS V14.01,2013-02-21 04:43:00,
2013-02-20 23:44:00,48.9,46.1,30.00,East,98,0.0,2.0,90,0.00,,---,0.00,VWS V14.01,2013-02-21 04:44:00,
2013-02-20 23:45:00,48.9,46.1,30.00,East,98,0.0,2.0,90,0.00,,---,0.00,VWS V14.01,2013-02-21 04:45:00,
2013-02-20 23:46:00,48.8,46.0,30.00,East,98,0.0,2.0,90,0.00,,---,0.00,VWS V14.01,2013-02-21 04:46:00,
2013-02-20 23:47:00,48.8,46.0,30.00,East,98,0.0,2.0,90,0.00,,---,0.00,VWS V14.01,2013-02-21 04:47:00,
2013-02-20 23:48:00,48.7,45.9,30.00,East,98,0.0,2.0,90,0.00,,---,0.00,VWS V14.01,2013-02-21 04:48:00,
2013-02-20 23:49:00,48.7,45.9,30.00,East,98,0.0,2.0,90,0.00,,---,0.00,VWS V14.01,2013-02-21 04:49:00,
2013-02-20 23:50:00,48.6,45.8,30.00,East,98,0.0,2.0,90,0.00,,---,0.00,VWS V14.01,2013-02-21 04:50:00,
2013-02-20 23:51:00,48.6,45.5,30.00,East,98,0.0,2.0,89,0.00,,---,0.00,VWS V14.01,2013-02-21 04:51:00,
2013-02-20 23:52:00,48.5,45.4,30.00,East,98,0.0,2.0,89,0.00,,---,0.00,VWS V14.01,2013-02-21 04:52:00,
2013-02-20 23:53:00,48.5,45.4,30.00,East,98,0.0,2.0,89,0.00,,---,0.00,VWS V14.01,2013-02-21 04:53:00,
2013-02-20 23:54:00,48.4,45.6,30.00,East,98,0.0,2.0,90,0.00,,---,0.00,VWS V14.01,2013-02-21 04:54:00,
2013-02-20 23:55:00,48.4,45.6,30.00,East,98,0.0,2.0,90,0.00,,---,0.00,VWS V14.01,2013-02-21 04:55:00,
2013-02-20 23:56:00,48.4,45.6,30.00,East,98,0.0,2.0,90,0.00,,---,0.00,VWS V14.01,2013-02-21 04:56:00,
2013-02-20 23:57:00,48.4,45.6,30.00,East,98,0.0,2.0,90,0.00,,---,0.00,VWS V14.01,2013-02-21 04:57:00,
2013-02-20 23:58:00,48.4,45.6,30.00,East,98,0.0,2.0,90,0.00,,---,0.00,VWS V14.01,2013-02-21 04:58:00,
2013-02-20 23:59:00,48.4,45.6,30.00,East,98,0.0,2.0,90,0.00,,---,0.00,VWS V14.01,2013-02-21 04:59:00,